<?xml version='1.0' encoding='UTF-8'?><gpx version="1.1" creator="JPX - https://github.com/jenetics/jpx" xmlns="http://www.topografix.com/GPX/1/1"><trk><trkseg><trkpt lat="37.67081818606082" lon="12.541498610328246"><ele>11.0</ele><time>2026-04-09T13:44:32Z</time></trkpt><trkpt lat="37.67087202742947" lon="12.541411619001483"><ele>11.0</ele><time>2026-04-09T13:44:33Z</time></trkpt><trkpt lat="37.67092534797121" lon="12.54132121897499"><ele>11.0</ele><time>2026-04-09T13:44:34Z</time></trkpt><trkpt lat="37.67098357221314" lon="12.54123493539538"><ele>11.0</ele><time>2026-04-09T13:44:35Z</time></trkpt><trkpt lat="37.671030347252184" lon="12.541147186937026"><ele>11.0</ele><time>2026-04-09T13:44:36Z</time></trkpt><trkpt lat="37.67107887876772" lon="12.541056923589352"><ele>11.0</ele><time>2026-04-09T13:44:37Z</time></trkpt><trkpt lat="37.67113076570342" lon="12.540968081244571"><ele>11.333333333333332</ele><time>2026-04-09T13:44:38Z</time></trkpt><trkpt lat="37.67117909281541" lon="12.540879388327708"><ele>11.666666666666666</ele><time>2026-04-09T13:44:39Z</time></trkpt><trkpt lat="37.671239667971456" lon="12.54078807938187"><ele>12.0</ele><time>2026-04-09T13:44:40Z</time></trkpt><trkpt lat="37.671294129110485" lon="12.540706234353797"><ele>12.333333333333332</ele><time>2026-04-09T13:44:41Z</time></trkpt><trkpt lat="37.67135959205986" lon="12.540626417802866"><ele>12.666666666666666</ele><time>2026-04-09T13:44:42Z</time></trkpt><trkpt lat="37.67140935330744" lon="12.540541502512479"><ele>13.0</ele><time>2026-04-09T13:44:43Z</time></trkpt><trkpt lat="37.67146032612996" lon="12.54045477028875"><ele>12.999999999999998</ele><time>2026-04-09T13:44:44Z</time></trkpt><trkpt lat="37.67150689660268" lon="12.540357996040736"><ele>13.0</ele><time>2026-04-09T13:44:45Z</time></trkpt><trkpt lat="37.6715501427349" lon="12.540274815163887"><ele>13.0</ele><time>2026-04-09T13:44:45.999Z</time></trkpt><trkpt lat="37.67160242269751" lon="12.540191298255074"><ele>13.0</ele><time>2026-04-09T13:44:46.999Z</time></trkpt><trkpt lat="37.6716509201623" lon="12.540109425050199"><ele>12.999999999999998</ele><time>2026-04-09T13:44:47.999Z</time></trkpt><trkpt lat="37.671713246066126" lon="12.540036104280059"><ele>13.0</ele><time>2026-04-09T13:44:48.999Z</time></trkpt><trkpt lat="37.671756919277556" lon="12.53995710947754"><ele>12.999999999999998</ele><time>2026-04-09T13:44:49.999Z</time></trkpt><trkpt lat="37.67180540393489" lon="12.539871364976548"><ele>13.0</ele><time>2026-04-09T13:44:50.999Z</time></trkpt><trkpt lat="37.67184860844792" lon="12.53978656347111"><ele>13.0</ele><time>2026-04-09T13:44:51.999Z</time></trkpt><trkpt lat="37.67189992241989" lon="12.53969985680731"><ele>13.0</ele><time>2026-04-09T13:44:52.999Z</time></trkpt><trkpt lat="37.67194465876628" lon="12.539624099974997"><ele>12.999999999999998</ele><time>2026-04-09T13:44:53.999Z</time></trkpt><trkpt lat="37.67198556147249" lon="12.539550058096394"><ele>13.0</ele><time>2026-04-09T13:44:54.999Z</time></trkpt><trkpt lat="37.67205723470151" lon="12.53943929148625"><ele>12.833333333333332</ele><time>2026-04-09T13:44:56.999Z</time></trkpt><trkpt lat="37.67210879923054" lon="12.539374312337012"><ele>12.666666666666666</ele><time>2026-04-09T13:44:58.999Z</time></trkpt><trkpt lat="37.6720079559455" lon="12.539253510969296"><ele>12.5</ele><time>2026-04-09T13:44:59.999Z</time></trkpt><trkpt lat="37.671949136700654" lon="12.539202607542787"><ele>12.333333333333332</ele><time>2026-04-09T13:45:00.999Z</time></trkpt><trkpt lat="37.67189876981151" lon="12.53913742534531"><ele>12.166666666666666</ele><time>2026-04-09T13:45:01.999Z</time></trkpt><trkpt lat="37.67183862253603" lon="12.539085082582032"><ele>12.0</ele><time>2026-04-09T13:45:02.999Z</time></trkpt><trkpt lat="37.6717785205384" lon="12.539032374927347"><ele>12.0</ele><time>2026-04-09T13:45:03.999Z</time></trkpt><trkpt lat="37.67172333904169" lon="12.538983663071587"><ele>12.0</ele><time>2026-04-09T13:45:04.999Z</time></trkpt><trkpt lat="37.67163999428328" lon="12.538932707587263"><ele>12.0</ele><time>2026-04-09T13:45:05.999Z</time></trkpt><trkpt lat="37.67158576764596" lon="12.538862220941088"><ele>12.0</ele><time>2026-04-09T13:45:06.999Z</time></trkpt><trkpt lat="37.67150961918714" lon="12.538795000350731"><ele>12.0</ele><time>2026-04-09T13:45:07.999Z</time></trkpt><trkpt lat="37.67143523549168" lon="12.538729337616465"><ele>12.0</ele><time>2026-04-09T13:45:08.999Z</time></trkpt><trkpt lat="37.67136001982634" lon="12.538662906612219"><ele>12.0</ele><time>2026-04-09T13:45:09.999Z</time></trkpt><trkpt lat="37.67128874997143" lon="12.53860317913498"><ele>12.0</ele><time>2026-04-09T13:45:10.999Z</time></trkpt><trkpt lat="37.67122023336195" lon="12.538544198129689"><ele>12.0</ele><time>2026-04-09T13:45:11.999Z</time></trkpt><trkpt lat="37.67115475146144" lon="12.538487829485682"><ele>12.0</ele><time>2026-04-09T13:45:12.999Z</time></trkpt><trkpt lat="37.67109291291716" lon="12.538431201256671"><ele>12.0</ele><time>2026-04-09T13:45:13.999Z</time></trkpt><trkpt lat="37.671024178982606" lon="12.538381932744306"><ele>12.0</ele><time>2026-04-09T13:45:14.999Z</time></trkpt><trkpt lat="37.67096427693057" lon="12.538335293830706"><ele>12.0</ele><time>2026-04-09T13:45:15.999Z</time></trkpt><trkpt lat="37.67090562690148" lon="12.538281355368323"><ele>12.0</ele><time>2026-04-09T13:45:16.999Z</time></trkpt><trkpt lat="37.67081798022831" lon="12.538193759098808"><ele>12.0</ele><time>2026-04-09T13:45:18.999Z</time></trkpt><trkpt lat="37.67072978891422" lon="12.538119023879116"><ele>12.0</ele><time>2026-04-09T13:45:20.999Z</time></trkpt><trkpt lat="37.67065126282167" lon="12.538032175443913"><ele>12.0</ele><time>2026-04-09T13:45:22.999Z</time></trkpt><trkpt lat="37.67056343139977" lon="12.537952778229473"><ele>11.8</ele><time>2026-04-09T13:45:24.999Z</time></trkpt><trkpt lat="37.6704575205026" lon="12.53786274649514"><ele>11.6</ele><time>2026-04-09T13:45:26.999Z</time></trkpt><trkpt lat="37.67038561559037" lon="12.53781237489897"><ele>11.4</ele><time>2026-04-09T13:45:27.999Z</time></trkpt><trkpt lat="37.67032482205019" lon="12.53773793671757"><ele>11.200000000000001</ele><time>2026-04-09T13:45:28.999Z</time></trkpt><trkpt lat="37.67025623059751" lon="12.537675130085853"><ele>11.0</ele><time>2026-04-09T13:45:29.999Z</time></trkpt><trkpt lat="37.67018228686633" lon="12.53761392625949"><ele>10.600000000000001</ele><time>2026-04-09T13:45:30.999Z</time></trkpt><trkpt lat="37.67010723227279" lon="12.537548399510563"><ele>10.200000000000001</ele><time>2026-04-09T13:45:31.999Z</time></trkpt><trkpt lat="37.670025991079555" lon="12.537481271321743"><ele>9.8</ele><time>2026-04-09T13:45:32.999Z</time></trkpt><trkpt lat="37.669954673150706" lon="12.537399005193809"><ele>9.4</ele><time>2026-04-09T13:45:33.999Z</time></trkpt><trkpt lat="37.66986827510758" lon="12.537337439958808"><ele>9.0</ele><time>2026-04-09T13:45:34.999Z</time></trkpt><trkpt lat="37.669787292066694" lon="12.537259210874694"><ele>9.0</ele><time>2026-04-09T13:45:35.999Z</time></trkpt><trkpt lat="37.66970302304091" lon="12.537192883132565"><ele>9.0</ele><time>2026-04-09T13:45:36.999Z</time></trkpt><trkpt lat="37.66962350111776" lon="12.537112260873094"><ele>9.0</ele><time>2026-04-09T13:45:37.999Z</time></trkpt><trkpt lat="37.66954011825827" lon="12.537038400510504"><ele>9.0</ele><time>2026-04-09T13:45:38.999Z</time></trkpt><trkpt lat="37.669455485095995" lon="12.536959017475272"><ele>9.0</ele><time>2026-04-09T13:45:39.999Z</time></trkpt><trkpt lat="37.66937752354456" lon="12.536863565090004"><ele>8.6</ele><time>2026-04-09T13:45:40.999Z</time></trkpt><trkpt lat="37.669287584660246" lon="12.536792798321995"><ele>8.2</ele><time>2026-04-09T13:45:41.999Z</time></trkpt><trkpt lat="37.669203581278666" lon="12.536707038682664"><ele>7.799999999999999</ele><time>2026-04-09T13:45:42.999Z</time></trkpt><trkpt lat="37.669111840984684" lon="12.536626433855268"><ele>7.3999999999999995</ele><time>2026-04-09T13:45:43.999Z</time></trkpt><trkpt lat="37.669018469087476" lon="12.536548296854521"><ele>7.0</ele><time>2026-04-09T13:45:44.999Z</time></trkpt><trkpt lat="37.6689279362906" lon="12.536465320807643"><ele>7.0</ele><time>2026-04-09T13:45:45.999Z</time></trkpt><trkpt lat="37.668834674670975" lon="12.536378545070505"><ele>7.0</ele><time>2026-04-09T13:45:46.999Z</time></trkpt><trkpt lat="37.6687407697701" lon="12.536303995561097"><ele>7.0</ele><time>2026-04-09T13:45:47.999Z</time></trkpt><trkpt lat="37.66865434024277" lon="12.536204216045375"><ele>7.0</ele><time>2026-04-09T13:45:48.999Z</time></trkpt><trkpt lat="37.66856080893554" lon="12.536123127712408"><ele>6.8</ele><time>2026-04-09T13:45:49.999Z</time></trkpt><trkpt lat="37.66846716513079" lon="12.536041941848767"><ele>6.6</ele><time>2026-04-09T13:45:51Z</time></trkpt><trkpt lat="37.66836850423461" lon="12.535979374029164"><ele>6.3999999999999995</ele><time>2026-04-09T13:45:52Z</time></trkpt><trkpt lat="37.66827980329556" lon="12.53589676786424"><ele>6.199999999999999</ele><time>2026-04-09T13:45:53Z</time></trkpt><trkpt lat="37.66818839926144" lon="12.535818104641695"><ele>6.0</ele><time>2026-04-09T13:45:54Z</time></trkpt><trkpt lat="37.668097945654495" lon="12.535737102629984"><ele>6.0</ele><time>2026-04-09T13:45:55Z</time></trkpt><trkpt lat="37.66801031700533" lon="12.535656917694816"><ele>6.0</ele><time>2026-04-09T13:45:56Z</time></trkpt><trkpt lat="37.66792116523406" lon="12.535580998669188"><ele>6.0</ele><time>2026-04-09T13:45:57Z</time></trkpt><trkpt lat="37.66784477967323" lon="12.535488500777939"><ele>6.0</ele><time>2026-04-09T13:45:58Z</time></trkpt><trkpt lat="37.66775057868157" lon="12.535428597353132"><ele>6.0</ele><time>2026-04-09T13:45:59Z</time></trkpt><trkpt lat="37.66767160153006" lon="12.535348518888913"><ele>6.199999999999999</ele><time>2026-04-09T13:46:00Z</time></trkpt><trkpt lat="37.66758950117187" lon="12.535278976253991"><ele>6.3999999999999995</ele><time>2026-04-09T13:46:01Z</time></trkpt><trkpt lat="37.66751136115784" lon="12.535205866397128"><ele>6.6</ele><time>2026-04-09T13:46:02Z</time></trkpt><trkpt lat="37.66743571972514" lon="12.535126464219385"><ele>6.8</ele><time>2026-04-09T13:46:03Z</time></trkpt><trkpt lat="37.6673528792305" lon="12.535056010579938"><ele>7.0</ele><time>2026-04-09T13:46:04Z</time></trkpt><trkpt lat="37.667273668719474" lon="12.534979744639498"><ele>7.0</ele><time>2026-04-09T13:46:05Z</time></trkpt><trkpt lat="37.667185118838844" lon="12.53491117939969"><ele>6.999999999999999</ele><time>2026-04-09T13:46:06Z</time></trkpt><trkpt lat="37.66711011117749" lon="12.534818275235278"><ele>6.999999999999999</ele><time>2026-04-09T13:46:07Z</time></trkpt><trkpt lat="37.66701818947008" lon="12.534759041644541"><ele>7.0</ele><time>2026-04-09T13:46:08Z</time></trkpt><trkpt lat="37.666935271450605" lon="12.534675737662441"><ele>7.0</ele><time>2026-04-09T13:46:09Z</time></trkpt><trkpt lat="37.666846281441174" lon="12.53459855899026"><ele>6.8</ele><time>2026-04-09T13:46:10Z</time></trkpt><trkpt lat="37.66676210051347" lon="12.534515585219427"><ele>6.6</ele><time>2026-04-09T13:46:11Z</time></trkpt><trkpt lat="37.666675194845915" lon="12.534448859898975"><ele>6.3999999999999995</ele><time>2026-04-09T13:46:12Z</time></trkpt><trkpt lat="37.66658010018917" lon="12.534368934268262"><ele>6.199999999999999</ele><time>2026-04-09T13:46:13Z</time></trkpt><trkpt lat="37.66649625322173" lon="12.534297971867346"><ele>6.0</ele><time>2026-04-09T13:46:14Z</time></trkpt><trkpt lat="37.66641885109147" lon="12.534231631800246"><ele>6.0</ele><time>2026-04-09T13:46:15Z</time></trkpt><trkpt lat="37.66635238560031" lon="12.534174549277918"><ele>6.0</ele><time>2026-04-09T13:46:16Z</time></trkpt><trkpt lat="37.666300582073475" lon="12.534126172952526"><ele>6.0</ele><time>2026-04-09T13:46:17Z</time></trkpt><trkpt lat="37.6662108710896" lon="12.534052810112371"><ele>6.0</ele><time>2026-04-09T13:46:19Z</time></trkpt><trkpt lat="37.66611978327071" lon="12.533999210150355"><ele>6.0</ele><time>2026-04-09T13:46:21Z</time></trkpt><trkpt lat="37.666076411564276" lon="12.533941413344678"><ele>6.0</ele><time>2026-04-09T13:46:22Z</time></trkpt><trkpt lat="37.66593370119176" lon="12.533949592155338"><ele>5.6</ele><time>2026-04-09T13:46:24Z</time></trkpt><trkpt lat="37.665872070492334" lon="12.533774087338779"><ele>5.199999999999999</ele><time>2026-04-09T13:46:25Z</time></trkpt><trkpt lat="37.66580430672444" lon="12.533707275600063"><ele>4.800000000000001</ele><time>2026-04-09T13:46:26Z</time></trkpt><trkpt lat="37.665746125358716" lon="12.5336548448203"><ele>4.4</ele><time>2026-04-09T13:46:27Z</time></trkpt><trkpt lat="37.66566766993948" lon="12.533572510563017"><ele>4.0</ele><time>2026-04-09T13:46:29Z</time></trkpt><trkpt lat="37.66567069887772" lon="12.533485789597728"><ele>3.75</ele><time>2026-04-09T13:46:31Z</time></trkpt><trkpt lat="37.66573853284227" lon="12.533405656013974"><ele>3.5</ele><time>2026-04-09T13:46:33Z</time></trkpt><trkpt lat="37.665813052804964" lon="12.533297418932484"><ele>3.25</ele><time>2026-04-09T13:46:35Z</time></trkpt><trkpt lat="37.66589927379876" lon="12.533176293039007"><ele>3.0</ele><time>2026-04-09T13:46:37Z</time></trkpt><trkpt lat="37.66597399648057" lon="12.533059553050125"><ele>3.0</ele><time>2026-04-09T13:46:39Z</time></trkpt><trkpt lat="37.66600894385191" lon="12.532962515119186"><ele>3.0</ele><time>2026-04-09T13:46:41Z</time></trkpt><trkpt lat="37.666047669167675" lon="12.532886407617736"><ele>3.0</ele><time>2026-04-09T13:46:43Z</time></trkpt><trkpt lat="37.66609834238543" lon="12.532813028277657"><ele>3.0</ele><time>2026-04-09T13:46:45Z</time></trkpt><trkpt lat="37.666116178701216" lon="12.532709225517447"><ele>3.0</ele><time>2026-04-09T13:46:47Z</time></trkpt><trkpt lat="37.66617808021004" lon="12.53262674884693"><ele>3.0</ele><time>2026-04-09T13:46:48.999Z</time></trkpt><trkpt lat="37.66623469249297" lon="12.53252549219928"><ele>3.2</ele><time>2026-04-09T13:46:50.999Z</time></trkpt><trkpt lat="37.66626117917126" lon="12.532409863981348"><ele>3.4</ele><time>2026-04-09T13:46:52.999Z</time></trkpt><trkpt lat="37.66632371510814" lon="12.532313794800979"><ele>3.6000000000000005</ele><time>2026-04-09T13:46:56.999Z</time></trkpt><trkpt lat="37.66636286481165" lon="12.532216207042174"><ele>3.8000000000000003</ele><time>2026-04-09T13:46:58.999Z</time></trkpt><trkpt lat="37.66640378917257" lon="12.532115839110759"><ele>4.0</ele><time>2026-04-09T13:47:00.999Z</time></trkpt><trkpt lat="37.6664522224959" lon="12.531996273096071"><ele>4.166666666666666</ele><time>2026-04-09T13:47:02.999Z</time></trkpt><trkpt lat="37.666485349494394" lon="12.531878588877348"><ele>4.333333333333333</ele><time>2026-04-09T13:47:04.999Z</time></trkpt><trkpt lat="37.666494356353674" lon="12.531793438413029"><ele>4.5</ele><time>2026-04-09T13:47:05.999Z</time></trkpt><trkpt lat="37.66651716791143" lon="12.531707290968061"><ele>4.666666666666667</ele><time>2026-04-09T13:47:06.999Z</time></trkpt><trkpt lat="37.66654423001056" lon="12.53157853742286"><ele>4.833333333333334</ele><time>2026-04-09T13:47:08.999Z</time></trkpt><trkpt lat="37.66656629305736" lon="12.531458656017762"><ele>5.0</ele><time>2026-04-09T13:47:10.999Z</time></trkpt><trkpt lat="37.66661502333415" lon="12.531354296395142"><ele>5.0</ele><time>2026-04-09T13:47:12.999Z</time></trkpt><trkpt lat="37.66663116819165" lon="12.531229440652096"><ele>5.0</ele><time>2026-04-09T13:47:14.999Z</time></trkpt><trkpt lat="37.666636739693224" lon="12.53106314098131"><ele>5.0</ele><time>2026-04-09T13:47:16.999Z</time></trkpt><trkpt lat="37.66663932934497" lon="12.530899901552607"><ele>5.0</ele><time>2026-04-09T13:47:18.999Z</time></trkpt><trkpt lat="37.66663445011767" lon="12.530803818025607"><ele>5.0</ele><time>2026-04-09T13:47:19.999Z</time></trkpt><trkpt lat="37.66663463924706" lon="12.53071489861801"><ele>4.833333333333334</ele><time>2026-04-09T13:47:20.999Z</time></trkpt><trkpt lat="37.66664271153664" lon="12.530624205297016"><ele>4.666666666666667</ele><time>2026-04-09T13:47:21.999Z</time></trkpt><trkpt lat="37.66665125371462" lon="12.530532665493677"><ele>4.5</ele><time>2026-04-09T13:47:22.999Z</time></trkpt><trkpt lat="37.666655244146234" lon="12.530449634747997"><ele>4.333333333333333</ele><time>2026-04-09T13:47:23.999Z</time></trkpt><trkpt lat="37.66666387277399" lon="12.530369528106645"><ele>4.166666666666666</ele><time>2026-04-09T13:47:24.999Z</time></trkpt><trkpt lat="37.66666966384936" lon="12.53024517867507"><ele>4.0</ele><time>2026-04-09T13:47:26.999Z</time></trkpt><trkpt lat="37.66667210158183" lon="12.530142604133719"><ele>3.833333333333333</ele><time>2026-04-09T13:47:28.999Z</time></trkpt><trkpt lat="37.666680214184964" lon="12.530031734611736"><ele>3.6666666666666665</ele><time>2026-04-09T13:47:30.999Z</time></trkpt><trkpt lat="37.66669383123578" lon="12.52989877402356"><ele>3.5</ele><time>2026-04-09T13:47:32.999Z</time></trkpt><trkpt lat="37.66670767892633" lon="12.52981941083817"><ele>3.333333333333333</ele><time>2026-04-09T13:47:33.999Z</time></trkpt><trkpt lat="37.66671955393354" lon="12.529736853029016"><ele>3.1666666666666665</ele><time>2026-04-09T13:47:34.999Z</time></trkpt><trkpt lat="37.66673239946894" lon="12.529650019174726"><ele>3.0</ele><time>2026-04-09T13:47:35.999Z</time></trkpt><trkpt lat="37.66674469998482" lon="12.529500947385314"><ele>2.8</ele><time>2026-04-09T13:47:37.999Z</time></trkpt><trkpt lat="37.66674419079693" lon="12.529375362668835"><ele>2.5999999999999996</ele><time>2026-04-09T13:47:39.999Z</time></trkpt><trkpt lat="37.66675268291626" lon="12.52924534907058"><ele>2.4000000000000004</ele><time>2026-04-09T13:47:41.999Z</time></trkpt><trkpt lat="37.666760967574206" lon="12.529103805823622"><ele>2.2</ele><time>2026-04-09T13:47:43.999Z</time></trkpt><trkpt lat="37.6667701591249" lon="12.528976598966644"><ele>2.0</ele><time>2026-04-09T13:47:45.999Z</time></trkpt><trkpt lat="37.66677407815352" lon="12.528872084147913"><ele>1.9999999999999998</ele><time>2026-04-09T13:47:47.999Z</time></trkpt><trkpt lat="37.666779546254546" lon="12.528780551016686"><ele>2.0</ele><time>2026-04-09T13:47:49.999Z</time></trkpt><trkpt lat="37.66678962514925" lon="12.528679983648608"><ele>2.0</ele><time>2026-04-09T13:47:51.999Z</time></trkpt><trkpt lat="37.66678975297458" lon="12.528580818225546"><ele>2.0</ele><time>2026-04-09T13:47:53.999Z</time></trkpt><trkpt lat="37.666795551039364" lon="12.528499472966558"><ele>1.9999999999999998</ele><time>2026-04-09T13:47:55.999Z</time></trkpt><trkpt lat="37.666796203038864" lon="12.528393480197199"><ele>2.0</ele><time>2026-04-09T13:47:59Z</time></trkpt><trkpt lat="37.66679371726566" lon="12.528284891682148"><ele>2.1666666666666665</ele><time>2026-04-09T13:48:02Z</time></trkpt><trkpt lat="37.666807407599556" lon="12.528207003848232"><ele>2.333333333333333</ele><time>2026-04-09T13:48:04Z</time></trkpt><trkpt lat="37.666830248463484" lon="12.528098376014453"><ele>2.5</ele><time>2026-04-09T13:48:07Z</time></trkpt><trkpt lat="37.66685220374762" lon="12.527981605541944"><ele>2.6666666666666665</ele><time>2026-04-09T13:48:10Z</time></trkpt><trkpt lat="37.66684414098412" lon="12.527899235701573"><ele>2.8333333333333335</ele><time>2026-04-09T13:48:12Z</time></trkpt><trkpt lat="37.66686494770846" lon="12.527796767769988"><ele>3.0</ele><time>2026-04-09T13:48:15Z</time></trkpt><trkpt lat="37.66686633421693" lon="12.52768297585608"><ele>3.0</ele><time>2026-04-09T13:48:18Z</time></trkpt><trkpt lat="37.66686538706876" lon="12.527575423104427"><ele>3.0</ele><time>2026-04-09T13:48:21Z</time></trkpt><trkpt lat="37.66686649082843" lon="12.527440178584339"><ele>3.0</ele><time>2026-04-09T13:48:24Z</time></trkpt><trkpt lat="37.6668778842564" lon="12.52733930630617"><ele>3.0</ele><time>2026-04-09T13:48:26Z</time></trkpt><trkpt lat="37.66689318384833" lon="12.527248048179628"><ele>3.0</ele><time>2026-04-09T13:48:28Z</time></trkpt><trkpt lat="37.66692217409403" lon="12.52715599149859"><ele>3.0</ele><time>2026-04-09T13:48:30Z</time></trkpt><trkpt lat="37.66694211875977" lon="12.52705514577024"><ele>3.5999999999999996</ele><time>2026-04-09T13:48:32Z</time></trkpt><trkpt lat="37.66696829925883" lon="12.52693078762212"><ele>4.199999999999999</ele><time>2026-04-09T13:48:34Z</time></trkpt><trkpt lat="37.666960472598326" lon="12.52680260422028"><ele>4.8</ele><time>2026-04-09T13:48:36Z</time></trkpt><trkpt lat="37.666956513779006" lon="12.526679705666629"><ele>5.3999999999999995</ele><time>2026-04-09T13:48:38Z</time></trkpt><trkpt lat="37.66695789575174" lon="12.52653173522775"><ele>6.0</ele><time>2026-04-09T13:48:40Z</time></trkpt><trkpt lat="37.66694505452647" lon="12.526390715113711"><ele>5.3999999999999995</ele><time>2026-04-09T13:48:42Z</time></trkpt><trkpt lat="37.66692940634615" lon="12.526276611597973"><ele>4.8</ele><time>2026-04-09T13:48:44Z</time></trkpt><trkpt lat="37.66691141868087" lon="12.526145550837679"><ele>4.199999999999999</ele><time>2026-04-09T13:48:46Z</time></trkpt><trkpt lat="37.666890897905574" lon="12.525992641719883"><ele>3.5999999999999996</ele><time>2026-04-09T13:48:48Z</time></trkpt><trkpt lat="37.666871021769815" lon="12.525845687782224"><ele>3.0</ele><time>2026-04-09T13:48:50Z</time></trkpt><trkpt lat="37.66684891742492" lon="12.525699020903494"><ele>3.0</ele><time>2026-04-09T13:48:51.999Z</time></trkpt><trkpt lat="37.66682785382761" lon="12.525581402378055"><ele>3.0</ele><time>2026-04-09T13:48:53.999Z</time></trkpt><trkpt lat="37.666820011299144" lon="12.525477973225502"><ele>3.0</ele><time>2026-04-09T13:48:55.999Z</time></trkpt><trkpt lat="37.66680368654804" lon="12.52535743901634"><ele>3.0</ele><time>2026-04-09T13:48:57.999Z</time></trkpt><trkpt lat="37.66678119095666" lon="12.525225228159243"><ele>3.0</ele><time>2026-04-09T13:48:59.999Z</time></trkpt><trkpt lat="37.66675890604839" lon="12.525078881015787"><ele>3.0</ele><time>2026-04-09T13:49:01.999Z</time></trkpt><trkpt lat="37.666732483287504" lon="12.524914572737368"><ele>3.0</ele><time>2026-04-09T13:49:03.999Z</time></trkpt><trkpt lat="37.66672379418549" lon="12.524830763838354"><ele>3.0</ele><time>2026-04-09T13:49:04.999Z</time></trkpt><trkpt lat="37.66671283354318" lon="12.524746187242936"><ele>3.0</ele><time>2026-04-09T13:49:05.999Z</time></trkpt><trkpt lat="37.66669948291493" lon="12.524665921096332"><ele>3.0</ele><time>2026-04-09T13:49:06.999Z</time></trkpt><trkpt lat="37.666682107277644" lon="12.524538304636591"><ele>3.0</ele><time>2026-04-09T13:49:08.999Z</time></trkpt><trkpt lat="37.66666282534262" lon="12.524427874023091"><ele>3.0</ele><time>2026-04-09T13:49:10.999Z</time></trkpt><trkpt lat="37.66664224797372" lon="12.524285627715717"><ele>3.0</ele><time>2026-04-09T13:49:12.999Z</time></trkpt><trkpt lat="37.666626138159884" lon="12.52420561029717"><ele>3.0</ele><time>2026-04-09T13:49:13.999Z</time></trkpt><trkpt lat="37.66660770134908" lon="12.524075785583893"><ele>3.0</ele><time>2026-04-09T13:49:15.999Z</time></trkpt><trkpt lat="37.666584465724505" lon="12.523927254506226"><ele>3.0</ele><time>2026-04-09T13:49:17.999Z</time></trkpt><trkpt lat="37.66657094836966" lon="12.523841579494404"><ele>3.0</ele><time>2026-04-09T13:49:18.999Z</time></trkpt><trkpt lat="37.66654253618031" lon="12.523764034308511"><ele>3.0</ele><time>2026-04-09T13:49:19.999Z</time></trkpt><trkpt lat="37.666512015204056" lon="12.523639551458018"><ele>3.0</ele><time>2026-04-09T13:49:21.999Z</time></trkpt><trkpt lat="37.66648241360206" lon="12.523565218483112"><ele>3.0</ele><time>2026-04-09T13:49:22.999Z</time></trkpt><trkpt lat="37.66644269488626" lon="12.523436699517994"><ele>3.0</ele><time>2026-04-09T13:49:24.999Z</time></trkpt><trkpt lat="37.666413218231874" lon="12.523321730171515"><ele>3.0</ele><time>2026-04-09T13:49:26.999Z</time></trkpt><trkpt lat="37.66637886097335" lon="12.523248615298789"><ele>3.0</ele><time>2026-04-09T13:49:28.999Z</time></trkpt><trkpt lat="37.66634292731796" lon="12.52318282795959"><ele>3.0</ele><time>2026-04-09T13:49:29.999Z</time></trkpt><trkpt lat="37.66623459799292" lon="12.523089338637945"><ele>3.0</ele><time>2026-04-09T13:49:31.999Z</time></trkpt><trkpt lat="37.6661803502088" lon="12.523045503819734"><ele>3.0</ele><time>2026-04-09T13:49:32.999Z</time></trkpt><trkpt lat="37.66611896933809" lon="12.52299702299494"><ele>3.0</ele><time>2026-04-09T13:49:33.999Z</time></trkpt><trkpt lat="37.666046905300554" lon="12.522912430973815"><ele>3.0</ele><time>2026-04-09T13:49:35.999Z</time></trkpt><trkpt lat="37.66603692543629" lon="12.522809572232903"><ele>2.8</ele><time>2026-04-09T13:49:37.999Z</time></trkpt><trkpt lat="37.666013796730994" lon="12.522663262498805"><ele>2.5999999999999996</ele><time>2026-04-09T13:49:39.999Z</time></trkpt><trkpt lat="37.665935482623844" lon="12.522535014784891"><ele>2.4000000000000004</ele><time>2026-04-09T13:49:41.999Z</time></trkpt><trkpt lat="37.66588449704001" lon="12.522469827297225"><ele>2.2</ele><time>2026-04-09T13:49:42.999Z</time></trkpt><trkpt lat="37.665830194292596" lon="12.522396520075908"><ele>2.0</ele><time>2026-04-09T13:49:43.999Z</time></trkpt><trkpt lat="37.66577646119517" lon="12.522328263758112"><ele>2.0</ele><time>2026-04-09T13:49:44.999Z</time></trkpt><trkpt lat="37.66570981225007" lon="12.52222668589271"><ele>2.0</ele><time>2026-04-09T13:49:46.999Z</time></trkpt><trkpt lat="37.665617046081216" lon="12.52211286614202"><ele>2.0</ele><time>2026-04-09T13:49:48.999Z</time></trkpt><trkpt lat="37.665529859626034" lon="12.52198542683372"><ele>2.0</ele><time>2026-04-09T13:49:50.999Z</time></trkpt><trkpt lat="37.665484132279644" lon="12.521930720384017"><ele>2.0</ele><time>2026-04-09T13:49:51.999Z</time></trkpt><trkpt lat="37.66539440581767" lon="12.521844518029976"><ele>2.0</ele><time>2026-04-09T13:49:53.999Z</time></trkpt><trkpt lat="37.66531327436151" lon="12.521716377169449"><ele>2.0</ele><time>2026-04-09T13:49:55.999Z</time></trkpt><trkpt lat="37.66522796803184" lon="12.52157189567542"><ele>2.0</ele><time>2026-04-09T13:49:57.999Z</time></trkpt><trkpt lat="37.66519832976359" lon="12.52148526156024"><ele>2.0</ele><time>2026-04-09T13:49:58.999Z</time></trkpt><trkpt lat="37.6651619723859" lon="12.521396711351331"><ele>2.0</ele><time>2026-04-09T13:49:59.999Z</time></trkpt><trkpt lat="37.665136274777495" lon="12.521311025109608"><ele>2.1666666666666665</ele><time>2026-04-09T13:50:00.999Z</time></trkpt><trkpt lat="37.66511586610192" lon="12.521210777303192"><ele>2.333333333333333</ele><time>2026-04-09T13:50:01.999Z</time></trkpt><trkpt lat="37.665112140587155" lon="12.521110598435344"><ele>2.5</ele><time>2026-04-09T13:50:03Z</time></trkpt><trkpt lat="37.665119147612565" lon="12.521001772336467"><ele>2.6666666666666665</ele><time>2026-04-09T13:50:04Z</time></trkpt><trkpt lat="37.665129736649206" lon="12.52090022489796"><ele>2.8333333333333335</ele><time>2026-04-09T13:50:05Z</time></trkpt><trkpt lat="37.66514373770995" lon="12.520817057961214"><ele>3.0</ele><time>2026-04-09T13:50:06Z</time></trkpt><trkpt lat="37.66516918489922" lon="12.520733090028513"><ele>3.0</ele><time>2026-04-09T13:50:07Z</time></trkpt><trkpt lat="37.66523320169516" lon="12.520605294444644"><ele>3.0</ele><time>2026-04-09T13:50:09Z</time></trkpt><trkpt lat="37.66529921402094" lon="12.520485762326366"><ele>3.0</ele><time>2026-04-09T13:50:11Z</time></trkpt><trkpt lat="37.66533250416841" lon="12.520410115418308"><ele>3.0</ele><time>2026-04-09T13:50:13Z</time></trkpt><trkpt lat="37.66537551929637" lon="12.520338048697718"><ele>3.0</ele><time>2026-04-09T13:50:15Z</time></trkpt><trkpt lat="37.665431210982" lon="12.520252961821026"><ele>2.8333333333333335</ele><time>2026-04-09T13:50:17Z</time></trkpt><trkpt lat="37.66550273909109" lon="12.520146312908095"><ele>2.6666666666666665</ele><time>2026-04-09T13:50:19Z</time></trkpt><trkpt lat="37.665566084220316" lon="12.520026296476713"><ele>2.5</ele><time>2026-04-09T13:50:21Z</time></trkpt><trkpt lat="37.665611288909474" lon="12.51995997803844"><ele>2.333333333333333</ele><time>2026-04-09T13:50:22Z</time></trkpt><trkpt lat="37.66565056897885" lon="12.519896114755216"><ele>2.1666666666666665</ele><time>2026-04-09T13:50:23Z</time></trkpt><trkpt lat="37.665687191674714" lon="12.519820218426728"><ele>2.0</ele><time>2026-04-09T13:50:24Z</time></trkpt><trkpt lat="37.66571887840748" lon="12.519734792756019"><ele>1.9999999999999998</ele><time>2026-04-09T13:50:25Z</time></trkpt><trkpt lat="37.66573971185847" lon="12.519656454603512"><ele>2.0</ele><time>2026-04-09T13:50:26Z</time></trkpt><trkpt lat="37.66575821304234" lon="12.519573195918007"><ele>2.0</ele><time>2026-04-09T13:50:27Z</time></trkpt><trkpt lat="37.66579107692135" lon="12.519488503355205"><ele>2.0</ele><time>2026-04-09T13:50:28Z</time></trkpt><trkpt lat="37.6658180099727" lon="12.51936912960696"><ele>1.9999999999999998</ele><time>2026-04-09T13:50:30Z</time></trkpt><trkpt lat="37.66583413107674" lon="12.519291084583006"><ele>2.0</ele><time>2026-04-09T13:50:32Z</time></trkpt><trkpt lat="37.665848351130116" lon="12.519182635572985"><ele>2.2</ele><time>2026-04-09T13:50:34Z</time></trkpt><trkpt lat="37.66587384651315" lon="12.519041072339094"><ele>2.4000000000000004</ele><time>2026-04-09T13:50:36Z</time></trkpt><trkpt lat="37.66589559940926" lon="12.518882916393732"><ele>2.5999999999999996</ele><time>2026-04-09T13:50:38Z</time></trkpt><trkpt lat="37.665906053954245" lon="12.518784485634079"><ele>2.8</ele><time>2026-04-09T13:50:40Z</time></trkpt><trkpt lat="37.66587255813906" lon="12.518680662885105"><ele>3.0</ele><time>2026-04-09T13:50:43Z</time></trkpt><trkpt lat="37.665821640641376" lon="12.518632659769512"><ele>2.9999999999999996</ele><time>2026-04-09T13:50:45Z</time></trkpt><trkpt lat="37.66574807612515" lon="12.518625629446687"><ele>3.0</ele><time>2026-04-09T13:50:47Z</time></trkpt><trkpt lat="37.665705563969254" lon="12.518546907963911"><ele>3.0</ele><time>2026-04-09T13:50:49Z</time></trkpt><trkpt lat="37.66563139919182" lon="12.51852028223233"><ele>3.0</ele><time>2026-04-09T13:50:52Z</time></trkpt><trkpt lat="37.665568702075795" lon="12.518560692009443"><ele>3.0</ele><time>2026-04-09T13:50:54Z</time></trkpt><trkpt lat="37.66551119088649" lon="12.518600485524876"><ele>2.9999999999999996</ele><time>2026-04-09T13:50:56Z</time></trkpt><trkpt lat="37.6654520367819" lon="12.518672081494758"><ele>3.0</ele><time>2026-04-09T13:50:59Z</time></trkpt><trkpt lat="37.665507204096464" lon="12.51859343377163"><ele>3.0</ele><time>2026-04-09T13:51:06.999Z</time></trkpt><trkpt lat="37.66559674563289" lon="12.518552229544088"><ele>3.0</ele><time>2026-04-09T13:51:09.999Z</time></trkpt><trkpt lat="37.66565425166281" lon="12.518514821134273"><ele>3.0</ele><time>2026-04-09T13:51:11.999Z</time></trkpt><trkpt lat="37.66573349915948" lon="12.518446967347083"><ele>3.0</ele><time>2026-04-09T13:51:14.999Z</time></trkpt><trkpt lat="37.66579863876914" lon="12.518383860753332"><ele>3.0</ele><time>2026-04-09T13:51:17.999Z</time></trkpt><trkpt lat="37.66585414009303" lon="12.518322288409939"><ele>3.0</ele><time>2026-04-09T13:51:20.999Z</time></trkpt><trkpt lat="37.66587373230197" lon="12.518233525477228"><ele>2.9999999999999996</ele><time>2026-04-09T13:51:23.999Z</time></trkpt><trkpt lat="37.665900857591915" lon="12.518150703719396"><ele>3.0</ele><time>2026-04-09T13:51:26.999Z</time></trkpt><trkpt lat="37.665957761666846" lon="12.518107568003384"><ele>3.0</ele><time>2026-04-09T13:51:29.999Z</time></trkpt><trkpt lat="37.66600814964523" lon="12.518059551679512"><ele>3.0</ele><time>2026-04-09T13:51:32.999Z</time></trkpt><trkpt lat="37.666065893920155" lon="12.51802537824647"><ele>3.0</ele><time>2026-04-09T13:51:35.999Z</time></trkpt><trkpt lat="37.66607479211127" lon="12.517944484569245"><ele>2.9999999999999996</ele><time>2026-04-09T13:51:38.999Z</time></trkpt><trkpt lat="37.66609648450866" lon="12.517856449700128"><ele>3.0</ele><time>2026-04-09T13:51:41.999Z</time></trkpt><trkpt lat="37.66613201249029" lon="12.517787323310158"><ele>3.0</ele><time>2026-04-09T13:51:44.999Z</time></trkpt><trkpt lat="37.66613448378265" lon="12.517671786715242"><ele>3.0</ele><time>2026-04-09T13:51:48.999Z</time></trkpt><trkpt lat="37.666206116675674" lon="12.517604380946786"><ele>3.0</ele><time>2026-04-09T13:51:50.999Z</time></trkpt><trkpt lat="37.66627673957102" lon="12.517514943675897"><ele>3.0</ele><time>2026-04-09T13:51:52.999Z</time></trkpt><trkpt lat="37.666298751544424" lon="12.51729639268399"><ele>3.0</ele><time>2026-04-09T13:51:54.999Z</time></trkpt><trkpt lat="37.666338441653465" lon="12.517180122978333"><ele>3.0</ele><time>2026-04-09T13:51:56.999Z</time></trkpt><trkpt lat="37.666345925940064" lon="12.517096783345611"><ele>3.0</ele><time>2026-04-09T13:51:57.999Z</time></trkpt><trkpt lat="37.66637746747836" lon="12.517017495065335"><ele>3.0</ele><time>2026-04-09T13:51:58.999Z</time></trkpt><trkpt lat="37.66640764511852" lon="12.516940910782573"><ele>3.0</ele><time>2026-04-09T13:51:59.999Z</time></trkpt><trkpt lat="37.66643306688285" lon="12.516850078245161"><ele>3.0</ele><time>2026-04-09T13:52:00.999Z</time></trkpt><trkpt lat="37.66642254582459" lon="12.516730309478067"><ele>3.1666666666666665</ele><time>2026-04-09T13:52:01.999Z</time></trkpt><trkpt lat="37.666487100418166" lon="12.516608474081734"><ele>3.333333333333333</ele><time>2026-04-09T13:52:03.999Z</time></trkpt><trkpt lat="37.66652264054401" lon="12.516539502892282"><ele>3.5</ele><time>2026-04-09T13:52:04.999Z</time></trkpt><trkpt lat="37.666534082773914" lon="12.516453817822779"><ele>3.6666666666666665</ele><time>2026-04-09T13:52:05.999Z</time></trkpt><trkpt lat="37.666535718382384" lon="12.516370781227684"><ele>3.833333333333333</ele><time>2026-04-09T13:52:06.999Z</time></trkpt><trkpt lat="37.66651072032915" lon="12.516286157700478"><ele>4.0</ele><time>2026-04-09T13:52:07.999Z</time></trkpt><trkpt lat="37.66650653519053" lon="12.516201239874896"><ele>4.166666666666666</ele><time>2026-04-09T13:52:09Z</time></trkpt><trkpt lat="37.666511383093905" lon="12.516113942733305"><ele>4.333333333333333</ele><time>2026-04-09T13:52:10Z</time></trkpt><trkpt lat="37.6665219676482" lon="12.516027423988492"><ele>4.5</ele><time>2026-04-09T13:52:11Z</time></trkpt><trkpt lat="37.666540324661995" lon="12.51593934631825"><ele>4.666666666666667</ele><time>2026-04-09T13:52:12Z</time></trkpt><trkpt lat="37.666568895828405" lon="12.515857545471814"><ele>4.833333333333334</ele><time>2026-04-09T13:52:13Z</time></trkpt><trkpt lat="37.666617928748146" lon="12.515744238257025"><ele>5.0</ele><time>2026-04-09T13:52:14Z</time></trkpt><trkpt lat="37.666610997252505" lon="12.515655150738036"><ele>5.0</ele><time>2026-04-09T13:52:15Z</time></trkpt><trkpt lat="37.66666731689716" lon="12.51560174488259"><ele>5.0</ele><time>2026-04-09T13:52:16Z</time></trkpt><trkpt lat="37.666699372081546" lon="12.515446701141842"><ele>5.0</ele><time>2026-04-09T13:52:18Z</time></trkpt><trkpt lat="37.666730040748526" lon="12.5153042570746"><ele>5.0</ele><time>2026-04-09T13:52:20Z</time></trkpt><trkpt lat="37.666747099701" lon="12.515218857486145"><ele>5.0</ele><time>2026-04-09T13:52:21Z</time></trkpt><trkpt lat="37.666747703035384" lon="12.515136462444895"><ele>5.0</ele><time>2026-04-09T13:52:22Z</time></trkpt><trkpt lat="37.66674704585481" lon="12.515049830722242"><ele>5.0</ele><time>2026-04-09T13:52:23Z</time></trkpt><trkpt lat="37.66674572628649" lon="12.514965880207338"><ele>5.0</ele><time>2026-04-09T13:52:24Z</time></trkpt><trkpt lat="37.666756128022904" lon="12.514876481905876"><ele>5.0</ele><time>2026-04-09T13:52:25Z</time></trkpt><trkpt lat="37.66677727994757" lon="12.514790984598775"><ele>5.0</ele><time>2026-04-09T13:52:26Z</time></trkpt><trkpt lat="37.66679691906562" lon="12.514703765037131"><ele>5.0</ele><time>2026-04-09T13:52:27Z</time></trkpt><trkpt lat="37.666813490836205" lon="12.514624522505116"><ele>5.0</ele><time>2026-04-09T13:52:28Z</time></trkpt><trkpt lat="37.66684865253418" lon="12.514485382584173"><ele>5.0</ele><time>2026-04-09T13:52:30Z</time></trkpt><trkpt lat="37.666838181545266" lon="12.514388127140046"><ele>5.0</ele><time>2026-04-09T13:52:32Z</time></trkpt><trkpt lat="37.666781602875" lon="12.514321699413921"><ele>5.0</ele><time>2026-04-09T13:52:35Z</time></trkpt><trkpt lat="37.666797495668305" lon="12.514223226546305"><ele>5.0</ele><time>2026-04-09T13:52:39Z</time></trkpt><trkpt lat="37.66686840372587" lon="12.514165720390501"><ele>5.0</ele><time>2026-04-09T13:52:44Z</time></trkpt><trkpt lat="37.66694353005514" lon="12.514195145273208"><ele>5.0</ele><time>2026-04-09T13:52:46Z</time></trkpt><trkpt lat="37.66702142570328" lon="12.514140008384603"><ele>5.0</ele><time>2026-04-09T13:52:48Z</time></trkpt><trkpt lat="37.66709111185461" lon="12.514023987225814"><ele>5.0</ele><time>2026-04-09T13:52:50Z</time></trkpt><trkpt lat="37.66711741400814" lon="12.513901210007646"><ele>5.0</ele><time>2026-04-09T13:52:52Z</time></trkpt><trkpt lat="37.6671269698498" lon="12.513817837773937"><ele>5.0</ele><time>2026-04-09T13:52:53Z</time></trkpt><trkpt lat="37.667190166804794" lon="12.513687922073343"><ele>5.0</ele><time>2026-04-09T13:52:55Z</time></trkpt><trkpt lat="37.66722755011351" lon="12.513621500974985"><ele>5.0</ele><time>2026-04-09T13:52:56Z</time></trkpt><trkpt lat="37.66724141754797" lon="12.5135309255103"><ele>5.0</ele><time>2026-04-09T13:52:57Z</time></trkpt><trkpt lat="37.66725972297506" lon="12.513439011303959"><ele>5.0</ele><time>2026-04-09T13:52:58Z</time></trkpt><trkpt lat="37.667302452300305" lon="12.513359659059107"><ele>5.0</ele><time>2026-04-09T13:52:59Z</time></trkpt><trkpt lat="37.66734788192516" lon="12.51329950230858"><ele>5.0</ele><time>2026-04-09T13:53:00Z</time></trkpt><trkpt lat="37.66739154560747" lon="12.513241887291061"><ele>5.0</ele><time>2026-04-09T13:53:01Z</time></trkpt><trkpt lat="37.66742545395574" lon="12.5131519456645"><ele>5.0</ele><time>2026-04-09T13:53:03Z</time></trkpt><trkpt lat="37.66747981735648" lon="12.513057748063092"><ele>5.0</ele><time>2026-04-09T13:53:05Z</time></trkpt><trkpt lat="37.667528667346204" lon="12.512925922542948"><ele>5.0</ele><time>2026-04-09T13:53:07Z</time></trkpt><trkpt lat="37.66759586662259" lon="12.512807243683145"><ele>5.0</ele><time>2026-04-09T13:53:09Z</time></trkpt><trkpt lat="37.667659871863286" lon="12.512778155433656"><ele>5.0</ele><time>2026-04-09T13:53:10Z</time></trkpt><trkpt lat="37.66775945220873" lon="12.512673607939997"><ele>5.0</ele><time>2026-04-09T13:53:12Z</time></trkpt><trkpt lat="37.66779318807198" lon="12.512598596062427"><ele>4.857142857142857</ele><time>2026-04-09T13:53:13Z</time></trkpt><trkpt lat="37.667813307971876" lon="12.512511933974489"><ele>4.714285714285714</ele><time>2026-04-09T13:53:14Z</time></trkpt><trkpt lat="37.66783466534038" lon="12.512424178033093"><ele>4.571428571428571</ele><time>2026-04-09T13:53:15Z</time></trkpt><trkpt lat="37.66788159057717" lon="12.512354065941821"><ele>4.428571428571429</ele><time>2026-04-09T13:53:15.999Z</time></trkpt><trkpt lat="37.66793316905101" lon="12.512287558774538"><ele>4.285714285714286</ele><time>2026-04-09T13:53:16.999Z</time></trkpt><trkpt lat="37.66799510047366" lon="12.512231392306369"><ele>4.142857142857142</ele><time>2026-04-09T13:53:17.999Z</time></trkpt><trkpt lat="37.668059758171765" lon="12.512179793822595"><ele>4.0</ele><time>2026-04-09T13:53:18.999Z</time></trkpt><trkpt lat="37.66811808192974" lon="12.512118298146186"><ele>4.2</ele><time>2026-04-09T13:53:19.999Z</time></trkpt><trkpt lat="37.66817361688344" lon="12.512051429210167"><ele>4.4</ele><time>2026-04-09T13:53:20.999Z</time></trkpt><trkpt lat="37.66823116982681" lon="12.51198960355642"><ele>4.6</ele><time>2026-04-09T13:53:21.999Z</time></trkpt><trkpt lat="37.6682965682693" lon="12.511923789851208"><ele>4.8</ele><time>2026-04-09T13:53:22.999Z</time></trkpt><trkpt lat="37.66835863005908" lon="12.511859707904367"><ele>5.0</ele><time>2026-04-09T13:53:23.999Z</time></trkpt><trkpt lat="37.66846791418666" lon="12.511718516970335"><ele>5.0</ele><time>2026-04-09T13:53:25.999Z</time></trkpt><trkpt lat="37.66851799197728" lon="12.511636775755058"><ele>5.0</ele><time>2026-04-09T13:53:26.999Z</time></trkpt><trkpt lat="37.66859239183761" lon="12.51147572091926"><ele>5.0</ele><time>2026-04-09T13:53:28.999Z</time></trkpt><trkpt lat="37.66863124240566" lon="12.511412904754515"><ele>5.0</ele><time>2026-04-09T13:53:29.999Z</time></trkpt><trkpt lat="37.66872520221078" lon="12.511320276811015"><ele>5.0</ele><time>2026-04-09T13:53:31.999Z</time></trkpt><trkpt lat="37.66879285243975" lon="12.511180579996783"><ele>4.714285714285714</ele><time>2026-04-09T13:53:33.999Z</time></trkpt><trkpt lat="37.6688239034702" lon="12.511109477148675"><ele>4.428571428571429</ele><time>2026-04-09T13:53:34.999Z</time></trkpt><trkpt lat="37.668864798453335" lon="12.511031059855991"><ele>4.142857142857142</ele><time>2026-04-09T13:53:35.999Z</time></trkpt><trkpt lat="37.66889557269783" lon="12.510949385141938"><ele>3.8571428571428568</ele><time>2026-04-09T13:53:36.999Z</time></trkpt><trkpt lat="37.66889956785581" lon="12.510858844386343"><ele>3.571428571428571</ele><time>2026-04-09T13:53:37.999Z</time></trkpt><trkpt lat="37.6689197448942" lon="12.510778122248118"><ele>3.2857142857142856</ele><time>2026-04-09T13:53:38.999Z</time></trkpt><trkpt lat="37.668968809407836" lon="12.510709576846239"><ele>3.0</ele><time>2026-04-09T13:53:39.999Z</time></trkpt><trkpt lat="37.66902574777378" lon="12.510645622396428"><ele>3.0</ele><time>2026-04-09T13:53:40.999Z</time></trkpt><trkpt lat="37.66906657100432" lon="12.510574090586601"><ele>3.0</ele><time>2026-04-09T13:53:41.999Z</time></trkpt><trkpt lat="37.66910404595131" lon="12.510484644402217"><ele>3.0</ele><time>2026-04-09T13:53:42.999Z</time></trkpt><trkpt lat="37.66914318983897" lon="12.510397580102588"><ele>3.0</ele><time>2026-04-09T13:53:43.999Z</time></trkpt><trkpt lat="37.66917793496872" lon="12.510306416585959"><ele>3.0</ele><time>2026-04-09T13:53:44.999Z</time></trkpt><trkpt lat="37.669214606847476" lon="12.510211695637699"><ele>3.0</ele><time>2026-04-09T13:53:45.999Z</time></trkpt><trkpt lat="37.66925842645165" lon="12.51013113261545"><ele>2.9999999999999996</ele><time>2026-04-09T13:53:46.999Z</time></trkpt><trkpt lat="37.66930190232693" lon="12.510055620370139"><ele>3.0</ele><time>2026-04-09T13:53:47.999Z</time></trkpt><trkpt lat="37.66934766048569" lon="12.509997394908078"><ele>3.0</ele><time>2026-04-09T13:53:48.999Z</time></trkpt><trkpt lat="37.66941110772069" lon="12.509938486619427"><ele>3.0</ele><time>2026-04-09T13:53:49.999Z</time></trkpt><trkpt lat="37.669473761025934" lon="12.509900447965643"><ele>3.0</ele><time>2026-04-09T13:53:50.999Z</time></trkpt><trkpt lat="37.669542786715596" lon="12.509845689372792"><ele>2.9999999999999996</ele><time>2026-04-09T13:53:51.999Z</time></trkpt><trkpt lat="37.66959986528929" lon="12.509805558325773"><ele>3.0</ele><time>2026-04-09T13:53:52.999Z</time></trkpt><trkpt lat="37.66968316773755" lon="12.509775296457645"><ele>3.3333333333333335</ele><time>2026-04-09T13:53:53.999Z</time></trkpt><trkpt lat="37.66976229529536" lon="12.5097671019847"><ele>3.666666666666667</ele><time>2026-04-09T13:53:54.999Z</time></trkpt><trkpt lat="37.669841028988074" lon="12.509745984642198"><ele>4.0</ele><time>2026-04-09T13:53:55.999Z</time></trkpt><trkpt lat="37.66992199586983" lon="12.509717982137712"><ele>4.333333333333334</ele><time>2026-04-09T13:53:56.999Z</time></trkpt><trkpt lat="37.66999908316645" lon="12.509692331454934"><ele>4.666666666666667</ele><time>2026-04-09T13:53:57.999Z</time></trkpt><trkpt lat="37.67007756325939" lon="12.509676485345848"><ele>5.0</ele><time>2026-04-09T13:53:58.999Z</time></trkpt><trkpt lat="37.67016198116739" lon="12.509656742428355"><ele>5.0</ele><time>2026-04-09T13:53:59.999Z</time></trkpt><trkpt lat="37.670237299712426" lon="12.509606813368206"><ele>5.0</ele><time>2026-04-09T13:54:00.999Z</time></trkpt><trkpt lat="37.67030141496738" lon="12.509530411322794"><ele>5.0</ele><time>2026-04-09T13:54:01.999Z</time></trkpt><trkpt lat="37.670373283978975" lon="12.50946709176096"><ele>5.0</ele><time>2026-04-09T13:54:02.999Z</time></trkpt><trkpt lat="37.67044883898384" lon="12.509430602827532"><ele>5.0</ele><time>2026-04-09T13:54:03.999Z</time></trkpt><trkpt lat="37.6705241727756" lon="12.50939971318424"><ele>5.0</ele><time>2026-04-09T13:54:04.999Z</time></trkpt><trkpt lat="37.67061821205608" lon="12.509346316441396"><ele>4.4</ele><time>2026-04-09T13:54:06.999Z</time></trkpt><trkpt lat="37.67070748870764" lon="12.50930209829407"><ele>3.8</ele><time>2026-04-09T13:54:08.999Z</time></trkpt><trkpt lat="37.67078466219702" lon="12.509273133314668"><ele>3.2</ele><time>2026-04-09T13:54:10.999Z</time></trkpt><trkpt lat="37.67087058516942" lon="12.509224654494476"><ele>2.6</ele><time>2026-04-09T13:54:12.999Z</time></trkpt><trkpt lat="37.670941939252636" lon="12.50918901297431"><ele>2.0</ele><time>2026-04-09T13:54:15Z</time></trkpt><trkpt lat="37.67104656770722" lon="12.509124484282147"><ele>2.1666666666666665</ele><time>2026-04-09T13:54:17Z</time></trkpt><trkpt lat="37.67115247670802" lon="12.509062028294315"><ele>2.333333333333333</ele><time>2026-04-09T13:54:19Z</time></trkpt><trkpt lat="37.67121258946835" lon="12.509030727291876"><ele>2.5</ele><time>2026-04-09T13:54:20Z</time></trkpt><trkpt lat="37.671277207213464" lon="12.508993725045531"><ele>2.6666666666666665</ele><time>2026-04-09T13:54:21Z</time></trkpt><trkpt lat="37.67133745470596" lon="12.5089453084905"><ele>2.8333333333333335</ele><time>2026-04-09T13:54:22Z</time></trkpt><trkpt lat="37.671400640651285" lon="12.508893180202717"><ele>3.0</ele><time>2026-04-09T13:54:23Z</time></trkpt><trkpt lat="37.67144706839063" lon="12.50882398772054"><ele>3.0</ele><time>2026-04-09T13:54:24Z</time></trkpt><trkpt lat="37.67150099400497" lon="12.50876355317176"><ele>3.0</ele><time>2026-04-09T13:54:25Z</time></trkpt><trkpt lat="37.67159182517851" lon="12.508670354659882"><ele>3.0</ele><time>2026-04-09T13:54:27Z</time></trkpt><trkpt lat="37.67167616582188" lon="12.508605668142037"><ele>3.0</ele><time>2026-04-09T13:54:29Z</time></trkpt><trkpt lat="37.67178339504274" lon="12.508538694156734"><ele>3.0</ele><time>2026-04-09T13:54:31Z</time></trkpt><trkpt lat="37.67183938512129" lon="12.508479531965243"><ele>2.8333333333333335</ele><time>2026-04-09T13:54:32Z</time></trkpt><trkpt lat="37.67189697286191" lon="12.508425975596655"><ele>2.6666666666666665</ele><time>2026-04-09T13:54:33Z</time></trkpt><trkpt lat="37.67195939101744" lon="12.50838883396892"><ele>2.5</ele><time>2026-04-09T13:54:34Z</time></trkpt><trkpt lat="37.67202766220073" lon="12.508338637840643"><ele>2.333333333333333</ele><time>2026-04-09T13:54:35Z</time></trkpt><trkpt lat="37.67209245989001" lon="12.508281900223375"><ele>2.1666666666666665</ele><time>2026-04-09T13:54:36Z</time></trkpt><trkpt lat="37.67216296141792" lon="12.508237003457923"><ele>2.0</ele><time>2026-04-09T13:54:37Z</time></trkpt><trkpt lat="37.67223835529127" lon="12.50819796124037"><ele>1.9999999999999998</ele><time>2026-04-09T13:54:38Z</time></trkpt><trkpt lat="37.67230839958954" lon="12.508158532966645"><ele>2.0</ele><time>2026-04-09T13:54:39Z</time></trkpt><trkpt lat="37.672379942592144" lon="12.508128753780186"><ele>2.0</ele><time>2026-04-09T13:54:40Z</time></trkpt><trkpt lat="37.67245626569162" lon="12.508096970493082"><ele>2.0</ele><time>2026-04-09T13:54:41Z</time></trkpt><trkpt lat="37.67252420251083" lon="12.508060831978202"><ele>1.9999999999999998</ele><time>2026-04-09T13:54:42Z</time></trkpt><trkpt lat="37.6725843569395" lon="12.508007422296439"><ele>2.0</ele><time>2026-04-09T13:54:43Z</time></trkpt><trkpt lat="37.672667814149634" lon="12.507949140736512"><ele>1.8333333333333333</ele><time>2026-04-09T13:54:45Z</time></trkpt><trkpt lat="37.67276507338732" lon="12.507908089383573"><ele>1.6666666666666665</ele><time>2026-04-09T13:54:47Z</time></trkpt><trkpt lat="37.67287317043561" lon="12.507868140545906"><ele>1.5</ele><time>2026-04-09T13:54:49Z</time></trkpt><trkpt lat="37.67292391870148" lon="12.50781830596392"><ele>1.3333333333333333</ele><time>2026-04-09T13:54:50Z</time></trkpt><trkpt lat="37.672974629721246" lon="12.507769496072429"><ele>1.1666666666666665</ele><time>2026-04-09T13:54:51Z</time></trkpt><trkpt lat="37.673042356274784" lon="12.507733835435952"><ele>1.0</ele><time>2026-04-09T13:54:52Z</time></trkpt><trkpt lat="37.67310391202047" lon="12.507684972673609"><ele>1.3333333333333333</ele><time>2026-04-09T13:54:53Z</time></trkpt><trkpt lat="37.67316035111562" lon="12.507630539135697"><ele>1.6666666666666665</ele><time>2026-04-09T13:54:54Z</time></trkpt><trkpt lat="37.6732183259406" lon="12.50757046699749"><ele>2.0</ele><time>2026-04-09T13:54:55Z</time></trkpt><trkpt lat="37.67327581337055" lon="12.507503801306918"><ele>2.3333333333333335</ele><time>2026-04-09T13:54:56Z</time></trkpt><trkpt lat="37.67332329849476" lon="12.507432151830411"><ele>2.6666666666666665</ele><time>2026-04-09T13:54:57Z</time></trkpt><trkpt lat="37.67336420894164" lon="12.50735046954394"><ele>3.0</ele><time>2026-04-09T13:54:58Z</time></trkpt><trkpt lat="37.67341375605" lon="12.507238712524156"><ele>3.0</ele><time>2026-04-09T13:54:59Z</time></trkpt><trkpt lat="37.673512934035884" lon="12.507130395218642"><ele>3.0</ele><time>2026-04-09T13:55:01Z</time></trkpt><trkpt lat="37.67355553359387" lon="12.507047388369099"><ele>3.0</ele><time>2026-04-09T13:55:02Z</time></trkpt><trkpt lat="37.673598930453764" lon="12.506964594763124"><ele>3.0</ele><time>2026-04-09T13:55:03Z</time></trkpt><trkpt lat="37.67364209603681" lon="12.506884968362476"><ele>3.0</ele><time>2026-04-09T13:55:04Z</time></trkpt><trkpt lat="37.673683647460905" lon="12.5067941195949"><ele>3.0</ele><time>2026-04-09T13:55:05Z</time></trkpt><trkpt lat="37.67372281469626" lon="12.50671213344886"><ele>3.0</ele><time>2026-04-09T13:55:06Z</time></trkpt><trkpt lat="37.67377226957352" lon="12.506624644397856"><ele>3.0</ele><time>2026-04-09T13:55:07Z</time></trkpt><trkpt lat="37.67381041884555" lon="12.506537091873613"><ele>3.0</ele><time>2026-04-09T13:55:08Z</time></trkpt><trkpt lat="37.67385559825132" lon="12.50644326296444"><ele>3.0</ele><time>2026-04-09T13:55:09Z</time></trkpt><trkpt lat="37.67389931001671" lon="12.506357962204541"><ele>3.0</ele><time>2026-04-09T13:55:10Z</time></trkpt><trkpt lat="37.673947247354704" lon="12.506275549837252"><ele>3.0</ele><time>2026-04-09T13:55:11Z</time></trkpt><trkpt lat="37.673983704419506" lon="12.506180164708823"><ele>3.0</ele><time>2026-04-09T13:55:12Z</time></trkpt><trkpt lat="37.67400751632255" lon="12.506079858708116"><ele>3.0</ele><time>2026-04-09T13:55:13Z</time></trkpt><trkpt lat="37.67404504006939" lon="12.5059874289089"><ele>3.0</ele><time>2026-04-09T13:55:14Z</time></trkpt><trkpt lat="37.674079135193" lon="12.505893764862597"><ele>3.0</ele><time>2026-04-09T13:55:15Z</time></trkpt><trkpt lat="37.67410768202921" lon="12.505793256845262"><ele>3.0</ele><time>2026-04-09T13:55:16Z</time></trkpt><trkpt lat="37.674134106685145" lon="12.505694452312694"><ele>3.0</ele><time>2026-04-09T13:55:17Z</time></trkpt><trkpt lat="37.674172700932424" lon="12.5056083789366"><ele>3.0</ele><time>2026-04-09T13:55:18Z</time></trkpt><trkpt lat="37.674206962185" lon="12.505512651205636"><ele>3.0</ele><time>2026-04-09T13:55:19Z</time></trkpt><trkpt lat="37.67422074555659" lon="12.505418888940698"><ele>3.0</ele><time>2026-04-09T13:55:20Z</time></trkpt><trkpt lat="37.674271192220964" lon="12.505311897945829"><ele>3.0</ele><time>2026-04-09T13:55:22Z</time></trkpt><trkpt lat="37.67432121791932" lon="12.505192563031754"><ele>3.0</ele><time>2026-04-09T13:55:24Z</time></trkpt><trkpt lat="37.67436597934412" lon="12.505045247826875"><ele>3.0</ele><time>2026-04-09T13:55:26Z</time></trkpt><trkpt lat="37.6743869259455" lon="12.50490273325257"><ele>3.0</ele><time>2026-04-09T13:55:28Z</time></trkpt><trkpt lat="37.674412176877205" lon="12.504759109596707"><ele>3.0</ele><time>2026-04-09T13:55:29.999Z</time></trkpt><trkpt lat="37.674421245886045" lon="12.504675871860833"><ele>3.0</ele><time>2026-04-09T13:55:30.999Z</time></trkpt><trkpt lat="37.67443918119505" lon="12.504587119930706"><ele>3.0</ele><time>2026-04-09T13:55:31.999Z</time></trkpt><trkpt lat="37.67445412598953" lon="12.504503477382203"><ele>3.0</ele><time>2026-04-09T13:55:32.999Z</time></trkpt><trkpt lat="37.674454442485406" lon="12.504407536826974"><ele>3.0</ele><time>2026-04-09T13:55:33.999Z</time></trkpt><trkpt lat="37.67444729124599" lon="12.50431138451936"><ele>3.0</ele><time>2026-04-09T13:55:34.999Z</time></trkpt><trkpt lat="37.67443279284109" lon="12.504188301297164"><ele>3.0</ele><time>2026-04-09T13:55:35.999Z</time></trkpt><trkpt lat="37.67447140690097" lon="12.504047659563797"><ele>3.0</ele><time>2026-04-09T13:55:37.999Z</time></trkpt><trkpt lat="37.674515700760494" lon="12.503985153779155"><ele>3.0</ele><time>2026-04-09T13:55:38.999Z</time></trkpt><trkpt lat="37.67461376772695" lon="12.50388200710551"><ele>2.9999999999999996</ele><time>2026-04-09T13:55:40.999Z</time></trkpt><trkpt lat="37.674663715060106" lon="12.503824206281323"><ele>3.0</ele><time>2026-04-09T13:55:41.999Z</time></trkpt><trkpt lat="37.67468883971793" lon="12.50373370800099"><ele>3.0</ele><time>2026-04-09T13:55:42.999Z</time></trkpt><trkpt lat="37.6747123077444" lon="12.503648426891687"><ele>3.0</ele><time>2026-04-09T13:55:43.999Z</time></trkpt><trkpt lat="37.67474273911077" lon="12.503565732733996"><ele>3.0</ele><time>2026-04-09T13:55:44.999Z</time></trkpt><trkpt lat="37.67478608723317" lon="12.503486330233718"><ele>2.9999999999999996</ele><time>2026-04-09T13:55:45.999Z</time></trkpt><trkpt lat="37.67483284213402" lon="12.503403594292408"><ele>3.0</ele><time>2026-04-09T13:55:46.999Z</time></trkpt><trkpt lat="37.67485230981634" lon="12.503310352610837"><ele>3.2</ele><time>2026-04-09T13:55:47.999Z</time></trkpt><trkpt lat="37.674871135639584" lon="12.50320195193478"><ele>3.4</ele><time>2026-04-09T13:55:48.999Z</time></trkpt><trkpt lat="37.674903956135275" lon="12.503075535894006"><ele>3.6000000000000005</ele><time>2026-04-09T13:55:49.999Z</time></trkpt><trkpt lat="37.67496242945669" lon="12.50292574427914"><ele>3.8000000000000003</ele><time>2026-04-09T13:55:51.999Z</time></trkpt><trkpt lat="37.674986950025" lon="12.502832203096682"><ele>4.0</ele><time>2026-04-09T13:55:52.999Z</time></trkpt><trkpt lat="37.67500987319927" lon="12.502726127316512"><ele>3.9999999999999996</ele><time>2026-04-09T13:55:53.999Z</time></trkpt><trkpt lat="37.675013710563206" lon="12.502630582289884"><ele>4.0</ele><time>2026-04-09T13:55:54.999Z</time></trkpt><trkpt lat="37.67501255489561" lon="12.502540930359922"><ele>4.0</ele><time>2026-04-09T13:55:55.999Z</time></trkpt><trkpt lat="37.67500037126993" lon="12.502388519839764"><ele>4.0</ele><time>2026-04-09T13:55:57.999Z</time></trkpt><trkpt lat="37.67496183371386" lon="12.502286521683457"><ele>3.9999999999999996</ele><time>2026-04-09T13:55:59.999Z</time></trkpt><trkpt lat="37.674918560684745" lon="12.502186172071879"><ele>4.0</ele><time>2026-04-09T13:56:01.999Z</time></trkpt><trkpt lat="37.674902279028906" lon="12.502087416722128"><ele>3.8000000000000003</ele><time>2026-04-09T13:56:03.999Z</time></trkpt><trkpt lat="37.67485614121506" lon="12.501991856888619"><ele>3.6000000000000005</ele><time>2026-04-09T13:56:06.999Z</time></trkpt><trkpt lat="37.67479441504969" lon="12.501919752720884"><ele>3.4</ele><time>2026-04-09T13:56:08.999Z</time></trkpt><trkpt lat="37.674792022808134" lon="12.501797572712368"><ele>3.2</ele><time>2026-04-09T13:56:10.999Z</time></trkpt><trkpt lat="37.67481787886173" lon="12.501665722442834"><ele>3.0</ele><time>2026-04-09T13:56:12.999Z</time></trkpt><trkpt lat="37.67483975394001" lon="12.501508701696416"><ele>2.9999999999999996</ele><time>2026-04-09T13:56:14.999Z</time></trkpt><trkpt lat="37.67487003138809" lon="12.50143066821553"><ele>3.0</ele><time>2026-04-09T13:56:15.999Z</time></trkpt><trkpt lat="37.674897174293214" lon="12.501347716108913"><ele>3.0</ele><time>2026-04-09T13:56:16.999Z</time></trkpt><trkpt lat="37.674910964698" lon="12.501262805217252"><ele>3.0</ele><time>2026-04-09T13:56:17.999Z</time></trkpt><trkpt lat="37.67490065048932" lon="12.501169252917707"><ele>3.0</ele><time>2026-04-09T13:56:18.999Z</time></trkpt><trkpt lat="37.67490179489692" lon="12.501073882576689"><ele>2.9999999999999996</ele><time>2026-04-09T13:56:19.999Z</time></trkpt><trkpt lat="37.67491798034479" lon="12.500988874340713"><ele>3.0</ele><time>2026-04-09T13:56:21Z</time></trkpt><trkpt lat="37.67493570716393" lon="12.500898895845221"><ele>2.9999999999999996</ele><time>2026-04-09T13:56:22Z</time></trkpt><trkpt lat="37.67495388719513" lon="12.500806172427868"><ele>3.0</ele><time>2026-04-09T13:56:23Z</time></trkpt><trkpt lat="37.674973227947476" lon="12.50072647591311"><ele>3.0</ele><time>2026-04-09T13:56:24Z</time></trkpt><trkpt lat="37.675000941400924" lon="12.500652326759832"><ele>3.0</ele><time>2026-04-09T13:56:26Z</time></trkpt><trkpt lat="37.675043217407065" lon="12.500573639580992"><ele>3.0</ele><time>2026-04-09T13:56:29Z</time></trkpt><trkpt lat="37.67505247828936" lon="12.500484100005094"><ele>2.9999999999999996</ele><time>2026-04-09T13:56:31Z</time></trkpt><trkpt lat="37.67506300674116" lon="12.500391931476681"><ele>3.0</ele><time>2026-04-09T13:56:33Z</time></trkpt><trkpt lat="37.675108001663794" lon="12.500307695589857"><ele>2.8333333333333335</ele><time>2026-04-09T13:56:36Z</time></trkpt><trkpt lat="37.67518163132353" lon="12.500288139870724"><ele>2.6666666666666665</ele><time>2026-04-09T13:56:38Z</time></trkpt><trkpt lat="37.67522506941523" lon="12.500215391976855"><ele>2.5</ele><time>2026-04-09T13:56:40Z</time></trkpt><trkpt lat="37.67527713129965" lon="12.500140675342344"><ele>2.333333333333333</ele><time>2026-04-09T13:56:42Z</time></trkpt><trkpt lat="37.675320573384646" lon="12.500051129541534"><ele>2.1666666666666665</ele><time>2026-04-09T13:56:44Z</time></trkpt><trkpt lat="37.67537697545288" lon="12.499987375194817"><ele>2.0</ele><time>2026-04-09T13:56:46Z</time></trkpt><trkpt lat="37.67541860303512" lon="12.499919845036668"><ele>1.9999999999999998</ele><time>2026-04-09T13:56:48Z</time></trkpt><trkpt lat="37.675473538546036" lon="12.499843624156037"><ele>2.0</ele><time>2026-04-09T13:56:50Z</time></trkpt><trkpt lat="37.67553265159067" lon="12.499768481188077"><ele>2.0</ele><time>2026-04-09T13:56:52Z</time></trkpt><trkpt lat="37.67557754296046" lon="12.499688197752809"><ele>2.0</ele><time>2026-04-09T13:56:54Z</time></trkpt><trkpt lat="37.675629770964115" lon="12.499629288689382"><ele>1.9999999999999998</ele><time>2026-04-09T13:57:13Z</time></trkpt><trkpt lat="37.67569200764449" lon="12.499593876057961"><ele>2.0</ele><time>2026-04-09T13:57:18Z</time></trkpt><trkpt lat="37.675746623311575" lon="12.499520269004982"><ele>1.9999999999999998</ele><time>2026-04-09T13:57:22Z</time></trkpt><trkpt lat="37.6758061367457" lon="12.499463510330344"><ele>2.0</ele><time>2026-04-09T13:57:25Z</time></trkpt><trkpt lat="37.67574631650606" lon="12.49941211718388"><ele>2.0</ele><time>2026-04-09T13:57:49.999Z</time></trkpt><trkpt lat="37.67568185061507" lon="12.499384794146424"><ele>2.0</ele><time>2026-04-09T13:57:55.999Z</time></trkpt><trkpt lat="37.67563828226986" lon="12.499461475058993"><ele>1.9999999999999998</ele><time>2026-04-09T13:57:57.999Z</time></trkpt><trkpt lat="37.67559058944998" lon="12.499544490109766"><ele>2.0</ele><time>2026-04-09T13:58:01.999Z</time></trkpt><trkpt lat="37.675549450233" lon="12.49963469479874"><ele>1.9999999999999998</ele><time>2026-04-09T13:58:04.999Z</time></trkpt><trkpt lat="37.675484228503834" lon="12.499723117593742"><ele>2.0</ele><time>2026-04-09T13:58:07.999Z</time></trkpt><trkpt lat="37.67542784694433" lon="12.499766993914745"><ele>2.0</ele><time>2026-04-09T13:58:09.999Z</time></trkpt><trkpt lat="37.67541225463418" lon="12.499851179663102"><ele>2.0</ele><time>2026-04-09T13:58:15.999Z</time></trkpt><trkpt lat="37.675377393086116" lon="12.499931181865012"><ele>1.9999999999999998</ele><time>2026-04-09T13:58:19.999Z</time></trkpt><trkpt lat="37.67534209274813" lon="12.50002816257959"><ele>2.0</ele><time>2026-04-09T13:58:22.999Z</time></trkpt><trkpt lat="37.67529343991318" lon="12.500080540969075"><ele>1.8333333333333333</ele><time>2026-04-09T13:58:24.999Z</time></trkpt><trkpt lat="37.675257448070255" lon="12.500169935028955"><ele>1.6666666666666665</ele><time>2026-04-09T13:58:27Z</time></trkpt><trkpt lat="37.67520372730957" lon="12.500234391435674"><ele>1.5</ele><time>2026-04-09T13:58:29Z</time></trkpt><trkpt lat="37.67515533974783" lon="12.500289344354773"><ele>1.3333333333333333</ele><time>2026-04-09T13:58:31Z</time></trkpt><trkpt lat="37.67510021176674" lon="12.500366252202086"><ele>1.1666666666666665</ele><time>2026-04-09T13:58:34Z</time></trkpt><trkpt lat="37.67505581267236" lon="12.500433893330248"><ele>1.0</ele><time>2026-04-09T13:58:36Z</time></trkpt><trkpt lat="37.67503610000013" lon="12.500557351467057"><ele>1.3333333333333333</ele><time>2026-04-09T13:58:38Z</time></trkpt><trkpt lat="37.67501088481724" lon="12.50067001840786"><ele>1.6666666666666665</ele><time>2026-04-09T13:58:40Z</time></trkpt><trkpt lat="37.67495285087609" lon="12.500785034933912"><ele>2.0</ele><time>2026-04-09T13:58:42Z</time></trkpt><trkpt lat="37.67493198037772" lon="12.500864359120959"><ele>2.3333333333333335</ele><time>2026-04-09T13:58:43Z</time></trkpt><trkpt lat="37.674925654412675" lon="12.500954589893162"><ele>2.6666666666666665</ele><time>2026-04-09T13:58:44Z</time></trkpt><trkpt lat="37.67490960529793" lon="12.501045150607197"><ele>3.0</ele><time>2026-04-09T13:58:45Z</time></trkpt><trkpt lat="37.67489423938182" lon="12.50113733283315"><ele>3.0</ele><time>2026-04-09T13:58:46Z</time></trkpt><trkpt lat="37.67487520359199" lon="12.501227918103778"><ele>3.0</ele><time>2026-04-09T13:58:47Z</time></trkpt><trkpt lat="37.67486641558243" lon="12.501313153963306"><ele>3.0</ele><time>2026-04-09T13:58:48Z</time></trkpt><trkpt lat="37.67486608828124" lon="12.501399065648023"><ele>3.0</ele><time>2026-04-09T13:58:49Z</time></trkpt><trkpt lat="37.67485835459651" lon="12.501543033974968"><ele>3.0</ele><time>2026-04-09T13:58:51Z</time></trkpt><trkpt lat="37.674801012744744" lon="12.501653033625413"><ele>3.0</ele><time>2026-04-09T13:58:53Z</time></trkpt><trkpt lat="37.674806855725215" lon="12.501747236252806"><ele>3.0</ele><time>2026-04-09T13:58:56Z</time></trkpt><trkpt lat="37.674843095679705" lon="12.501818385333499"><ele>3.0</ele><time>2026-04-09T13:58:58Z</time></trkpt><trkpt lat="37.67490059125935" lon="12.501926210369854"><ele>3.0</ele><time>2026-04-09T13:59:00Z</time></trkpt><trkpt lat="37.674952068561105" lon="12.502071363349783"><ele>3.0</ele><time>2026-04-09T13:59:02Z</time></trkpt><trkpt lat="37.675000649303044" lon="12.502122812928148"><ele>3.0</ele><time>2026-04-09T13:59:03Z</time></trkpt><trkpt lat="37.67505609242552" lon="12.502165710788292"><ele>3.0</ele><time>2026-04-09T13:59:04Z</time></trkpt><trkpt lat="37.67512138378149" lon="12.502193331015055"><ele>3.0</ele><time>2026-04-09T13:59:06Z</time></trkpt><trkpt lat="37.67520121733844" lon="12.50217427644467"><ele>3.0</ele><time>2026-04-09T13:59:10Z</time></trkpt><trkpt lat="37.67525472775676" lon="12.502223680637275"><ele>3.0</ele><time>2026-04-09T13:59:12Z</time></trkpt><trkpt lat="37.67530121858818" lon="12.502278296384404"><ele>3.0</ele><time>2026-04-09T13:59:14Z</time></trkpt><trkpt lat="37.675375379546004" lon="12.502311740576996"><ele>3.0</ele><time>2026-04-09T13:59:17Z</time></trkpt><trkpt lat="37.6754272892661" lon="12.502408395676019"><ele>3.0</ele><time>2026-04-09T13:59:28Z</time></trkpt><trkpt lat="37.675491233172366" lon="12.502497221951904"><ele>3.0</ele><time>2026-04-09T13:59:30Z</time></trkpt><trkpt lat="37.6755745457058" lon="12.502540746400147"><ele>3.0</ele><time>2026-04-09T13:59:32Z</time></trkpt><trkpt lat="37.67564800116839" lon="12.502568619109537"><ele>3.0</ele><time>2026-04-09T13:59:33.999Z</time></trkpt><trkpt lat="37.6757193723887" lon="12.502654716593625"><ele>3.0</ele><time>2026-04-09T13:59:36.999Z</time></trkpt><trkpt lat="37.67578794786596" lon="12.502715767651175"><ele>3.0</ele><time>2026-04-09T13:59:38.999Z</time></trkpt><trkpt lat="37.67584217951066" lon="12.50278455662458"><ele>3.0</ele><time>2026-04-09T13:59:40.999Z</time></trkpt><trkpt lat="37.67591318338313" lon="12.502850571520222"><ele>3.0</ele><time>2026-04-09T13:59:42.999Z</time></trkpt><trkpt lat="37.675986839492175" lon="12.502895915987658"><ele>3.0</ele><time>2026-04-09T13:59:44.999Z</time></trkpt><trkpt lat="37.67608114081056" lon="12.502974057427165"><ele>3.0</ele><time>2026-04-09T13:59:46.999Z</time></trkpt><trkpt lat="37.67613174070605" lon="12.503024093571229"><ele>3.0</ele><time>2026-04-09T13:59:47.999Z</time></trkpt><trkpt lat="37.67618422197683" lon="12.503073639026862"><ele>3.0</ele><time>2026-04-09T13:59:48.999Z</time></trkpt><trkpt lat="37.67624119740576" lon="12.503123701978401"><ele>3.0</ele><time>2026-04-09T13:59:49.999Z</time></trkpt><trkpt lat="37.67630210593363" lon="12.503179139480967"><ele>3.1666666666666665</ele><time>2026-04-09T13:59:50.999Z</time></trkpt><trkpt lat="37.67636142908216" lon="12.503233152395817"><ele>3.333333333333333</ele><time>2026-04-09T13:59:51.999Z</time></trkpt><trkpt lat="37.67642397274297" lon="12.503285618764398"><ele>3.5</ele><time>2026-04-09T13:59:52.999Z</time></trkpt><trkpt lat="37.676484415534986" lon="12.503337700305886"><ele>3.6666666666666665</ele><time>2026-04-09T13:59:53.999Z</time></trkpt><trkpt lat="37.67654413917101" lon="12.503396642050893"><ele>3.833333333333333</ele><time>2026-04-09T13:59:54.999Z</time></trkpt><trkpt lat="37.67661046145239" lon="12.50345320205761"><ele>4.0</ele><time>2026-04-09T13:59:55.999Z</time></trkpt><trkpt lat="37.67667723101175" lon="12.503513351860589"><ele>3.9999999999999996</ele><time>2026-04-09T13:59:56.999Z</time></trkpt><trkpt lat="37.67674454865058" lon="12.50357580186755"><ele>4.0</ele><time>2026-04-09T13:59:57.999Z</time></trkpt><trkpt lat="37.67681796801976" lon="12.503635059170728"><ele>4.0</ele><time>2026-04-09T13:59:58.999Z</time></trkpt><trkpt lat="37.67687931572441" lon="12.503699579468158"><ele>4.0</ele><time>2026-04-09T13:59:59.999Z</time></trkpt><trkpt lat="37.67693378834752" lon="12.503748326728486"><ele>3.9999999999999996</ele><time>2026-04-09T14:00:00.999Z</time></trkpt><trkpt lat="37.677038432832965" lon="12.503848740922058"><ele>4.0</ele><time>2026-04-09T14:00:01.999Z</time></trkpt><trkpt lat="37.67709971640378" lon="12.503914755459634"><ele>3.8000000000000003</ele><time>2026-04-09T14:00:02.999Z</time></trkpt><trkpt lat="37.67717350538778" lon="12.503977104816688"><ele>3.6000000000000005</ele><time>2026-04-09T14:00:03.999Z</time></trkpt><trkpt lat="37.67724554180638" lon="12.504045614289973"><ele>3.4</ele><time>2026-04-09T14:00:04.999Z</time></trkpt><trkpt lat="37.677322600369976" lon="12.504115325256388"><ele>3.2</ele><time>2026-04-09T14:00:05.999Z</time></trkpt><trkpt lat="37.67741634893219" lon="12.504181065377667"><ele>3.0</ele><time>2026-04-09T14:00:06.999Z</time></trkpt><trkpt lat="37.677478431817356" lon="12.504251314407485"><ele>3.0</ele><time>2026-04-09T14:00:07.999Z</time></trkpt><trkpt lat="37.67756150629895" lon="12.504327025372763"><ele>3.0</ele><time>2026-04-09T14:00:08.999Z</time></trkpt><trkpt lat="37.67764691471057" lon="12.50439129494936"><ele>3.0</ele><time>2026-04-09T14:00:09.999Z</time></trkpt><trkpt lat="37.677734985659136" lon="12.504450483511633"><ele>3.0</ele><time>2026-04-09T14:00:10.999Z</time></trkpt><trkpt lat="37.677816550540314" lon="12.504518103047916"><ele>3.0</ele><time>2026-04-09T14:00:11.999Z</time></trkpt><trkpt lat="37.67787109416944" lon="12.504583164793186"><ele>2.8333333333333335</ele><time>2026-04-09T14:00:12.999Z</time></trkpt><trkpt lat="37.67794655530003" lon="12.504669936747383"><ele>2.6666666666666665</ele><time>2026-04-09T14:00:14.999Z</time></trkpt><trkpt lat="37.678032537697305" lon="12.50474748763931"><ele>2.5</ele><time>2026-04-09T14:00:16.999Z</time></trkpt><trkpt lat="37.67811751826362" lon="12.50481882044422"><ele>2.333333333333333</ele><time>2026-04-09T14:00:18.999Z</time></trkpt><trkpt lat="37.67816499604596" lon="12.504883559351747"><ele>2.1666666666666665</ele><time>2026-04-09T14:00:19.999Z</time></trkpt><trkpt lat="37.6782170276484" lon="12.5049344572889"><ele>2.0</ele><time>2026-04-09T14:00:20.999Z</time></trkpt><trkpt lat="37.67827130449838" lon="12.504984874835001"><ele>1.9999999999999998</ele><time>2026-04-09T14:00:21.999Z</time></trkpt><trkpt lat="37.67833473415066" lon="12.505033177834722"><ele>2.0</ele><time>2026-04-09T14:00:22.999Z</time></trkpt><trkpt lat="37.67839880314696" lon="12.505081360160846"><ele>2.0</ele><time>2026-04-09T14:00:23.999Z</time></trkpt><trkpt lat="37.67845430614365" lon="12.505135018665364"><ele>2.0</ele><time>2026-04-09T14:00:24.999Z</time></trkpt><trkpt lat="37.67851807853703" lon="12.505197409412807"><ele>1.9999999999999998</ele><time>2026-04-09T14:00:25.999Z</time></trkpt><trkpt lat="37.67857683178976" lon="12.50524893664"><ele>2.0</ele><time>2026-04-09T14:00:26.999Z</time></trkpt><trkpt lat="37.678646059905404" lon="12.505304723796126"><ele>2.1666666666666665</ele><time>2026-04-09T14:00:27.999Z</time></trkpt><trkpt lat="37.678710838270746" lon="12.505366519849728"><ele>2.333333333333333</ele><time>2026-04-09T14:00:28.999Z</time></trkpt><trkpt lat="37.67878603597631" lon="12.505425983024667"><ele>2.5</ele><time>2026-04-09T14:00:29.999Z</time></trkpt><trkpt lat="37.67885675940604" lon="12.505496133988776"><ele>2.6666666666666665</ele><time>2026-04-09T14:00:30.999Z</time></trkpt><trkpt lat="37.67893393327515" lon="12.5055610725333"><ele>2.8333333333333335</ele><time>2026-04-09T14:00:31.999Z</time></trkpt><trkpt lat="37.67901515411237" lon="12.505621150084675"><ele>3.0</ele><time>2026-04-09T14:00:33Z</time></trkpt><trkpt lat="37.67909577067286" lon="12.505687420622253"><ele>3.0</ele><time>2026-04-09T14:00:34Z</time></trkpt><trkpt lat="37.6791721996754" lon="12.50575831971405"><ele>3.0</ele><time>2026-04-09T14:00:35Z</time></trkpt><trkpt lat="37.67925073561985" lon="12.505829840151558"><ele>3.0</ele><time>2026-04-09T14:00:36Z</time></trkpt><trkpt lat="37.679330113781184" lon="12.50590047227648"><ele>3.0</ele><time>2026-04-09T14:00:37Z</time></trkpt><trkpt lat="37.67941178097398" lon="12.505969980211141"><ele>3.0</ele><time>2026-04-09T14:00:38Z</time></trkpt><trkpt lat="37.67949740704849" lon="12.506034345026027"><ele>3.0</ele><time>2026-04-09T14:00:39Z</time></trkpt><trkpt lat="37.679572272753155" lon="12.506109034021499"><ele>3.0</ele><time>2026-04-09T14:00:40Z</time></trkpt><trkpt lat="37.67964709535686" lon="12.506193032935636"><ele>3.0</ele><time>2026-04-09T14:00:41Z</time></trkpt><trkpt lat="37.6797266534317" lon="12.506273541056261"><ele>3.0</ele><time>2026-04-09T14:00:42Z</time></trkpt><trkpt lat="37.67980586332909" lon="12.506353477727261"><ele>3.0</ele><time>2026-04-09T14:00:43Z</time></trkpt><trkpt lat="37.67988489958444" lon="12.506425445354578"><ele>2.8</ele><time>2026-04-09T14:00:44Z</time></trkpt><trkpt lat="37.67995942984168" lon="12.506479726770376"><ele>2.5999999999999996</ele><time>2026-04-09T14:00:45Z</time></trkpt><trkpt lat="37.68002129480451" lon="12.506510800517221"><ele>2.4000000000000004</ele><time>2026-04-09T14:00:46Z</time></trkpt><trkpt lat="37.68007740167012" lon="12.506564098065983"><ele>2.2</ele><time>2026-04-09T14:00:47Z</time></trkpt><trkpt lat="37.680174616837476" lon="12.50666168783758"><ele>2.0</ele><time>2026-04-09T14:00:49Z</time></trkpt><trkpt lat="37.6802605358405" lon="12.506741346551639"><ele>2.4000000000000004</ele><time>2026-04-09T14:00:51Z</time></trkpt><trkpt lat="37.68034050275007" lon="12.50680967531317"><ele>2.8000000000000003</ele><time>2026-04-09T14:00:53Z</time></trkpt><trkpt lat="37.68041913116159" lon="12.506881776990973"><ele>3.2</ele><time>2026-04-09T14:00:55Z</time></trkpt><trkpt lat="37.68051160366908" lon="12.506956829389054"><ele>3.6</ele><time>2026-04-09T14:00:57Z</time></trkpt><trkpt lat="37.68056377452917" lon="12.507005036929723"><ele>4.0</ele><time>2026-04-09T14:00:58Z</time></trkpt><trkpt lat="37.680666727903066" lon="12.507102418299684"><ele>4.285714285714286</ele><time>2026-04-09T14:01:00Z</time></trkpt><trkpt lat="37.68071966445962" lon="12.507150100380427"><ele>4.571428571428571</ele><time>2026-04-09T14:01:01Z</time></trkpt><trkpt lat="37.68077186197078" lon="12.507195196488468"><ele>4.857142857142857</ele><time>2026-04-09T14:01:02Z</time></trkpt><trkpt lat="37.68082783913231" lon="12.50724479706004"><ele>5.142857142857142</ele><time>2026-04-09T14:01:03Z</time></trkpt><trkpt lat="37.68088137314758" lon="12.507287345335582"><ele>5.428571428571429</ele><time>2026-04-09T14:01:04Z</time></trkpt><trkpt lat="37.68094252511527" lon="12.50733613671614"><ele>5.7142857142857135</ele><time>2026-04-09T14:01:05Z</time></trkpt><trkpt lat="37.68099783582823" lon="12.507392008912836"><ele>6.0</ele><time>2026-04-09T14:01:06Z</time></trkpt><trkpt lat="37.681051590807904" lon="12.50744855343495"><ele>6.0</ele><time>2026-04-09T14:01:07Z</time></trkpt><trkpt lat="37.6811083239519" lon="12.507499686032569"><ele>6.0</ele><time>2026-04-09T14:01:08Z</time></trkpt><trkpt lat="37.681174569885975" lon="12.507550450031914"><ele>6.0</ele><time>2026-04-09T14:01:09Z</time></trkpt><trkpt lat="37.681241380463526" lon="12.507605525894858"><ele>6.0</ele><time>2026-04-09T14:01:10Z</time></trkpt><trkpt lat="37.68130488401518" lon="12.507662037863092"><ele>6.0</ele><time>2026-04-09T14:01:11Z</time></trkpt><trkpt lat="37.68136842926313" lon="12.50772192226017"><ele>6.0</ele><time>2026-04-09T14:01:12Z</time></trkpt><trkpt lat="37.68143570370289" lon="12.507778102401792"><ele>6.0</ele><time>2026-04-09T14:01:13Z</time></trkpt><trkpt lat="37.68150520155008" lon="12.507840165072885"><ele>6.0</ele><time>2026-04-09T14:01:14Z</time></trkpt><trkpt lat="37.68157648422484" lon="12.507904065403181"><ele>6.0</ele><time>2026-04-09T14:01:15Z</time></trkpt><trkpt lat="37.681639415152915" lon="12.507970512839181"><ele>6.0</ele><time>2026-04-09T14:01:16Z</time></trkpt><trkpt lat="37.68171135103901" lon="12.508032826323115"><ele>6.0</ele><time>2026-04-09T14:01:17Z</time></trkpt><trkpt lat="37.681786392748684" lon="12.50809474530899"><ele>6.0</ele><time>2026-04-09T14:01:18Z</time></trkpt><trkpt lat="37.681864629171066" lon="12.50816161731074"><ele>5.6</ele><time>2026-04-09T14:01:19Z</time></trkpt><trkpt lat="37.68194387885411" lon="12.508231756362868"><ele>5.199999999999999</ele><time>2026-04-09T14:01:20Z</time></trkpt><trkpt lat="37.682000564289396" lon="12.508296833298003"><ele>4.800000000000001</ele><time>2026-04-09T14:01:21Z</time></trkpt><trkpt lat="37.68206933628329" lon="12.508354009481408"><ele>4.4</ele><time>2026-04-09T14:01:22Z</time></trkpt><trkpt lat="37.68218457800353" lon="12.508451351270134"><ele>4.0</ele><time>2026-04-09T14:01:23Z</time></trkpt><trkpt lat="37.68227341860139" lon="12.508530536721388"><ele>4.0</ele><time>2026-04-09T14:01:24Z</time></trkpt><trkpt lat="37.68236310597466" lon="12.508610024236754"><ele>4.0</ele><time>2026-04-09T14:01:25Z</time></trkpt><trkpt lat="37.68245502573446" lon="12.50868817105284"><ele>4.0</ele><time>2026-04-09T14:01:26Z</time></trkpt><trkpt lat="37.6825397885911" lon="12.508767622512277"><ele>4.0</ele><time>2026-04-09T14:01:27Z</time></trkpt><trkpt lat="37.68262266263901" lon="12.50883945580758"><ele>4.0</ele><time>2026-04-09T14:01:27.999Z</time></trkpt><trkpt lat="37.682708683511386" lon="12.508914863587297"><ele>3.833333333333333</ele><time>2026-04-09T14:01:28.999Z</time></trkpt><trkpt lat="37.68276842228096" lon="12.508973526285212"><ele>3.6666666666666665</ele><time>2026-04-09T14:01:29.999Z</time></trkpt><trkpt lat="37.68282726810431" lon="12.509026614435328"><ele>3.5</ele><time>2026-04-09T14:01:30.999Z</time></trkpt><trkpt lat="37.68289052444671" lon="12.509083332481355"><ele>3.333333333333333</ele><time>2026-04-09T14:01:31.999Z</time></trkpt><trkpt lat="37.68295727041913" lon="12.50914047861329"><ele>3.1666666666666665</ele><time>2026-04-09T14:01:32.999Z</time></trkpt><trkpt lat="37.68302694312806" lon="12.509205498404377"><ele>3.0</ele><time>2026-04-09T14:01:33.999Z</time></trkpt><trkpt lat="37.68309915058899" lon="12.509267567932614"><ele>2.9999999999999996</ele><time>2026-04-09T14:01:34.999Z</time></trkpt><trkpt lat="37.68316422346064" lon="12.509328067729404"><ele>3.0</ele><time>2026-04-09T14:01:35.999Z</time></trkpt><trkpt lat="37.68322692889489" lon="12.50938244786556"><ele>3.0</ele><time>2026-04-09T14:01:36.999Z</time></trkpt><trkpt lat="37.683284140795394" lon="12.509430299612937"><ele>3.0</ele><time>2026-04-09T14:01:37.999Z</time></trkpt><trkpt lat="37.683336755990815" lon="12.509478747897038"><ele>3.0</ele><time>2026-04-09T14:01:38.999Z</time></trkpt><trkpt lat="37.6833915344196" lon="12.50953100249583"><ele>2.9999999999999996</ele><time>2026-04-09T14:01:39.999Z</time></trkpt><trkpt lat="37.683451078410464" lon="12.509588178844783"><ele>3.0</ele><time>2026-04-09T14:01:40.999Z</time></trkpt><trkpt lat="37.68351813706397" lon="12.509646385227954"><ele>3.1666666666666665</ele><time>2026-04-09T14:01:41.999Z</time></trkpt><trkpt lat="37.68358178204702" lon="12.509702798064176"><ele>3.333333333333333</ele><time>2026-04-09T14:01:42.999Z</time></trkpt><trkpt lat="37.683651771279656" lon="12.509762682206306"><ele>3.5</ele><time>2026-04-09T14:01:43.999Z</time></trkpt><trkpt lat="37.68372338960044" lon="12.509832432002622"><ele>3.6666666666666665</ele><time>2026-04-09T14:01:44.999Z</time></trkpt><trkpt lat="37.68379501580494" lon="12.509893938608663"><ele>3.833333333333333</ele><time>2026-04-09T14:01:45.999Z</time></trkpt><trkpt lat="37.683867820337504" lon="12.50995608009276"><ele>4.0</ele><time>2026-04-09T14:01:46.999Z</time></trkpt><trkpt lat="37.683935660074226" lon="12.510015025918724"><ele>4.0</ele><time>2026-04-09T14:01:47.999Z</time></trkpt><trkpt lat="37.68401180658851" lon="12.51007667541092"><ele>4.0</ele><time>2026-04-09T14:01:48.999Z</time></trkpt><trkpt lat="37.68407865595695" lon="12.510140954459136"><ele>4.0</ele><time>2026-04-09T14:01:49.999Z</time></trkpt><trkpt lat="37.684152906670086" lon="12.510209526210472"><ele>4.0</ele><time>2026-04-09T14:01:50.999Z</time></trkpt><trkpt lat="37.684228222353255" lon="12.510278019198504"><ele>4.0</ele><time>2026-04-09T14:01:51.999Z</time></trkpt><trkpt lat="37.68430625145907" lon="12.510347971757541"><ele>4.0</ele><time>2026-04-09T14:01:52.999Z</time></trkpt><trkpt lat="37.68438627371924" lon="12.510417032359928"><ele>4.0</ele><time>2026-04-09T14:01:53.999Z</time></trkpt><trkpt lat="37.68446254410505" lon="12.510482199837796"><ele>4.0</ele><time>2026-04-09T14:01:54.999Z</time></trkpt><trkpt lat="37.68454378111849" lon="12.51055571617305"><ele>4.0</ele><time>2026-04-09T14:01:55.999Z</time></trkpt><trkpt lat="37.68461866474855" lon="12.510624952530856"><ele>4.0</ele><time>2026-04-09T14:01:56.999Z</time></trkpt><trkpt lat="37.684695313656505" lon="12.51069084535477"><ele>3.8000000000000003</ele><time>2026-04-09T14:01:57.999Z</time></trkpt><trkpt lat="37.684769259346865" lon="12.51075801029952"><ele>3.6000000000000005</ele><time>2026-04-09T14:01:58.999Z</time></trkpt><trkpt lat="37.68484440517071" lon="12.510825205829812"><ele>3.4</ele><time>2026-04-09T14:01:59.999Z</time></trkpt><trkpt lat="37.68492237763786" lon="12.510890031603386"><ele>3.2</ele><time>2026-04-09T14:02:00.999Z</time></trkpt><trkpt lat="37.685000234126726" lon="12.510953733038178"><ele>3.0</ele><time>2026-04-09T14:02:01.999Z</time></trkpt><trkpt lat="37.685076147015316" lon="12.511022547240351"><ele>3.0</ele><time>2026-04-09T14:02:02.999Z</time></trkpt><trkpt lat="37.68515443737706" lon="12.511096089846449"><ele>3.0</ele><time>2026-04-09T14:02:03.999Z</time></trkpt><trkpt lat="37.685229280779154" lon="12.511161691768473"><ele>3.0</ele><time>2026-04-09T14:02:04.999Z</time></trkpt><trkpt lat="37.685304298205715" lon="12.511230060841823"><ele>3.0</ele><time>2026-04-09T14:02:05.999Z</time></trkpt><trkpt lat="37.685385790765956" lon="12.511299784897643"><ele>3.0</ele><time>2026-04-09T14:02:06.999Z</time></trkpt><trkpt lat="37.68546081353244" lon="12.511365056538999"><ele>3.5999999999999996</ele><time>2026-04-09T14:02:07.999Z</time></trkpt><trkpt lat="37.68553644144421" lon="12.511436362350091"><ele>4.199999999999999</ele><time>2026-04-09T14:02:08.999Z</time></trkpt><trkpt lat="37.68561405303184" lon="12.511505647731354"><ele>4.8</ele><time>2026-04-09T14:02:09.999Z</time></trkpt><trkpt lat="37.6856878949651" lon="12.511576408808732"><ele>5.3999999999999995</ele><time>2026-04-09T14:02:10.999Z</time></trkpt><trkpt lat="37.6857565887627" lon="12.511643834248675"><ele>6.0</ele><time>2026-04-09T14:02:11.999Z</time></trkpt><trkpt lat="37.68584249535862" lon="12.511714433593296"><ele>6.0</ele><time>2026-04-09T14:02:12.999Z</time></trkpt><trkpt lat="37.685919325633314" lon="12.511779726887584"><ele>6.0</ele><time>2026-04-09T14:02:13.999Z</time></trkpt><trkpt lat="37.685994155779184" lon="12.511846642191877"><ele>6.0</ele><time>2026-04-09T14:02:14.999Z</time></trkpt><trkpt lat="37.68607129987209" lon="12.511912527542224"><ele>6.0</ele><time>2026-04-09T14:02:15.999Z</time></trkpt><trkpt lat="37.68614683536969" lon="12.511979876982798"><ele>6.0</ele><time>2026-04-09T14:02:16.999Z</time></trkpt><trkpt lat="37.68622460075939" lon="12.51205024257524"><ele>6.166666666666667</ele><time>2026-04-09T14:02:17.999Z</time></trkpt><trkpt lat="37.686295128422834" lon="12.512116169643518"><ele>6.333333333333334</ele><time>2026-04-09T14:02:18.999Z</time></trkpt><trkpt lat="37.68636981793561" lon="12.512178941351507"><ele>6.5</ele><time>2026-04-09T14:02:19.999Z</time></trkpt><trkpt lat="37.68642802621638" lon="12.512228117267533"><ele>6.666666666666667</ele><time>2026-04-09T14:02:20.999Z</time></trkpt><trkpt lat="37.686506066904016" lon="12.512303209756015"><ele>6.833333333333334</ele><time>2026-04-09T14:02:21.999Z</time></trkpt><trkpt lat="37.68657631033756" lon="12.512363347635715"><ele>7.0</ele><time>2026-04-09T14:02:22.999Z</time></trkpt><trkpt lat="37.686647680216886" lon="12.51242756463241"><ele>7.000000000000001</ele><time>2026-04-09T14:02:23.999Z</time></trkpt><trkpt lat="37.6867309884684" lon="12.512485177578343"><ele>7.0</ele><time>2026-04-09T14:02:24.999Z</time></trkpt><trkpt lat="37.68678695028731" lon="12.512555141970576"><ele>7.0</ele><time>2026-04-09T14:02:25.999Z</time></trkpt><trkpt lat="37.686854305899544" lon="12.512613813738056"><ele>7.0</ele><time>2026-04-09T14:02:26.999Z</time></trkpt><trkpt lat="37.68692084949659" lon="12.512672620124428"><ele>7.000000000000001</ele><time>2026-04-09T14:02:27.999Z</time></trkpt><trkpt lat="37.68698693916449" lon="12.512738102904416"><ele>7.0</ele><time>2026-04-09T14:02:28.999Z</time></trkpt><trkpt lat="37.687063853598495" lon="12.512801251067296"><ele>7.166666666666667</ele><time>2026-04-09T14:02:29.999Z</time></trkpt><trkpt lat="37.68713280665465" lon="12.512863608228987"><ele>7.333333333333334</ele><time>2026-04-09T14:02:30.999Z</time></trkpt><trkpt lat="37.68719912907359" lon="12.512925660261313"><ele>7.5</ele><time>2026-04-09T14:02:31.999Z</time></trkpt><trkpt lat="37.68727109431896" lon="12.512987554187072"><ele>7.666666666666666</ele><time>2026-04-09T14:02:32.999Z</time></trkpt><trkpt lat="37.687329313616296" lon="12.513040799785454"><ele>7.833333333333333</ele><time>2026-04-09T14:02:33.999Z</time></trkpt><trkpt lat="37.68738335581637" lon="12.513092078584785"><ele>8.0</ele><time>2026-04-09T14:02:34.999Z</time></trkpt><trkpt lat="37.68741823109777" lon="12.513158397673998"><ele>8.4</ele><time>2026-04-09T14:02:35.999Z</time></trkpt><trkpt lat="37.68748763327026" lon="12.513198632116781"><ele>8.8</ele><time>2026-04-09T14:02:36.999Z</time></trkpt><trkpt lat="37.687592305427906" lon="12.513282117345552"><ele>9.2</ele><time>2026-04-09T14:02:39Z</time></trkpt><trkpt lat="37.68769319159356" lon="12.513371667085135"><ele>9.6</ele><time>2026-04-09T14:02:41Z</time></trkpt><trkpt lat="37.68775132677879" lon="12.513421291489557"><ele>10.0</ele><time>2026-04-09T14:02:42Z</time></trkpt><trkpt lat="37.68781357283019" lon="12.513475037792352"><ele>10.0</ele><time>2026-04-09T14:02:43Z</time></trkpt><trkpt lat="37.687864288167525" lon="12.513532642312372"><ele>10.0</ele><time>2026-04-09T14:02:44Z</time></trkpt><trkpt lat="37.68792764755469" lon="12.513583142158039"><ele>10.0</ele><time>2026-04-09T14:02:45Z</time></trkpt><trkpt lat="37.68799347631466" lon="12.513639270001326"><ele>10.0</ele><time>2026-04-09T14:02:46Z</time></trkpt><trkpt lat="37.688061163188806" lon="12.513694729197029"><ele>10.0</ele><time>2026-04-09T14:02:47Z</time></trkpt><trkpt lat="37.688127491016594" lon="12.51375690849025"><ele>10.0</ele><time>2026-04-09T14:02:48Z</time></trkpt><trkpt lat="37.6881952459892" lon="12.513816867433821"><ele>10.0</ele><time>2026-04-09T14:02:49Z</time></trkpt><trkpt lat="37.68826380723739" lon="12.513874260912429"><ele>10.0</ele><time>2026-04-09T14:02:50Z</time></trkpt><trkpt lat="37.68832998524492" lon="12.513933707084753"><ele>10.0</ele><time>2026-04-09T14:02:51Z</time></trkpt><trkpt lat="37.68840430402753" lon="12.513998432967753"><ele>10.0</ele><time>2026-04-09T14:02:52Z</time></trkpt><trkpt lat="37.68846588186231" lon="12.514053598602503"><ele>10.0</ele><time>2026-04-09T14:02:53Z</time></trkpt><trkpt lat="37.68852246205069" lon="12.514102389404592"><ele>10.0</ele><time>2026-04-09T14:02:54Z</time></trkpt><trkpt lat="37.68858251310654" lon="12.514148848452713"><ele>10.333333333333334</ele><time>2026-04-09T14:02:55Z</time></trkpt><trkpt lat="37.688637748909514" lon="12.51419636508948"><ele>10.666666666666668</ele><time>2026-04-09T14:02:56Z</time></trkpt><trkpt lat="37.6887143209106" lon="12.514277169573049"><ele>11.0</ele><time>2026-04-09T14:02:58Z</time></trkpt><trkpt lat="37.68879210378063" lon="12.51431886485995"><ele>11.333333333333334</ele><time>2026-04-09T14:02:59Z</time></trkpt><trkpt lat="37.68886310671548" lon="12.514392342389668"><ele>11.666666666666666</ele><time>2026-04-09T14:03:01Z</time></trkpt><trkpt lat="37.6889412196358" lon="12.514461625941106"><ele>12.0</ele><time>2026-04-09T14:03:03Z</time></trkpt><trkpt lat="37.68899767228386" lon="12.514514681171827"><ele>12.0</ele><time>2026-04-09T14:03:05Z</time></trkpt><trkpt lat="37.68897286647051" lon="12.514599827901984"><ele>12.0</ele><time>2026-04-09T14:03:07Z</time></trkpt><trkpt lat="37.68890426255583" lon="12.514698660198942"><ele>12.0</ele><time>2026-04-09T14:03:09Z</time></trkpt><trkpt lat="37.6888634941038" lon="12.514763091893048"><ele>12.0</ele><time>2026-04-09T14:03:10Z</time></trkpt><trkpt lat="37.688828062812796" lon="12.514839061675644"><ele>12.0</ele><time>2026-04-09T14:03:11Z</time></trkpt><trkpt lat="37.68878464941854" lon="12.514914699914009"><ele>12.0</ele><time>2026-04-09T14:03:12Z</time></trkpt><trkpt lat="37.68873911269395" lon="12.514999978081237"><ele>12.0</ele><time>2026-04-09T14:03:13Z</time></trkpt><trkpt lat="37.688691392676695" lon="12.515085334327749"><ele>12.0</ele><time>2026-04-09T14:03:14Z</time></trkpt><trkpt lat="37.688642142736384" lon="12.515177436720293"><ele>12.0</ele><time>2026-04-09T14:03:15Z</time></trkpt><trkpt lat="37.688589279069355" lon="12.515268213084813"><ele>12.0</ele><time>2026-04-09T14:03:16Z</time></trkpt><trkpt lat="37.68853731417976" lon="12.515361227487375"><ele>12.0</ele><time>2026-04-09T14:03:17Z</time></trkpt><trkpt lat="37.68847843723144" lon="12.515463318418444"><ele>11.4</ele><time>2026-04-09T14:03:18Z</time></trkpt><trkpt lat="37.68842006297377" lon="12.515564139623189"><ele>10.799999999999999</ele><time>2026-04-09T14:03:19Z</time></trkpt><trkpt lat="37.68836097434945" lon="12.515667656983377"><ele>10.2</ele><time>2026-04-09T14:03:20Z</time></trkpt><trkpt lat="37.68829678039828" lon="12.515778036425845"><ele>9.6</ele><time>2026-04-09T14:03:21Z</time></trkpt><trkpt lat="37.688242148639794" lon="12.515886600723327"><ele>9.0</ele><time>2026-04-09T14:03:22Z</time></trkpt><trkpt lat="37.68817881242609" lon="12.5159962247449"><ele>9.0</ele><time>2026-04-09T14:03:23Z</time></trkpt><trkpt lat="37.68811277328693" lon="12.516104370156445"><ele>9.0</ele><time>2026-04-09T14:03:24Z</time></trkpt><trkpt lat="37.68805329989858" lon="12.5162212231691"><ele>9.0</ele><time>2026-04-09T14:03:24.999Z</time></trkpt><trkpt lat="37.687990133526355" lon="12.51633809272943"><ele>9.0</ele><time>2026-04-09T14:03:25.999Z</time></trkpt><trkpt lat="37.687931038778906" lon="12.516452436822021"><ele>9.0</ele><time>2026-04-09T14:03:26.999Z</time></trkpt><trkpt lat="37.687865881897224" lon="12.5165679926741"><ele>9.0</ele><time>2026-04-09T14:03:27.999Z</time></trkpt><trkpt lat="37.68780026350359" lon="12.516685943589962"><ele>9.0</ele><time>2026-04-09T14:03:28.999Z</time></trkpt><trkpt lat="37.687736975760835" lon="12.516804035802789"><ele>9.0</ele><time>2026-04-09T14:03:29.999Z</time></trkpt><trkpt lat="37.687669336080155" lon="12.516927286855637"><ele>9.0</ele><time>2026-04-09T14:03:30.999Z</time></trkpt><trkpt lat="37.6876017089944" lon="12.517042365560114"><ele>9.0</ele><time>2026-04-09T14:03:31.999Z</time></trkpt><trkpt lat="37.68753588020003" lon="12.517163574216713"><ele>9.0</ele><time>2026-04-09T14:03:32.999Z</time></trkpt><trkpt lat="37.687472119893656" lon="12.517285543122652"><ele>9.0</ele><time>2026-04-09T14:03:33.999Z</time></trkpt><trkpt lat="37.68740612079381" lon="12.51740593216078"><ele>9.0</ele><time>2026-04-09T14:03:34.999Z</time></trkpt><trkpt lat="37.68733893768685" lon="12.5175240348919"><ele>9.0</ele><time>2026-04-09T14:03:35.999Z</time></trkpt><trkpt lat="37.687274502916765" lon="12.517648618264309"><ele>9.0</ele><time>2026-04-09T14:03:36.999Z</time></trkpt><trkpt lat="37.6872105410378" lon="12.517771448094038"><ele>9.0</ele><time>2026-04-09T14:03:37.999Z</time></trkpt><trkpt lat="37.687145327490136" lon="12.517888339827254"><ele>9.0</ele><time>2026-04-09T14:03:38.999Z</time></trkpt><trkpt lat="37.68707729114317" lon="12.51800883921711"><ele>9.25</ele><time>2026-04-09T14:03:39.999Z</time></trkpt><trkpt lat="37.68701193204571" lon="12.51813030151653"><ele>9.5</ele><time>2026-04-09T14:03:40.999Z</time></trkpt><trkpt lat="37.68694894294368" lon="12.518251794718923"><ele>9.75</ele><time>2026-04-09T14:03:41.999Z</time></trkpt><trkpt lat="37.68688330252752" lon="12.518378240849147"><ele>10.0</ele><time>2026-04-09T14:03:42.999Z</time></trkpt><trkpt lat="37.686822868443286" lon="12.518499466405295"><ele>10.5</ele><time>2026-04-09T14:03:43.999Z</time></trkpt><trkpt lat="37.68675918788642" lon="12.518619425503768"><ele>11.0</ele><time>2026-04-09T14:03:44.999Z</time></trkpt><trkpt lat="37.68669170871814" lon="12.518739074545977"><ele>11.5</ele><time>2026-04-09T14:03:45.999Z</time></trkpt><trkpt lat="37.686626394270235" lon="12.518862223708782"><ele>12.0</ele><time>2026-04-09T14:03:46.999Z</time></trkpt><trkpt lat="37.68655954586106" lon="12.518982114625414"><ele>12.25</ele><time>2026-04-09T14:03:47.999Z</time></trkpt><trkpt lat="37.68649175916279" lon="12.519100595578326"><ele>12.5</ele><time>2026-04-09T14:03:48.999Z</time></trkpt><trkpt lat="37.68642461179364" lon="12.519218362841352"><ele>12.75</ele><time>2026-04-09T14:03:49.999Z</time></trkpt><trkpt lat="37.686356637038" lon="12.519336982563994"><ele>13.0</ele><time>2026-04-09T14:03:50.999Z</time></trkpt><trkpt lat="37.68628770726672" lon="12.519453765577188"><ele>12.75</ele><time>2026-04-09T14:03:51.999Z</time></trkpt><trkpt lat="37.6862169352715" lon="12.519567116741174"><ele>12.5</ele><time>2026-04-09T14:03:52.999Z</time></trkpt><trkpt lat="37.686148103596395" lon="12.519684952901391"><ele>12.25</ele><time>2026-04-09T14:03:53.999Z</time></trkpt><trkpt lat="37.686076205484056" lon="12.519798645121798"><ele>12.0</ele><time>2026-04-09T14:03:54.999Z</time></trkpt><trkpt lat="37.68600360584624" lon="12.519911669506897"><ele>12.0</ele><time>2026-04-09T14:03:55.999Z</time></trkpt><trkpt lat="37.68592720008856" lon="12.52002383448585"><ele>12.0</ele><time>2026-04-09T14:03:56.999Z</time></trkpt><trkpt lat="37.68585031641365" lon="12.520140845268248"><ele>12.0</ele><time>2026-04-09T14:03:57.999Z</time></trkpt><trkpt lat="37.68577790788171" lon="12.520259194688558"><ele>12.0</ele><time>2026-04-09T14:03:58.999Z</time></trkpt><trkpt lat="37.68570747311789" lon="12.520379179645687"><ele>11.75</ele><time>2026-04-09T14:03:59.999Z</time></trkpt><trkpt lat="37.68564772442636" lon="12.520491924843821"><ele>11.5</ele><time>2026-04-09T14:04:00.999Z</time></trkpt><trkpt lat="37.685588662959304" lon="12.520616802834668"><ele>11.25</ele><time>2026-04-09T14:04:01.999Z</time></trkpt><trkpt lat="37.685521835489865" lon="12.520738328478524"><ele>11.0</ele><time>2026-04-09T14:04:02.999Z</time></trkpt><trkpt lat="37.68545562446723" lon="12.520856940448455"><ele>11.0</ele><time>2026-04-09T14:04:03.999Z</time></trkpt><trkpt lat="37.685394408671485" lon="12.520980423587545"><ele>11.0</ele><time>2026-04-09T14:04:04.999Z</time></trkpt><trkpt lat="37.685337006437834" lon="12.521106433441044"><ele>11.0</ele><time>2026-04-09T14:04:05.999Z</time></trkpt><trkpt lat="37.68526877527455" lon="12.521228132416322"><ele>11.0</ele><time>2026-04-09T14:04:06.999Z</time></trkpt><trkpt lat="37.68520216361878" lon="12.521348326138906"><ele>11.25</ele><time>2026-04-09T14:04:07.999Z</time></trkpt><trkpt lat="37.68513819192314" lon="12.521471003751241"><ele>11.5</ele><time>2026-04-09T14:04:08.999Z</time></trkpt><trkpt lat="37.685073123045235" lon="12.521589990594887"><ele>11.75</ele><time>2026-04-09T14:04:09.999Z</time></trkpt><trkpt lat="37.6850031126295" lon="12.521706091533693"><ele>12.0</ele><time>2026-04-09T14:04:10.999Z</time></trkpt><trkpt lat="37.684932760283516" lon="12.521824509859664"><ele>12.0</ele><time>2026-04-09T14:04:11.999Z</time></trkpt><trkpt lat="37.684860543723346" lon="12.521944106506659"><ele>12.0</ele><time>2026-04-09T14:04:12.999Z</time></trkpt><trkpt lat="37.68479034060404" lon="12.522066054154442"><ele>12.0</ele><time>2026-04-09T14:04:13.999Z</time></trkpt><trkpt lat="37.68471477960166" lon="12.522186110487727"><ele>12.0</ele><time>2026-04-09T14:04:14.999Z</time></trkpt><trkpt lat="37.68463932457351" lon="12.522302663204094"><ele>12.0</ele><time>2026-04-09T14:04:15.999Z</time></trkpt><trkpt lat="37.68456565898748" lon="12.52242400702443"><ele>12.0</ele><time>2026-04-09T14:04:16.999Z</time></trkpt><trkpt lat="37.684493532580845" lon="12.522542294229961"><ele>12.0</ele><time>2026-04-09T14:04:17.999Z</time></trkpt><trkpt lat="37.68442143069682" lon="12.52266392132259"><ele>12.0</ele><time>2026-04-09T14:04:18.999Z</time></trkpt><trkpt lat="37.684348471512045" lon="12.522786474985786"><ele>11.75</ele><time>2026-04-09T14:04:19.999Z</time></trkpt><trkpt lat="37.68427708010596" lon="12.52290802388645"><ele>11.5</ele><time>2026-04-09T14:04:20.999Z</time></trkpt><trkpt lat="37.68420388944076" lon="12.523025047893157"><ele>11.25</ele><time>2026-04-09T14:04:21.999Z</time></trkpt><trkpt lat="37.68413063238664" lon="12.523134767373206"><ele>11.0</ele><time>2026-04-09T14:04:22.999Z</time></trkpt><trkpt lat="37.68405559466195" lon="12.52325339434088"><ele>11.0</ele><time>2026-04-09T14:04:23.999Z</time></trkpt><trkpt lat="37.683978778213806" lon="12.523372713645843"><ele>11.0</ele><time>2026-04-09T14:04:24.999Z</time></trkpt><trkpt lat="37.683904674884644" lon="12.523491466257894"><ele>11.0</ele><time>2026-04-09T14:04:25.999Z</time></trkpt><trkpt lat="37.68383408263023" lon="12.523611637327212"><ele>11.0</ele><time>2026-04-09T14:04:26.999Z</time></trkpt><trkpt lat="37.68376313076957" lon="12.52373379117568"><ele>10.75</ele><time>2026-04-09T14:04:27.999Z</time></trkpt><trkpt lat="37.68368896939553" lon="12.523863616626882"><ele>10.5</ele><time>2026-04-09T14:04:28.999Z</time></trkpt><trkpt lat="37.683619417037676" lon="12.523988502613618"><ele>10.25</ele><time>2026-04-09T14:04:29.999Z</time></trkpt><trkpt lat="37.683545853575374" lon="12.524112904572444"><ele>10.0</ele><time>2026-04-09T14:04:30.999Z</time></trkpt><trkpt lat="37.683478735909254" lon="12.52423552284677"><ele>9.75</ele><time>2026-04-09T14:04:31.999Z</time></trkpt><trkpt lat="37.68341373663682" lon="12.524361358983557"><ele>9.5</ele><time>2026-04-09T14:04:32.999Z</time></trkpt><trkpt lat="37.68334577916836" lon="12.524486520514413"><ele>9.25</ele><time>2026-04-09T14:04:33.999Z</time></trkpt><trkpt lat="37.6832766523635" lon="12.524609073172076"><ele>9.0</ele><time>2026-04-09T14:04:34.999Z</time></trkpt><trkpt lat="37.683210137951555" lon="12.524734535999016"><ele>8.75</ele><time>2026-04-09T14:04:35.999Z</time></trkpt><trkpt lat="37.68314066363479" lon="12.524861460756043"><ele>8.5</ele><time>2026-04-09T14:04:36.999Z</time></trkpt><trkpt lat="37.68307375097249" lon="12.524982384020955"><ele>8.25</ele><time>2026-04-09T14:04:37.999Z</time></trkpt><trkpt lat="37.6830082763958" lon="12.525104951654422"><ele>8.0</ele><time>2026-04-09T14:04:38.999Z</time></trkpt><trkpt lat="37.68294194619754" lon="12.525227122608422"><ele>8.0</ele><time>2026-04-09T14:04:39.999Z</time></trkpt><trkpt lat="37.68287705844635" lon="12.525347956102982"><ele>8.0</ele><time>2026-04-09T14:04:40.999Z</time></trkpt><trkpt lat="37.6828111168753" lon="12.52546880088702"><ele>8.0</ele><time>2026-04-09T14:04:41.999Z</time></trkpt><trkpt lat="37.682743580978446" lon="12.525592327365098"><ele>8.0</ele><time>2026-04-09T14:04:42.999Z</time></trkpt><trkpt lat="37.682675778442885" lon="12.525712251003643"><ele>8.0</ele><time>2026-04-09T14:04:43.999Z</time></trkpt><trkpt lat="37.682609047293745" lon="12.52583346645762"><ele>8.0</ele><time>2026-04-09T14:04:45Z</time></trkpt><trkpt lat="37.682541504699735" lon="12.525949170316963"><ele>8.0</ele><time>2026-04-09T14:04:46Z</time></trkpt><trkpt lat="37.68247391750917" lon="12.526066398143653"><ele>8.0</ele><time>2026-04-09T14:04:47Z</time></trkpt><trkpt lat="37.68240941116021" lon="12.526180340967327"><ele>8.4</ele><time>2026-04-09T14:04:48Z</time></trkpt><trkpt lat="37.68234648443143" lon="12.526294574573129"><ele>8.8</ele><time>2026-04-09T14:04:49Z</time></trkpt><trkpt lat="37.68228249797659" lon="12.52640663185861"><ele>9.2</ele><time>2026-04-09T14:04:50Z</time></trkpt><trkpt lat="37.68222047149862" lon="12.526518377176583"><ele>9.6</ele><time>2026-04-09T14:04:51Z</time></trkpt><trkpt lat="37.68216306908145" lon="12.526630872094767"><ele>10.0</ele><time>2026-04-09T14:04:52Z</time></trkpt><trkpt lat="37.6821030676353" lon="12.526738237676096"><ele>10.0</ele><time>2026-04-09T14:04:53Z</time></trkpt><trkpt lat="37.68204284792596" lon="12.52684853377426"><ele>10.0</ele><time>2026-04-09T14:04:54Z</time></trkpt><trkpt lat="37.68198189981778" lon="12.52695636571382"><ele>10.0</ele><time>2026-04-09T14:04:55Z</time></trkpt><trkpt lat="37.681920236817945" lon="12.527062885243259"><ele>10.0</ele><time>2026-04-09T14:04:56Z</time></trkpt><trkpt lat="37.68185512876465" lon="12.527166089324197"><ele>10.0</ele><time>2026-04-09T14:04:57Z</time></trkpt><trkpt lat="37.68179493633882" lon="12.527271418358398"><ele>10.8</ele><time>2026-04-09T14:04:58Z</time></trkpt><trkpt lat="37.68173259498884" lon="12.527382511298168"><ele>11.6</ele><time>2026-04-09T14:04:59Z</time></trkpt><trkpt lat="37.68167329895417" lon="12.527486108851074"><ele>12.399999999999999</ele><time>2026-04-09T14:05:00Z</time></trkpt><trkpt lat="37.68161211853188" lon="12.527593027568217"><ele>13.2</ele><time>2026-04-09T14:05:01Z</time></trkpt><trkpt lat="37.68155515816011" lon="12.527702284625914"><ele>14.0</ele><time>2026-04-09T14:05:02Z</time></trkpt><trkpt lat="37.68149895152062" lon="12.527812803740447"><ele>14.399999999999999</ele><time>2026-04-09T14:05:03Z</time></trkpt><trkpt lat="37.68143815831123" lon="12.527921178660003"><ele>14.799999999999999</ele><time>2026-04-09T14:05:04Z</time></trkpt><trkpt lat="37.681377711393566" lon="12.528027612427703"><ele>15.200000000000001</ele><time>2026-04-09T14:05:05Z</time></trkpt><trkpt lat="37.68131542648993" lon="12.528137279172672"><ele>15.600000000000001</ele><time>2026-04-09T14:05:06Z</time></trkpt><trkpt lat="37.6812519236804" lon="12.528246500327953"><ele>16.0</ele><time>2026-04-09T14:05:07Z</time></trkpt><trkpt lat="37.681190038459576" lon="12.528355948504002"><ele>16.0</ele><time>2026-04-09T14:05:08Z</time></trkpt><trkpt lat="37.68112774179173" lon="12.528466678916432"><ele>16.0</ele><time>2026-04-09T14:05:09Z</time></trkpt><trkpt lat="37.68106735950171" lon="12.52858046682646"><ele>16.0</ele><time>2026-04-09T14:05:10Z</time></trkpt><trkpt lat="37.68100170779794" lon="12.528693176692254"><ele>16.0</ele><time>2026-04-09T14:05:11Z</time></trkpt><trkpt lat="37.680935274821906" lon="12.528803804266012"><ele>16.0</ele><time>2026-04-09T14:05:12Z</time></trkpt><trkpt lat="37.68087187253758" lon="12.528915230947696"><ele>16.0</ele><time>2026-04-09T14:05:13Z</time></trkpt><trkpt lat="37.68080809053381" lon="12.529028549723925"><ele>16.0</ele><time>2026-04-09T14:05:14Z</time></trkpt><trkpt lat="37.680745331831346" lon="12.529144284143095"><ele>16.0</ele><time>2026-04-09T14:05:15Z</time></trkpt><trkpt lat="37.680684965561575" lon="12.529258872231926"><ele>16.0</ele><time>2026-04-09T14:05:16Z</time></trkpt><trkpt lat="37.680622905203" lon="12.529373167417276"><ele>16.0</ele><time>2026-04-09T14:05:17Z</time></trkpt><trkpt lat="37.68056035837394" lon="12.529486965852552"><ele>16.0</ele><time>2026-04-09T14:05:18Z</time></trkpt><trkpt lat="37.68049602555684" lon="12.529600270805068"><ele>16.0</ele><time>2026-04-09T14:05:19Z</time></trkpt><trkpt lat="37.6804296540407" lon="12.529711079158982"><ele>16.0</ele><time>2026-04-09T14:05:20Z</time></trkpt><trkpt lat="37.68036425545328" lon="12.529822857576608"><ele>16.0</ele><time>2026-04-09T14:05:21Z</time></trkpt><trkpt lat="37.680301016112466" lon="12.52993798672552"><ele>16.0</ele><time>2026-04-09T14:05:22Z</time></trkpt><trkpt lat="37.680238036617546" lon="12.530054387026835"><ele>16.0</ele><time>2026-04-09T14:05:23Z</time></trkpt><trkpt lat="37.68017184536073" lon="12.530169596860198"><ele>16.0</ele><time>2026-04-09T14:05:24Z</time></trkpt><trkpt lat="37.680107043345664" lon="12.53028476513859"><ele>16.0</ele><time>2026-04-09T14:05:25Z</time></trkpt><trkpt lat="37.68004649777913" lon="12.53040100141907"><ele>16.0</ele><time>2026-04-09T14:05:26Z</time></trkpt><trkpt lat="37.679983590711274" lon="12.530517226824331"><ele>16.0</ele><time>2026-04-09T14:05:27Z</time></trkpt><trkpt lat="37.679916372782294" lon="12.530631295504373"><ele>16.6</ele><time>2026-04-09T14:05:28Z</time></trkpt><trkpt lat="37.67984676936795" lon="12.530741336092724"><ele>17.200000000000003</ele><time>2026-04-09T14:05:29Z</time></trkpt><trkpt lat="37.67977771548418" lon="12.53085111324478"><ele>17.799999999999997</ele><time>2026-04-09T14:05:30Z</time></trkpt><trkpt lat="37.67971054730296" lon="12.530965827995558"><ele>18.4</ele><time>2026-04-09T14:05:31Z</time></trkpt><trkpt lat="37.67964625280683" lon="12.531082770668489"><ele>19.0</ele><time>2026-04-09T14:05:32Z</time></trkpt><trkpt lat="37.67958126711919" lon="12.531198055303078"><ele>18.5</ele><time>2026-04-09T14:05:33Z</time></trkpt><trkpt lat="37.67950978439542" lon="12.53130995244372"><ele>18.0</ele><time>2026-04-09T14:05:34Z</time></trkpt><trkpt lat="37.67944209410334" lon="12.531426229356525"><ele>17.5</ele><time>2026-04-09T14:05:35Z</time></trkpt><trkpt lat="37.679372870674946" lon="12.531543105343225"><ele>17.0</ele><time>2026-04-09T14:05:35.999Z</time></trkpt><trkpt lat="37.679309285603935" lon="12.53166461208564"><ele>17.0</ele><time>2026-04-09T14:05:36.999Z</time></trkpt><trkpt lat="37.67923793154079" lon="12.531784182339349"><ele>17.0</ele><time>2026-04-09T14:05:37.999Z</time></trkpt><trkpt lat="37.6791709872182" lon="12.531903142721912"><ele>17.0</ele><time>2026-04-09T14:05:38.999Z</time></trkpt><trkpt lat="37.679101765131385" lon="12.53201987770643"><ele>17.0</ele><time>2026-04-09T14:05:39.999Z</time></trkpt><trkpt lat="37.67903574072967" lon="12.532142691731845"><ele>17.0</ele><time>2026-04-09T14:05:40.999Z</time></trkpt><trkpt lat="37.67896690953202" lon="12.532264576875098"><ele>17.0</ele><time>2026-04-09T14:05:41.999Z</time></trkpt><trkpt lat="37.678899447312205" lon="12.532385208127717"><ele>17.0</ele><time>2026-04-09T14:05:42.999Z</time></trkpt><trkpt lat="37.678836222911514" lon="12.532504031299721"><ele>17.0</ele><time>2026-04-09T14:05:43.999Z</time></trkpt><trkpt lat="37.67876852052243" lon="12.532625650244631"><ele>17.0</ele><time>2026-04-09T14:05:44.999Z</time></trkpt><trkpt lat="37.678697342799275" lon="12.532747868902668"><ele>17.0</ele><time>2026-04-09T14:05:45.999Z</time></trkpt><trkpt lat="37.67862940420043" lon="12.53286774780757"><ele>17.0</ele><time>2026-04-09T14:05:46.999Z</time></trkpt><trkpt lat="37.67856253111757" lon="12.532988758161547"><ele>17.0</ele><time>2026-04-09T14:05:47.999Z</time></trkpt><trkpt lat="37.67849432227184" lon="12.533110237662367"><ele>16.5</ele><time>2026-04-09T14:05:48.999Z</time></trkpt><trkpt lat="37.67842853234452" lon="12.533233057844473"><ele>16.0</ele><time>2026-04-09T14:05:49.999Z</time></trkpt><trkpt lat="37.67835907506851" lon="12.53335912603342"><ele>15.5</ele><time>2026-04-09T14:05:50.999Z</time></trkpt><trkpt lat="37.67828905412677" lon="12.53348382328469"><ele>15.0</ele><time>2026-04-09T14:05:51.999Z</time></trkpt><trkpt lat="37.67821838103293" lon="12.533609286027826"><ele>15.25</ele><time>2026-04-09T14:05:52.999Z</time></trkpt><trkpt lat="37.678148052318846" lon="12.533735861912604"><ele>15.5</ele><time>2026-04-09T14:05:53.999Z</time></trkpt><trkpt lat="37.67807375455426" lon="12.53386028082249"><ele>15.75</ele><time>2026-04-09T14:05:54.999Z</time></trkpt><trkpt lat="37.67800045446928" lon="12.533984603761407"><ele>16.0</ele><time>2026-04-09T14:05:55.999Z</time></trkpt><trkpt lat="37.6779319468817" lon="12.534108768036717"><ele>16.0</ele><time>2026-04-09T14:05:56.999Z</time></trkpt><trkpt lat="37.677859573073505" lon="12.534233721025466"><ele>16.0</ele><time>2026-04-09T14:05:57.999Z</time></trkpt><trkpt lat="37.677786456578744" lon="12.534359644304827"><ele>16.0</ele><time>2026-04-09T14:05:58.999Z</time></trkpt><trkpt lat="37.67771589793774" lon="12.534485003385875"><ele>16.0</ele><time>2026-04-09T14:05:59.999Z</time></trkpt><trkpt lat="37.67764279518996" lon="12.534609977805117"><ele>15.25</ele><time>2026-04-09T14:06:00.999Z</time></trkpt><trkpt lat="37.67757193313174" lon="12.534734742440987"><ele>14.5</ele><time>2026-04-09T14:06:01.999Z</time></trkpt><trkpt lat="37.67750460143582" lon="12.534855166821732"><ele>13.75</ele><time>2026-04-09T14:06:02.999Z</time></trkpt><trkpt lat="37.67743508492256" lon="12.534981257288106"><ele>13.0</ele><time>2026-04-09T14:06:03.999Z</time></trkpt><trkpt lat="37.67736446191198" lon="12.535107189888736"><ele>13.0</ele><time>2026-04-09T14:06:04.999Z</time></trkpt><trkpt lat="37.677292053016004" lon="12.535230429667967"><ele>13.0</ele><time>2026-04-09T14:06:05.999Z</time></trkpt><trkpt lat="37.67722243390551" lon="12.535356341061329"><ele>13.0</ele><time>2026-04-09T14:06:06.999Z</time></trkpt><trkpt lat="37.67715091284643" lon="12.53547875461551"><ele>13.0</ele><time>2026-04-09T14:06:07.999Z</time></trkpt><trkpt lat="37.67708165677703" lon="12.53560265620061"><ele>13.0</ele><time>2026-04-09T14:06:08.999Z</time></trkpt><trkpt lat="37.67700744587913" lon="12.535724787089709"><ele>13.0</ele><time>2026-04-09T14:06:09.999Z</time></trkpt><trkpt lat="37.67694296470276" lon="12.53582264402115"><ele>13.0</ele><time>2026-04-09T14:06:10.999Z</time></trkpt><trkpt lat="37.67687201696611" lon="12.535947516607845"><ele>13.0</ele><time>2026-04-09T14:06:11.999Z</time></trkpt><trkpt lat="37.6767961579975" lon="12.536081033272866"><ele>13.0</ele><time>2026-04-09T14:06:12.999Z</time></trkpt><trkpt lat="37.67672665476457" lon="12.536205754866044"><ele>13.0</ele><time>2026-04-09T14:06:13.999Z</time></trkpt><trkpt lat="37.67665937384401" lon="12.536326379403388"><ele>13.0</ele><time>2026-04-09T14:06:14.999Z</time></trkpt><trkpt lat="37.676590122719006" lon="12.53645053621494"><ele>13.0</ele><time>2026-04-09T14:06:15.999Z</time></trkpt><trkpt lat="37.67652228694625" lon="12.536572155515506"><ele>13.0</ele><time>2026-04-09T14:06:16.999Z</time></trkpt><trkpt lat="37.67645603923234" lon="12.536690927667962"><ele>13.0</ele><time>2026-04-09T14:06:17.999Z</time></trkpt><trkpt lat="37.67638792729618" lon="12.536811778592085"><ele>13.0</ele><time>2026-04-09T14:06:18.999Z</time></trkpt><trkpt lat="37.67631570699409" lon="12.536939718763556"><ele>13.0</ele><time>2026-04-09T14:06:19.999Z</time></trkpt><trkpt lat="37.67624821442244" lon="12.537059283640447"><ele>13.0</ele><time>2026-04-09T14:06:20.999Z</time></trkpt><trkpt lat="37.67617900328152" lon="12.537181893003915"><ele>13.0</ele><time>2026-04-09T14:06:21.999Z</time></trkpt><trkpt lat="37.676112302608914" lon="12.53730005500765"><ele>13.0</ele><time>2026-04-09T14:06:22.999Z</time></trkpt><trkpt lat="37.67604478531323" lon="12.537419663683137"><ele>13.0</ele><time>2026-04-09T14:06:23.999Z</time></trkpt><trkpt lat="37.67597668959982" lon="12.537540945507418"><ele>13.0</ele><time>2026-04-09T14:06:24.999Z</time></trkpt><trkpt lat="37.67590919095247" lon="12.53766123047376"><ele>13.0</ele><time>2026-04-09T14:06:25.999Z</time></trkpt><trkpt lat="37.67584032601205" lon="12.537783950217493"><ele>13.0</ele><time>2026-04-09T14:06:26.999Z</time></trkpt><trkpt lat="37.675773235769526" lon="12.537903507392206"><ele>13.0</ele><time>2026-04-09T14:06:27.999Z</time></trkpt><trkpt lat="37.67570690376647" lon="12.538021903092528"><ele>12.75</ele><time>2026-04-09T14:06:28.999Z</time></trkpt><trkpt lat="37.67563988186947" lon="12.538142312059108"><ele>12.5</ele><time>2026-04-09T14:06:29.999Z</time></trkpt><trkpt lat="37.6755813764281" lon="12.538275676859787"><ele>12.25</ele><time>2026-04-09T14:06:30.999Z</time></trkpt><trkpt lat="37.67551438149045" lon="12.538396915150612"><ele>12.0</ele><time>2026-04-09T14:06:31.999Z</time></trkpt><trkpt lat="37.675444169466914" lon="12.538512255164367"><ele>12.0</ele><time>2026-04-09T14:06:32.999Z</time></trkpt><trkpt lat="37.67537534330262" lon="12.538620851371167"><ele>12.0</ele><time>2026-04-09T14:06:33.999Z</time></trkpt><trkpt lat="37.67531610297319" lon="12.538720042261325"><ele>12.0</ele><time>2026-04-09T14:06:34.999Z</time></trkpt><trkpt lat="37.67525565016189" lon="12.53882673017593"><ele>12.0</ele><time>2026-04-09T14:06:35.999Z</time></trkpt><trkpt lat="37.67520133148413" lon="12.538935366881596"><ele>12.0</ele><time>2026-04-09T14:06:36.999Z</time></trkpt><trkpt lat="37.67514836789324" lon="12.539037409380526"><ele>11.8</ele><time>2026-04-09T14:06:37.999Z</time></trkpt><trkpt lat="37.675094109534065" lon="12.539137349857608"><ele>11.6</ele><time>2026-04-09T14:06:38.999Z</time></trkpt><trkpt lat="37.67504347928999" lon="12.539233563363624"><ele>11.4</ele><time>2026-04-09T14:06:39.999Z</time></trkpt><trkpt lat="37.67498607013513" lon="12.539331978814674"><ele>11.200000000000001</ele><time>2026-04-09T14:06:40.999Z</time></trkpt><trkpt lat="37.674916607846264" lon="12.53943165933433"><ele>11.0</ele><time>2026-04-09T14:06:41.999Z</time></trkpt><trkpt lat="37.67485166289794" lon="12.539540020581558"><ele>11.4</ele><time>2026-04-09T14:06:42.999Z</time></trkpt><trkpt lat="37.674806302021445" lon="12.539658205791673"><ele>11.8</ele><time>2026-04-09T14:06:43.999Z</time></trkpt><trkpt lat="37.67473690553095" lon="12.539765441885907"><ele>12.200000000000001</ele><time>2026-04-09T14:06:44.999Z</time></trkpt><trkpt lat="37.67466311811241" lon="12.539868020493397"><ele>12.600000000000001</ele><time>2026-04-09T14:06:45.999Z</time></trkpt><trkpt lat="37.67460855365211" lon="12.53999196344396"><ele>13.0</ele><time>2026-04-09T14:06:46.999Z</time></trkpt><trkpt lat="37.6745373366159" lon="12.54010101275981"><ele>13.0</ele><time>2026-04-09T14:06:47.999Z</time></trkpt><trkpt lat="37.67447944581444" lon="12.540224094997736"><ele>13.0</ele><time>2026-04-09T14:06:48.999Z</time></trkpt><trkpt lat="37.67441021178409" lon="12.540339435887551"><ele>13.0</ele><time>2026-04-09T14:06:49.999Z</time></trkpt><trkpt lat="37.674349900144236" lon="12.540446946385444"><ele>13.0</ele><time>2026-04-09T14:06:51Z</time></trkpt><trkpt lat="37.67429357342187" lon="12.540565264940746"><ele>13.0</ele><time>2026-04-09T14:06:52Z</time></trkpt><trkpt lat="37.67423033138196" lon="12.540678704869265"><ele>12.999999999999998</ele><time>2026-04-09T14:06:53Z</time></trkpt><trkpt lat="37.67416856805545" lon="12.540783360916722"><ele>13.0</ele><time>2026-04-09T14:06:54Z</time></trkpt><trkpt lat="37.67410675154301" lon="12.540875756786214"><ele>13.0</ele><time>2026-04-09T14:06:55Z</time></trkpt><trkpt lat="37.67406087874669" lon="12.540939192044469"><ele>13.0</ele><time>2026-04-09T14:06:56Z</time></trkpt><trkpt lat="37.67401364241389" lon="12.541002228584183"><ele>12.999999999999998</ele><time>2026-04-09T14:06:58Z</time></trkpt><trkpt lat="37.673946998997735" lon="12.541054123089907"><ele>13.0</ele><time>2026-04-09T14:07:00Z</time></trkpt><trkpt lat="37.673829305851406" lon="12.54089623866599"><ele>12.999999999999998</ele><time>2026-04-09T14:07:02Z</time></trkpt><trkpt lat="37.673759157733194" lon="12.540853961568727"><ele>13.0</ele><time>2026-04-09T14:07:03Z</time></trkpt><trkpt lat="37.673702787234156" lon="12.540788592513698"><ele>13.0</ele><time>2026-04-09T14:07:04Z</time></trkpt><trkpt lat="37.67363724913314" lon="12.540732159377281"><ele>13.0</ele><time>2026-04-09T14:07:05Z</time></trkpt><trkpt lat="37.67356939143879" lon="12.540673975829206"><ele>12.999999999999998</ele><time>2026-04-09T14:07:06Z</time></trkpt><trkpt lat="37.67350529954737" lon="12.540612686351182"><ele>13.0</ele><time>2026-04-09T14:07:07Z</time></trkpt><trkpt lat="37.67343428488174" lon="12.540548156535785"><ele>13.0</ele><time>2026-04-09T14:07:08Z</time></trkpt><trkpt lat="37.673364397361595" lon="12.540482955531798"><ele>13.0</ele><time>2026-04-09T14:07:09Z</time></trkpt><trkpt lat="37.67329029185294" lon="12.540415305737707"><ele>13.0</ele><time>2026-04-09T14:07:10Z</time></trkpt><trkpt lat="37.67321670986235" lon="12.540347366991504"><ele>13.0</ele><time>2026-04-09T14:07:11Z</time></trkpt><trkpt lat="37.67314024395954" lon="12.54028235998423"><ele>13.0</ele><time>2026-04-09T14:07:12Z</time></trkpt><trkpt lat="37.673060823862215" lon="12.5402151999561"><ele>13.0</ele><time>2026-04-09T14:07:13Z</time></trkpt><trkpt lat="37.67298760329195" lon="12.540136794539164"><ele>13.0</ele><time>2026-04-09T14:07:14Z</time></trkpt><trkpt lat="37.672908058710746" lon="12.54006575251534"><ele>13.0</ele><time>2026-04-09T14:07:15Z</time></trkpt><trkpt lat="37.672816681214435" lon="12.539971810206804"><ele>13.0</ele><time>2026-04-09T14:07:16Z</time></trkpt><trkpt lat="37.67274869578113" lon="12.539910023882154"><ele>13.0</ele><time>2026-04-09T14:07:17Z</time></trkpt><trkpt lat="37.67267339575959" lon="12.539841589931829"><ele>13.0</ele><time>2026-04-09T14:07:18Z</time></trkpt><trkpt lat="37.67259478251751" lon="12.53977014487161"><ele>13.0</ele><time>2026-04-09T14:07:19Z</time></trkpt><trkpt lat="37.672518302901494" lon="12.53970063888666"><ele>13.0</ele><time>2026-04-09T14:07:20Z</time></trkpt><trkpt lat="37.67243640556144" lon="12.539643351936057"><ele>13.0</ele><time>2026-04-09T14:07:21Z</time></trkpt><trkpt lat="37.67236187392145" lon="12.539573194555311"><ele>13.0</ele><time>2026-04-09T14:07:22Z</time></trkpt><trkpt lat="37.6722841380003" lon="12.53950507330184"><ele>12.8</ele><time>2026-04-09T14:07:23Z</time></trkpt><trkpt lat="37.67220776605069" lon="12.53943361062498"><ele>12.600000000000001</ele><time>2026-04-09T14:07:24Z</time></trkpt><trkpt lat="37.67212949001459" lon="12.539362336466022"><ele>12.399999999999999</ele><time>2026-04-09T14:07:25Z</time></trkpt><trkpt lat="37.67205090997845" lon="12.539292566986493"><ele>12.2</ele><time>2026-04-09T14:07:26Z</time></trkpt><trkpt lat="37.67198035085582" lon="12.539208955283772"><ele>12.0</ele><time>2026-04-09T14:07:27Z</time></trkpt><trkpt lat="37.671904766549694" lon="12.53914264318668"><ele>12.0</ele><time>2026-04-09T14:07:28Z</time></trkpt><trkpt lat="37.671825318736225" lon="12.539073504261694"><ele>12.0</ele><time>2026-04-09T14:07:29Z</time></trkpt><trkpt lat="37.67174917981032" lon="12.539013765336556"><ele>12.0</ele><time>2026-04-09T14:07:30Z</time></trkpt><trkpt lat="37.671674610907736" lon="12.538953376996949"><ele>12.0</ele><time>2026-04-09T14:07:31Z</time></trkpt><trkpt lat="37.67159678691961" lon="12.538888244424058"><ele>12.0</ele><time>2026-04-09T14:07:32Z</time></trkpt><trkpt lat="37.67152072825913" lon="12.538819127795907"><ele>12.0</ele><time>2026-04-09T14:07:33Z</time></trkpt><trkpt lat="37.67144242844478" lon="12.538749044548505"><ele>12.0</ele><time>2026-04-09T14:07:34Z</time></trkpt><trkpt lat="37.67136247797987" lon="12.53868180451169"><ele>12.0</ele><time>2026-04-09T14:07:35Z</time></trkpt><trkpt lat="37.67127721192897" lon="12.538615151393204"><ele>12.0</ele><time>2026-04-09T14:07:36Z</time></trkpt><trkpt lat="37.67119737670307" lon="12.538544762014322"><ele>12.0</ele><time>2026-04-09T14:07:37Z</time></trkpt><trkpt lat="37.671117558700686" lon="12.538470678834374"><ele>12.0</ele><time>2026-04-09T14:07:38Z</time></trkpt><trkpt lat="37.67103125373328" lon="12.538391961353534"><ele>12.0</ele><time>2026-04-09T14:07:39Z</time></trkpt><trkpt lat="37.67094407999767" lon="12.538319287799158"><ele>12.0</ele><time>2026-04-09T14:07:40Z</time></trkpt><trkpt lat="37.670860379165504" lon="12.53824454002157"><ele>12.0</ele><time>2026-04-09T14:07:41Z</time></trkpt><trkpt lat="37.670783921859076" lon="12.538154036152923"><ele>12.0</ele><time>2026-04-09T14:07:42Z</time></trkpt><trkpt lat="37.67069739994126" lon="12.538074672153684"><ele>12.0</ele><time>2026-04-09T14:07:43Z</time></trkpt><trkpt lat="37.670610494388136" lon="12.537994622373372"><ele>12.0</ele><time>2026-04-09T14:07:44Z</time></trkpt><trkpt lat="37.670525052108054" lon="12.537919117173814"><ele>12.0</ele><time>2026-04-09T14:07:45Z</time></trkpt><trkpt lat="37.67042789407648" lon="12.537850790311731"><ele>12.0</ele><time>2026-04-09T14:07:46Z</time></trkpt><trkpt lat="37.670338404071046" lon="12.537768256881213"><ele>12.0</ele><time>2026-04-09T14:07:47Z</time></trkpt><trkpt lat="37.67025059030829" lon="12.537682597275332"><ele>11.4</ele><time>2026-04-09T14:07:48Z</time></trkpt><trkpt lat="37.67015908814247" lon="12.537597390834387"><ele>10.799999999999999</ele><time>2026-04-09T14:07:49Z</time></trkpt><trkpt lat="37.670066121435255" lon="12.53752619264833"><ele>10.2</ele><time>2026-04-09T14:07:49.999Z</time></trkpt><trkpt lat="37.67000484537989" lon="12.537430541633334"><ele>9.6</ele><time>2026-04-09T14:07:50.999Z</time></trkpt><trkpt lat="37.669888079740154" lon="12.537361300245374"><ele>9.0</ele><time>2026-04-09T14:07:51.999Z</time></trkpt><trkpt lat="37.66979940618029" lon="12.53727610207291"><ele>9.0</ele><time>2026-04-09T14:07:52.999Z</time></trkpt><trkpt lat="37.66970979474485" lon="12.537193410915751"><ele>9.0</ele><time>2026-04-09T14:07:53.999Z</time></trkpt><trkpt lat="37.669624221560845" lon="12.53710990089976"><ele>9.0</ele><time>2026-04-09T14:07:54.999Z</time></trkpt><trkpt lat="37.66953194380312" lon="12.53702883757111"><ele>9.0</ele><time>2026-04-09T14:07:55.999Z</time></trkpt><trkpt lat="37.66944894552895" lon="12.536931760212877"><ele>9.0</ele><time>2026-04-09T14:07:56.999Z</time></trkpt><trkpt lat="37.66935781618759" lon="12.536845078131059"><ele>8.5</ele><time>2026-04-09T14:07:57.999Z</time></trkpt><trkpt lat="37.66926143817449" lon="12.536777183598268"><ele>8.0</ele><time>2026-04-09T14:07:58.999Z</time></trkpt><trkpt lat="37.6691727766933" lon="12.536687659411182"><ele>7.5</ele><time>2026-04-09T14:07:59.999Z</time></trkpt><trkpt lat="37.66908084319096" lon="12.536602416388458"><ele>7.0</ele><time>2026-04-09T14:08:00.999Z</time></trkpt><trkpt lat="37.66899243714366" lon="12.536514795831291"><ele>7.0</ele><time>2026-04-09T14:08:01.999Z</time></trkpt><trkpt lat="37.668899643533116" lon="12.536431719710185"><ele>7.0</ele><time>2026-04-09T14:08:02.999Z</time></trkpt><trkpt lat="37.66880435827381" lon="12.536350667754808"><ele>7.0</ele><time>2026-04-09T14:08:03.999Z</time></trkpt><trkpt lat="37.66870896974347" lon="12.536274597713174"><ele>7.0</ele><time>2026-04-09T14:08:04.999Z</time></trkpt><trkpt lat="37.66861939858911" lon="12.53618985611714"><ele>6.833333333333334</ele><time>2026-04-09T14:08:05.999Z</time></trkpt><trkpt lat="37.66853849647946" lon="12.53610378282268"><ele>6.666666666666667</ele><time>2026-04-09T14:08:06.999Z</time></trkpt><trkpt lat="37.668450544776114" lon="12.536046757859832"><ele>6.5</ele><time>2026-04-09T14:08:07.999Z</time></trkpt><trkpt lat="37.668372590162704" lon="12.535976381481225"><ele>6.333333333333334</ele><time>2026-04-09T14:08:08.999Z</time></trkpt><trkpt lat="37.66830634866073" lon="12.53591765591648"><ele>6.166666666666667</ele><time>2026-04-09T14:08:09.999Z</time></trkpt><trkpt lat="37.66825182141181" lon="12.535872584537115"><ele>6.0</ele><time>2026-04-09T14:08:10.999Z</time></trkpt><trkpt lat="37.66819093468559" lon="12.535829137558697"><ele>6.0</ele><time>2026-04-09T14:08:13.999Z</time></trkpt><trkpt lat="37.668149240262906" lon="12.535767213269397"><ele>6.0</ele><time>2026-04-09T14:08:15.999Z</time></trkpt><trkpt lat="37.66806223624194" lon="12.535708929665223"><ele>6.0</ele><time>2026-04-09T14:08:17.999Z</time></trkpt><trkpt lat="37.66797400825409" lon="12.535618418889863"><ele>6.0</ele><time>2026-04-09T14:08:19.999Z</time></trkpt><trkpt lat="37.66791964018127" lon="12.535576874769779"><ele>6.0</ele><time>2026-04-09T14:08:20.999Z</time></trkpt><trkpt lat="37.66787328924377" lon="12.535514128389552"><ele>6.0</ele><time>2026-04-09T14:08:21.999Z</time></trkpt><trkpt lat="37.66781403320123" lon="12.53546086298922"><ele>6.142857142857142</ele><time>2026-04-09T14:08:22.999Z</time></trkpt><trkpt lat="37.66776247049966" lon="12.535414513165945"><ele>6.285714285714286</ele><time>2026-04-09T14:08:23.999Z</time></trkpt><trkpt lat="37.66770436589246" lon="12.535361634154903"><ele>6.428571428571429</ele><time>2026-04-09T14:08:24.999Z</time></trkpt><trkpt lat="37.667644310411276" lon="12.535305994059314"><ele>6.571428571428571</ele><time>2026-04-09T14:08:25.999Z</time></trkpt><trkpt lat="37.667584073352195" lon="12.535250185724067"><ele>6.714285714285714</ele><time>2026-04-09T14:08:26.999Z</time></trkpt><trkpt lat="37.66752247653616" lon="12.535193117609824"><ele>6.857142857142857</ele><time>2026-04-09T14:08:27.999Z</time></trkpt><trkpt lat="37.667448281010834" lon="12.5351496894803"><ele>7.0</ele><time>2026-04-09T14:08:28.999Z</time></trkpt><trkpt lat="37.66738624728612" lon="12.535076019938677"><ele>7.0</ele><time>2026-04-09T14:08:29.999Z</time></trkpt><trkpt lat="37.667311696274126" lon="12.535021062707987"><ele>6.999999999999999</ele><time>2026-04-09T14:08:30.999Z</time></trkpt><trkpt lat="37.66724857620464" lon="12.534942325017008"><ele>6.999999999999999</ele><time>2026-04-09T14:08:31.999Z</time></trkpt><trkpt lat="37.667165230333055" lon="12.534867656260666"><ele>7.0</ele><time>2026-04-09T14:08:32.999Z</time></trkpt><trkpt lat="37.66709014763591" lon="12.534823168954768"><ele>7.0</ele><time>2026-04-09T14:08:33.999Z</time></trkpt><trkpt lat="37.66701588164294" lon="12.534749706552345"><ele>6.8</ele><time>2026-04-09T14:08:34.999Z</time></trkpt><trkpt lat="37.666934162384756" lon="12.534684223079562"><ele>6.6</ele><time>2026-04-09T14:08:35.999Z</time></trkpt><trkpt lat="37.66685610829855" lon="12.53460820024002"><ele>6.3999999999999995</ele><time>2026-04-09T14:08:36.999Z</time></trkpt><trkpt lat="37.66677487649851" lon="12.534535879908692"><ele>6.199999999999999</ele><time>2026-04-09T14:08:37.999Z</time></trkpt><trkpt lat="37.66668722483506" lon="12.534468787695088"><ele>6.0</ele><time>2026-04-09T14:08:38.999Z</time></trkpt><trkpt lat="37.666603314415916" lon="12.534392036052964"><ele>6.0</ele><time>2026-04-09T14:08:39.999Z</time></trkpt><trkpt lat="37.66651559659575" lon="12.534317164208758"><ele>6.0</ele><time>2026-04-09T14:08:40.999Z</time></trkpt><trkpt lat="37.66642986146314" lon="12.53424704862799"><ele>6.0</ele><time>2026-04-09T14:08:41.999Z</time></trkpt><trkpt lat="37.66635246871195" lon="12.534181194317435"><ele>6.0</ele><time>2026-04-09T14:08:42.999Z</time></trkpt><trkpt lat="37.66629664184056" lon="12.534131047510833"><ele>6.0</ele><time>2026-04-09T14:08:43.999Z</time></trkpt><trkpt lat="37.66621551190647" lon="12.534055010980012"><ele>6.0</ele><time>2026-04-09T14:08:45.999Z</time></trkpt><trkpt lat="37.666132165762136" lon="12.534011115094303"><ele>6.0</ele><time>2026-04-09T14:08:47.999Z</time></trkpt><trkpt lat="37.66606929462907" lon="12.534037152574633"><ele>6.0</ele><time>2026-04-09T14:08:48.999Z</time></trkpt><trkpt lat="37.66601336176958" lon="12.534109641988604"><ele>6.0</ele><time>2026-04-09T14:08:49.999Z</time></trkpt><trkpt lat="37.66598249081641" lon="12.534202676953962"><ele>6.0</ele><time>2026-04-09T14:08:50.999Z</time></trkpt><trkpt lat="37.66594246482376" lon="12.534284452584222"><ele>6.0</ele><time>2026-04-09T14:08:51.999Z</time></trkpt><trkpt lat="37.66590183803472" lon="12.534366491996895"><ele>6.199999999999999</ele><time>2026-04-09T14:08:52.999Z</time></trkpt><trkpt lat="37.66585694109754" lon="12.53445772925454"><ele>6.3999999999999995</ele><time>2026-04-09T14:08:53.999Z</time></trkpt><trkpt lat="37.66582912814087" lon="12.534567074029251"><ele>6.6</ele><time>2026-04-09T14:08:54.999Z</time></trkpt><trkpt lat="37.66579198776759" lon="12.534666128769365"><ele>6.8</ele><time>2026-04-09T14:08:55.999Z</time></trkpt><trkpt lat="37.66575140268499" lon="12.534771495361921"><ele>7.0</ele><time>2026-04-09T14:08:57Z</time></trkpt><trkpt lat="37.66569583829434" lon="12.534868015739438"><ele>7.000000000000001</ele><time>2026-04-09T14:08:58Z</time></trkpt><trkpt lat="37.665639628260365" lon="12.534967262398034"><ele>7.0</ele><time>2026-04-09T14:08:59Z</time></trkpt><trkpt lat="37.66557790442416" lon="12.535067279348524"><ele>7.0</ele><time>2026-04-09T14:09:00Z</time></trkpt><trkpt lat="37.665525339606795" lon="12.53516219558793"><ele>7.0</ele><time>2026-04-09T14:09:01Z</time></trkpt><trkpt lat="37.66550287322695" lon="12.535242228597335"><ele>7.000000000000001</ele><time>2026-04-09T14:09:02Z</time></trkpt><trkpt lat="37.66548424611354" lon="12.53533876625912"><ele>7.0</ele><time>2026-04-09T14:09:04Z</time></trkpt><trkpt lat="37.665421132476865" lon="12.535392891682754"><ele>7.0</ele><time>2026-04-09T14:09:06Z</time></trkpt><trkpt lat="37.66537003060261" lon="12.535336491819036"><ele>6.999999999999999</ele><time>2026-04-09T14:09:08Z</time></trkpt><trkpt lat="37.66529087062074" lon="12.53522266975987"><ele>6.999999999999999</ele><time>2026-04-09T14:09:10Z</time></trkpt><trkpt lat="37.665197546720606" lon="12.535153592253454"><ele>7.0</ele><time>2026-04-09T14:09:12Z</time></trkpt><trkpt lat="37.6651167100529" lon="12.535063705782347"><ele>7.0</ele><time>2026-04-09T14:09:14Z</time></trkpt><trkpt lat="37.66503438476085" lon="12.534998499070106"><ele>6.333333333333334</ele><time>2026-04-09T14:09:16Z</time></trkpt><trkpt lat="37.664943114397154" lon="12.53495413238621"><ele>5.666666666666667</ele><time>2026-04-09T14:09:18Z</time></trkpt><trkpt lat="37.664874307246805" lon="12.534875232279786"><ele>5.0</ele><time>2026-04-09T14:09:20Z</time></trkpt><trkpt lat="37.66480669650082" lon="12.534804046148507"><ele>4.333333333333334</ele><time>2026-04-09T14:09:22Z</time></trkpt><trkpt lat="37.664749938958344" lon="12.534727813531996"><ele>3.666666666666667</ele><time>2026-04-09T14:09:24Z</time></trkpt><trkpt lat="37.664671236692215" lon="12.534679012493191"><ele>3.0</ele><time>2026-04-09T14:09:26Z</time></trkpt><trkpt lat="37.66460872583952" lon="12.53461537830562"><ele>3.0</ele><time>2026-04-09T14:09:28Z</time></trkpt><trkpt lat="37.664538426756366" lon="12.53456555370725"><ele>3.0</ele><time>2026-04-09T14:09:30Z</time></trkpt><trkpt lat="37.66449155827397" lon="12.534509250918537"><ele>3.0</ele><time>2026-04-09T14:09:32Z</time></trkpt><trkpt lat="37.66442662080242" lon="12.534467342776464"><ele>3.0</ele><time>2026-04-09T14:09:34Z</time></trkpt><trkpt lat="37.664368435021956" lon="12.53441848162044"><ele>3.0</ele><time>2026-04-09T14:09:36Z</time></trkpt><trkpt lat="37.66430119511961" lon="12.534361283989496"><ele>3.0</ele><time>2026-04-09T14:09:38Z</time></trkpt><trkpt lat="37.664231097432896" lon="12.53430457554198"><ele>2.8333333333333335</ele><time>2026-04-09T14:09:40Z</time></trkpt><trkpt lat="37.66416666609336" lon="12.534247134421095"><ele>2.6666666666666665</ele><time>2026-04-09T14:09:42Z</time></trkpt><trkpt lat="37.66408623353935" lon="12.53423072644808"><ele>2.5</ele><time>2026-04-09T14:09:44Z</time></trkpt><trkpt lat="37.66402668828136" lon="12.534154871509525"><ele>2.333333333333333</ele><time>2026-04-09T14:09:47Z</time></trkpt><trkpt lat="37.663959031683554" lon="12.534134844361116"><ele>2.1666666666666665</ele><time>2026-04-09T14:09:50Z</time></trkpt><trkpt lat="37.66388975244615" lon="12.534161431392478"><ele>2.0</ele><time>2026-04-09T14:09:53Z</time></trkpt><trkpt lat="37.66382196281775" lon="12.534094288831584"><ele>1.9999999999999998</ele><time>2026-04-09T14:09:56Z</time></trkpt><trkpt lat="37.663819955283266" lon="12.533992036017624"><ele>2.0</ele><time>2026-04-09T14:09:58Z</time></trkpt><trkpt lat="37.663761103756954" lon="12.533934855661379"><ele>2.0</ele><time>2026-04-09T14:10:00Z</time></trkpt><trkpt lat="37.663697438918746" lon="12.533886826984808"><ele>2.0</ele><time>2026-04-09T14:10:02Z</time></trkpt><trkpt lat="37.66363820395392" lon="12.533793725136254"><ele>1.9999999999999998</ele><time>2026-04-09T14:10:04Z</time></trkpt><trkpt lat="37.66356117561892" lon="12.533706017718172"><ele>2.0</ele><time>2026-04-09T14:10:06Z</time></trkpt><trkpt lat="37.66346740741546" lon="12.533644285530528"><ele>1.8</ele><time>2026-04-09T14:10:08Z</time></trkpt><trkpt lat="37.66337045044421" lon="12.533607666072264"><ele>1.6</ele><time>2026-04-09T14:10:10Z</time></trkpt><trkpt lat="37.66327017473256" lon="12.533600172083364"><ele>1.4000000000000001</ele><time>2026-04-09T14:10:12Z</time></trkpt><trkpt lat="37.66316473506664" lon="12.533599104759807"><ele>1.2000000000000002</ele><time>2026-04-09T14:10:14Z</time></trkpt><trkpt lat="37.663055738869495" lon="12.533576183422364"><ele>1.0</ele><time>2026-04-09T14:10:16Z</time></trkpt><trkpt lat="37.66298880887247" lon="12.533560728712475"><ele>1.0</ele><time>2026-04-09T14:10:17Z</time></trkpt><trkpt lat="37.6629196281077" lon="12.53352524571829"><ele>0.9999999999999999</ele><time>2026-04-09T14:10:17.999Z</time></trkpt><trkpt lat="37.662850398718376" lon="12.533508900022298"><ele>1.0</ele><time>2026-04-09T14:10:18.999Z</time></trkpt><trkpt lat="37.662778025659705" lon="12.533503966295733"><ele>1.0</ele><time>2026-04-09T14:10:19.999Z</time></trkpt><trkpt lat="37.66270832408855" lon="12.53350399317139"><ele>0.9999999999999999</ele><time>2026-04-09T14:10:20.999Z</time></trkpt><trkpt lat="37.66263447158851" lon="12.533516077255916"><ele>1.0</ele><time>2026-04-09T14:10:21.999Z</time></trkpt><trkpt lat="37.66255929402453" lon="12.533538786867991"><ele>1.0</ele><time>2026-04-09T14:10:22.999Z</time></trkpt><trkpt lat="37.66248573706888" lon="12.533566002471082"><ele>1.2000000000000002</ele><time>2026-04-09T14:10:23.999Z</time></trkpt><trkpt lat="37.662405047379586" lon="12.53361896125852"><ele>1.4000000000000001</ele><time>2026-04-09T14:10:25.999Z</time></trkpt><trkpt lat="37.66231978518247" lon="12.533672724608836"><ele>1.6</ele><time>2026-04-09T14:10:27.999Z</time></trkpt><trkpt lat="37.66223885011952" lon="12.533711698220088"><ele>1.8</ele><time>2026-04-09T14:10:29.999Z</time></trkpt><trkpt lat="37.66213984237317" lon="12.533699804845641"><ele>2.0</ele><time>2026-04-09T14:10:31.999Z</time></trkpt><trkpt lat="37.66202120829712" lon="12.533670164501723"><ele>2.0</ele><time>2026-04-09T14:10:33.999Z</time></trkpt><trkpt lat="37.66195999947466" lon="12.533647187573473"><ele>1.9999999999999998</ele><time>2026-04-09T14:10:34.999Z</time></trkpt><trkpt lat="37.66189213605013" lon="12.533617464893677"><ele>2.0</ele><time>2026-04-09T14:10:35.999Z</time></trkpt><trkpt lat="37.66182149061427" lon="12.533582716867812"><ele>2.0</ele><time>2026-04-09T14:10:36.999Z</time></trkpt><trkpt lat="37.66175749268455" lon="12.533539293749609"><ele>1.9999999999999998</ele><time>2026-04-09T14:10:37.999Z</time></trkpt><trkpt lat="37.661695253270516" lon="12.533497856634945"><ele>2.0</ele><time>2026-04-09T14:10:38.999Z</time></trkpt><trkpt lat="37.66164014385255" lon="12.53344529406452"><ele>2.0</ele><time>2026-04-09T14:10:39.999Z</time></trkpt><trkpt lat="37.66156002609172" lon="12.533371291353221"><ele>2.2</ele><time>2026-04-09T14:10:41.999Z</time></trkpt><trkpt lat="37.66148874909435" lon="12.53344467687933"><ele>2.4000000000000004</ele><time>2026-04-09T14:10:43.999Z</time></trkpt><trkpt lat="37.66139649827707" lon="12.533407785842908"><ele>2.5999999999999996</ele><time>2026-04-09T14:10:45.999Z</time></trkpt><trkpt lat="37.66133605399741" lon="12.533303534279513"><ele>2.8</ele><time>2026-04-09T14:10:47.999Z</time></trkpt><trkpt lat="37.66130334173106" lon="12.533198559442862"><ele>3.0</ele><time>2026-04-09T14:10:49.999Z</time></trkpt><trkpt lat="37.6612357430498" lon="12.533116727280143"><ele>3.0</ele><time>2026-04-09T14:10:51.999Z</time></trkpt><trkpt lat="37.66111931719282" lon="12.533092986018456"><ele>3.0</ele><time>2026-04-09T14:10:53.999Z</time></trkpt><trkpt lat="37.661052708975234" lon="12.533081291485312"><ele>3.0</ele><time>2026-04-09T14:10:54.999Z</time></trkpt><trkpt lat="37.66098376659486" lon="12.533060262500022"><ele>3.0</ele><time>2026-04-09T14:10:55.999Z</time></trkpt><trkpt lat="37.660912651800345" lon="12.533043069764364"><ele>3.0</ele><time>2026-04-09T14:10:56.999Z</time></trkpt><trkpt lat="37.66078960488543" lon="12.533012073296511"><ele>2.8</ele><time>2026-04-09T14:10:58.999Z</time></trkpt><trkpt lat="37.66067855625452" lon="12.53305560607162"><ele>2.5999999999999996</ele><time>2026-04-09T14:11:00.999Z</time></trkpt><trkpt lat="37.660571299870675" lon="12.533077325031563"><ele>2.4000000000000004</ele><time>2026-04-09T14:11:03Z</time></trkpt><trkpt lat="37.6604658585014" lon="12.533052921568867"><ele>2.2</ele><time>2026-04-09T14:11:05Z</time></trkpt><trkpt lat="37.660404835468185" lon="12.53302372795212"><ele>2.0</ele><time>2026-04-09T14:11:06Z</time></trkpt><trkpt lat="37.66031226356721" lon="12.532949039749539"><ele>2.1666666666666665</ele><time>2026-04-09T14:11:08Z</time></trkpt><trkpt lat="37.660228338100346" lon="12.53291217514127"><ele>2.333333333333333</ele><time>2026-04-09T14:11:10Z</time></trkpt><trkpt lat="37.66015907350093" lon="12.532906571249876"><ele>2.5</ele><time>2026-04-09T14:11:12Z</time></trkpt><trkpt lat="37.660065491261534" lon="12.532915784299837"><ele>2.6666666666666665</ele><time>2026-04-09T14:11:16Z</time></trkpt><trkpt lat="37.659982282093566" lon="12.532893684736004"><ele>2.8333333333333335</ele><time>2026-04-09T14:11:18Z</time></trkpt><trkpt lat="37.65989688586979" lon="12.532838411619869"><ele>3.0</ele><time>2026-04-09T14:11:20Z</time></trkpt><trkpt lat="37.659782835719774" lon="12.532808049627326"><ele>3.0</ele><time>2026-04-09T14:11:22Z</time></trkpt><trkpt lat="37.65966540239193" lon="12.532823951477376"><ele>3.0</ele><time>2026-04-09T14:11:24Z</time></trkpt><trkpt lat="37.65955142025117" lon="12.53279699676233"><ele>3.0</ele><time>2026-04-09T14:11:26Z</time></trkpt><trkpt lat="37.659475468387875" lon="12.53270256753346"><ele>3.0</ele><time>2026-04-09T14:11:28Z</time></trkpt><trkpt lat="37.659481184244555" lon="12.53261062039749"><ele>3.0</ele><time>2026-04-09T14:11:30Z</time></trkpt><trkpt lat="37.6595488072413" lon="12.532548206744552"><ele>3.0</ele><time>2026-04-09T14:11:33Z</time></trkpt><trkpt lat="37.65963188527722" lon="12.532512394100076"><ele>3.0</ele><time>2026-04-09T14:11:35Z</time></trkpt><trkpt lat="37.65967548866564" lon="12.532575863693285"><ele>3.0</ele><time>2026-04-09T14:11:39Z</time></trkpt><trkpt lat="37.6596862559702" lon="12.532675577498896"><ele>3.0</ele><time>2026-04-09T14:11:42Z</time></trkpt><trkpt lat="37.65966658366632" lon="12.532807008970009"><ele>3.0</ele><time>2026-04-09T14:11:44Z</time></trkpt><trkpt lat="37.659605323150934" lon="12.532917882372994"><ele>3.0</ele><time>2026-04-09T14:11:46Z</time></trkpt><trkpt lat="37.65955181495311" lon="12.532973207163774"><ele>3.0</ele><time>2026-04-09T14:11:47Z</time></trkpt><trkpt lat="37.659503020402504" lon="12.53303123196443"><ele>3.0</ele><time>2026-04-09T14:11:48Z</time></trkpt><trkpt lat="37.65946756831018" lon="12.53309770782804"><ele>3.0</ele><time>2026-04-09T14:11:49Z</time></trkpt><trkpt lat="37.65950527473059" lon="12.533011200085708"><ele>3.0</ele><time>2026-04-09T14:11:55Z</time></trkpt><trkpt lat="37.659568175582685" lon="12.532938564196273"><ele>3.0</ele><time>2026-04-09T14:11:57Z</time></trkpt><trkpt lat="37.65956610682187" lon="12.53281327610304"><ele>3.0</ele><time>2026-04-09T14:11:59Z</time></trkpt><trkpt lat="37.65951224892478" lon="12.532728337719035"><ele>3.0</ele><time>2026-04-09T14:12:01Z</time></trkpt><trkpt lat="37.65944057491962" lon="12.532648848674812"><ele>3.0</ele><time>2026-04-09T14:12:04Z</time></trkpt><trkpt lat="37.65942844631078" lon="12.53256811624116"><ele>3.0</ele><time>2026-04-09T14:12:54.999Z</time></trkpt><trkpt lat="37.65947281696058" lon="12.53250821941427"><ele>3.0</ele><time>2026-04-09T14:12:59.999Z</time></trkpt><trkpt lat="37.6595493008603" lon="12.53250772381245"><ele>3.0</ele><time>2026-04-09T14:13:03.999Z</time></trkpt><trkpt lat="37.6596155345906" lon="12.532529592303312"><ele>3.0</ele><time>2026-04-09T14:13:07.999Z</time></trkpt><trkpt lat="37.65969562457497" lon="12.53253005867804"><ele>3.0</ele><time>2026-04-09T14:13:11Z</time></trkpt><trkpt lat="37.65975374982138" lon="12.532443730472398"><ele>3.0</ele><time>2026-04-09T14:13:13Z</time></trkpt><trkpt lat="37.659773896952295" lon="12.53230810504358"><ele>3.0</ele><time>2026-04-09T14:13:15Z</time></trkpt><trkpt lat="37.65979047212608" lon="12.532189491555632"><ele>3.0</ele><time>2026-04-09T14:13:17Z</time></trkpt><trkpt lat="37.65986085342174" lon="12.532149324101567"><ele>3.0</ele><time>2026-04-09T14:13:19Z</time></trkpt><trkpt lat="37.65993968486719" lon="12.53208744783277"><ele>3.0</ele><time>2026-04-09T14:13:21Z</time></trkpt><trkpt lat="37.65997268979087" lon="12.53194403997805"><ele>3.0</ele><time>2026-04-09T14:13:23Z</time></trkpt><trkpt lat="37.65998583462824" lon="12.53179191972991"><ele>3.0</ele><time>2026-04-09T14:13:25Z</time></trkpt><trkpt lat="37.65999502455276" lon="12.531710232973593"><ele>3.0</ele><time>2026-04-09T14:13:26Z</time></trkpt><trkpt lat="37.65998657317108" lon="12.531629548087052"><ele>3.0</ele><time>2026-04-09T14:13:27Z</time></trkpt><trkpt lat="37.65997936437641" lon="12.531532806399435"><ele>3.0</ele><time>2026-04-09T14:13:28Z</time></trkpt><trkpt lat="37.65998930090042" lon="12.531447644188134"><ele>3.0</ele><time>2026-04-09T14:13:29Z</time></trkpt><trkpt lat="37.660003598561836" lon="12.531356288037175"><ele>3.0</ele><time>2026-04-09T14:13:30Z</time></trkpt><trkpt lat="37.66002165405007" lon="12.531271722228116"><ele>3.0</ele><time>2026-04-09T14:13:31Z</time></trkpt><trkpt lat="37.660047338298874" lon="12.53112614900607"><ele>3.0</ele><time>2026-04-09T14:13:33Z</time></trkpt><trkpt lat="37.660058463046646" lon="12.531046165287789"><ele>3.0</ele><time>2026-04-09T14:13:34Z</time></trkpt><trkpt lat="37.66006277628122" lon="12.530962471233744"><ele>3.0</ele><time>2026-04-09T14:13:35Z</time></trkpt><trkpt lat="37.66006882851264" lon="12.530870942196364"><ele>3.0</ele><time>2026-04-09T14:13:36Z</time></trkpt><trkpt lat="37.66007379697547" lon="12.530787937179722"><ele>3.0</ele><time>2026-04-09T14:13:37Z</time></trkpt><trkpt lat="37.66009035927896" lon="12.530653604171034"><ele>3.0</ele><time>2026-04-09T14:13:39Z</time></trkpt><trkpt lat="37.66007029004235" lon="12.530540238474035"><ele>3.0</ele><time>2026-04-09T14:13:41Z</time></trkpt><trkpt lat="37.660121026596215" lon="12.53044819847471"><ele>3.0</ele><time>2026-04-09T14:13:42Z</time></trkpt><trkpt lat="37.660137541655246" lon="12.530361385643074"><ele>3.0</ele><time>2026-04-09T14:13:43Z</time></trkpt><trkpt lat="37.66015351746759" lon="12.530197562604823"><ele>2.8333333333333335</ele><time>2026-04-09T14:13:45Z</time></trkpt><trkpt lat="37.66015913713348" lon="12.530111663458358"><ele>2.6666666666666665</ele><time>2026-04-09T14:13:46Z</time></trkpt><trkpt lat="37.660171231303444" lon="12.529995005076264"><ele>2.5</ele><time>2026-04-09T14:13:48Z</time></trkpt><trkpt lat="37.66017005999407" lon="12.529885625841773"><ele>2.333333333333333</ele><time>2026-04-09T14:14:00Z</time></trkpt><trkpt lat="37.660183204972974" lon="12.529800878278609"><ele>2.1666666666666665</ele><time>2026-04-09T14:14:02Z</time></trkpt><trkpt lat="37.66017691947602" lon="12.529694156182961"><ele>2.0</ele><time>2026-04-09T14:14:04Z</time></trkpt><trkpt lat="37.66017247047639" lon="12.529574600980895"><ele>2.0</ele><time>2026-04-09T14:14:06Z</time></trkpt><trkpt lat="37.66015530479522" lon="12.529448653256804"><ele>2.0</ele><time>2026-04-09T14:14:08Z</time></trkpt><trkpt lat="37.66015313041935" lon="12.529298806963038"><ele>2.0</ele><time>2026-04-09T14:14:10Z</time></trkpt><trkpt lat="37.660162822550596" lon="12.529144168401412"><ele>2.0</ele><time>2026-04-09T14:14:12Z</time></trkpt><trkpt lat="37.660180540566294" lon="12.52904760893829"><ele>2.0</ele><time>2026-04-09T14:14:13Z</time></trkpt><trkpt lat="37.66020351812566" lon="12.52895834372496"><ele>1.9999999999999998</ele><time>2026-04-09T14:14:14Z</time></trkpt><trkpt lat="37.660226229352304" lon="12.528872684875878"><ele>2.0</ele><time>2026-04-09T14:14:15Z</time></trkpt><trkpt lat="37.66023982147793" lon="12.528775931120872"><ele>2.0</ele><time>2026-04-09T14:14:16Z</time></trkpt><trkpt lat="37.66024945059228" lon="12.528681163897375"><ele>2.0</ele><time>2026-04-09T14:14:17Z</time></trkpt><trkpt lat="37.660272826785345" lon="12.528589406131804"><ele>1.9999999999999998</ele><time>2026-04-09T14:14:18Z</time></trkpt><trkpt lat="37.66030476254494" lon="12.528501603635268"><ele>2.0</ele><time>2026-04-09T14:14:19Z</time></trkpt><trkpt lat="37.66032572274744" lon="12.528412376015615"><ele>1.9999999999999998</ele><time>2026-04-09T14:14:20Z</time></trkpt><trkpt lat="37.660329576717274" lon="12.528320618964951"><ele>2.0</ele><time>2026-04-09T14:14:21Z</time></trkpt><trkpt lat="37.660308903684566" lon="12.528184335660223"><ele>2.0</ele><time>2026-04-09T14:14:23Z</time></trkpt><trkpt lat="37.66026609524875" lon="12.52805011171586"><ele>2.0</ele><time>2026-04-09T14:14:25Z</time></trkpt><trkpt lat="37.660257326624844" lon="12.527967152994318"><ele>1.9999999999999998</ele><time>2026-04-09T14:14:26Z</time></trkpt><trkpt lat="37.66025229013639" lon="12.527885815020213"><ele>2.0</ele><time>2026-04-09T14:14:27Z</time></trkpt><trkpt lat="37.66025372914764" lon="12.527803068837953"><ele>1.9999999999999998</ele><time>2026-04-09T14:14:28Z</time></trkpt><trkpt lat="37.66026649233764" lon="12.527692510918781"><ele>2.0</ele><time>2026-04-09T14:14:30Z</time></trkpt><trkpt lat="37.66028375059673" lon="12.527611020088452"><ele>2.0</ele><time>2026-04-09T14:14:31.999Z</time></trkpt><trkpt lat="37.660286152242065" lon="12.5274940430341"><ele>2.0</ele><time>2026-04-09T14:14:33.999Z</time></trkpt><trkpt lat="37.6602524078896" lon="12.527397504815054"><ele>1.9999999999999998</ele><time>2026-04-09T14:14:35.999Z</time></trkpt><trkpt lat="37.660227359492765" lon="12.527271188507706"><ele>2.0</ele><time>2026-04-09T14:14:37.999Z</time></trkpt><trkpt lat="37.660256652932674" lon="12.527122190561279"><ele>1.9999999999999998</ele><time>2026-04-09T14:14:39.999Z</time></trkpt><trkpt lat="37.660335566355286" lon="12.527075747511146"><ele>2.0</ele><time>2026-04-09T14:14:41.999Z</time></trkpt><trkpt lat="37.66029179853056" lon="12.527139342500973"><ele>2.0</ele><time>2026-04-09T14:14:46.999Z</time></trkpt><trkpt lat="37.66023384011257" lon="12.527182020716692"><ele>2.0</ele><time>2026-04-09T14:14:48.999Z</time></trkpt><trkpt lat="37.660223523252526" lon="12.527298506245025"><ele>1.9999999999999998</ele><time>2026-04-09T14:14:50.999Z</time></trkpt><trkpt lat="37.66026405880194" lon="12.527422054497915"><ele>2.0</ele><time>2026-04-09T14:14:52.999Z</time></trkpt><trkpt lat="37.660291427126396" lon="12.5275192661861"><ele>2.0</ele><time>2026-04-09T14:14:54.999Z</time></trkpt><trkpt lat="37.66027317997053" lon="12.527647565407353"><ele>2.0</ele><time>2026-04-09T14:14:57.999Z</time></trkpt><trkpt lat="37.66024994271648" lon="12.527726485268479"><ele>2.0</ele><time>2026-04-09T14:14:59.999Z</time></trkpt><trkpt lat="37.6602475595477" lon="12.527841429073973"><ele>2.0</ele><time>2026-04-09T14:15:01.999Z</time></trkpt><trkpt lat="37.660253349487704" lon="12.527964602096937"><ele>2.0</ele><time>2026-04-09T14:15:03.999Z</time></trkpt><trkpt lat="37.66027419336908" lon="12.528102135535777"><ele>1.9999999999999998</ele><time>2026-04-09T14:15:05.999Z</time></trkpt><trkpt lat="37.66028919131367" lon="12.528180936628283"><ele>2.0</ele><time>2026-04-09T14:15:06.999Z</time></trkpt><trkpt lat="37.660307894318436" lon="12.528261371919452"><ele>2.0</ele><time>2026-04-09T14:15:07.999Z</time></trkpt><trkpt lat="37.660322631214214" lon="12.52834329351061"><ele>2.0</ele><time>2026-04-09T14:15:08.999Z</time></trkpt><trkpt lat="37.660311280967754" lon="12.52849752744477"><ele>1.9999999999999998</ele><time>2026-04-09T14:15:10.999Z</time></trkpt><trkpt lat="37.66029371390758" lon="12.528575939037276"><ele>2.0</ele><time>2026-04-09T14:15:11.999Z</time></trkpt><trkpt lat="37.66026516874439" lon="12.528658333178525"><ele>1.9999999999999998</ele><time>2026-04-09T14:15:12.999Z</time></trkpt><trkpt lat="37.66023475860979" lon="12.528745931717578"><ele>2.0</ele><time>2026-04-09T14:15:13.999Z</time></trkpt><trkpt lat="37.66021988570253" lon="12.528840720454498"><ele>2.0</ele><time>2026-04-09T14:15:15Z</time></trkpt><trkpt lat="37.66021427551744" lon="12.528940603174094"><ele>2.0</ele><time>2026-04-09T14:15:16Z</time></trkpt><trkpt lat="37.660190008660926" lon="12.529047990427786"><ele>1.9999999999999998</ele><time>2026-04-09T14:15:17Z</time></trkpt><trkpt lat="37.660160638046094" lon="12.529150098928929"><ele>2.0</ele><time>2026-04-09T14:15:18Z</time></trkpt><trkpt lat="37.660149137315315" lon="12.529266053833027"><ele>1.9999999999999998</ele><time>2026-04-09T14:15:19Z</time></trkpt><trkpt lat="37.66014998886169" lon="12.529380332443735"><ele>2.0</ele><time>2026-04-09T14:15:20Z</time></trkpt><trkpt lat="37.660139660788445" lon="12.529482579893756"><ele>2.0</ele><time>2026-04-09T14:15:21Z</time></trkpt><trkpt lat="37.660125470368975" lon="12.52958093130119"><ele>2.0</ele><time>2026-04-09T14:15:22Z</time></trkpt><trkpt lat="37.66011389556941" lon="12.529667482007017"><ele>1.9999999999999998</ele><time>2026-04-09T14:15:23Z</time></trkpt><trkpt lat="37.66010554363531" lon="12.529761818069852"><ele>2.0</ele><time>2026-04-09T14:15:24Z</time></trkpt><trkpt lat="37.66010095885714" lon="12.529860898129872"><ele>2.0</ele><time>2026-04-09T14:15:25Z</time></trkpt><trkpt lat="37.660102902201274" lon="12.529954034306433"><ele>1.9999999999999998</ele><time>2026-04-09T14:15:26Z</time></trkpt><trkpt lat="37.66010411998586" lon="12.530034272661876"><ele>2.0</ele><time>2026-04-09T14:15:27Z</time></trkpt><trkpt lat="37.660098227319764" lon="12.530115077704226"><ele>2.0</ele><time>2026-04-09T14:15:28Z</time></trkpt><trkpt lat="37.66006111922786" lon="12.53022298246876"><ele>1.9999999999999998</ele><time>2026-04-09T14:15:30Z</time></trkpt><trkpt lat="37.660033440067714" lon="12.530323879070076"><ele>2.0</ele><time>2026-04-09T14:15:32Z</time></trkpt><trkpt lat="37.660015509232394" lon="12.53040487800266"><ele>2.0</ele><time>2026-04-09T14:15:34Z</time></trkpt><trkpt lat="37.659996480426194" lon="12.530519858257735"><ele>2.1666666666666665</ele><time>2026-04-09T14:15:37Z</time></trkpt><trkpt lat="37.66003025603385" lon="12.53061315088141"><ele>2.333333333333333</ele><time>2026-04-09T14:15:41Z</time></trkpt><trkpt lat="37.66004969558423" lon="12.53072188148752"><ele>2.5</ele><time>2026-04-09T14:15:44Z</time></trkpt><trkpt lat="37.660061387463735" lon="12.530806467917794"><ele>2.6666666666666665</ele><time>2026-04-09T14:15:46Z</time></trkpt><trkpt lat="37.66006107830329" lon="12.53091980559154"><ele>2.8333333333333335</ele><time>2026-04-09T14:15:48Z</time></trkpt><trkpt lat="37.660057313101014" lon="12.531023983497764"><ele>3.0</ele><time>2026-04-09T14:15:50Z</time></trkpt><trkpt lat="37.66004251290199" lon="12.531130524594191"><ele>2.9999999999999996</ele><time>2026-04-09T14:15:52Z</time></trkpt><trkpt lat="37.66003268939" lon="12.531222669754719"><ele>3.0</ele><time>2026-04-09T14:15:54Z</time></trkpt><trkpt lat="37.66001474088051" lon="12.53131079354811"><ele>3.0</ele><time>2026-04-09T14:15:56Z</time></trkpt><trkpt lat="37.66001400807069" lon="12.531390716830552"><ele>3.0</ele><time>2026-04-09T14:15:58Z</time></trkpt><trkpt lat="37.65999689449088" lon="12.531496807154694"><ele>3.0</ele><time>2026-04-09T14:16:01Z</time></trkpt><trkpt lat="37.659979433027445" lon="12.531600098881396"><ele>2.9999999999999996</ele><time>2026-04-09T14:16:04Z</time></trkpt><trkpt lat="37.65998698264637" lon="12.531683326017395"><ele>3.0</ele><time>2026-04-09T14:16:06Z</time></trkpt><trkpt lat="37.6599836536161" lon="12.531809508182542"><ele>3.0</ele><time>2026-04-09T14:16:08Z</time></trkpt><trkpt lat="37.65994441998823" lon="12.531952966004182"><ele>3.0</ele><time>2026-04-09T14:16:10Z</time></trkpt><trkpt lat="37.65993946352396" lon="12.53207519929112"><ele>3.0</ele><time>2026-04-09T14:16:12Z</time></trkpt><trkpt lat="37.659904488694664" lon="12.532180472450204"><ele>3.0</ele><time>2026-04-09T14:16:14Z</time></trkpt><trkpt lat="37.65981192991286" lon="12.532190388433655"><ele>3.0</ele><time>2026-04-09T14:16:17Z</time></trkpt><trkpt lat="37.65977522741575" lon="12.532255658775977"><ele>3.0</ele><time>2026-04-09T14:16:19Z</time></trkpt><trkpt lat="37.65975952572543" lon="12.532370818890637"><ele>3.0</ele><time>2026-04-09T14:16:21Z</time></trkpt><trkpt lat="37.65972244667765" lon="12.532490876345019"><ele>3.0</ele><time>2026-04-09T14:16:23Z</time></trkpt><trkpt lat="37.659660564661294" lon="12.532573053324143"><ele>3.0</ele><time>2026-04-09T14:16:25Z</time></trkpt><trkpt lat="37.659681761861656" lon="12.532665167344554"><ele>3.0</ele><time>2026-04-09T14:16:29Z</time></trkpt><trkpt lat="37.659677199760786" lon="12.532762577491894"><ele>3.0</ele><time>2026-04-09T14:16:31Z</time></trkpt><trkpt lat="37.65977555828619" lon="12.532819625385708"><ele>3.0</ele><time>2026-04-09T14:16:33Z</time></trkpt><trkpt lat="37.659900250852445" lon="12.532824410840588"><ele>3.0</ele><time>2026-04-09T14:16:35Z</time></trkpt><trkpt lat="37.65996232414252" lon="12.532854716787071"><ele>3.0</ele><time>2026-04-09T14:16:36Z</time></trkpt><trkpt lat="37.660022539734115" lon="12.532903874023543"><ele>3.0</ele><time>2026-04-09T14:16:37Z</time></trkpt><trkpt lat="37.66012489660128" lon="12.53290839998163"><ele>3.0</ele><time>2026-04-09T14:16:39Z</time></trkpt><trkpt lat="37.660206060872824" lon="12.53290343040086"><ele>3.0</ele><time>2026-04-09T14:16:42Z</time></trkpt><trkpt lat="37.660274113769105" lon="12.532934328071493"><ele>2.8</ele><time>2026-04-09T14:16:43.999Z</time></trkpt><trkpt lat="37.66036967769659" lon="12.532941328856653"><ele>2.5999999999999996</ele><time>2026-04-09T14:16:45.999Z</time></trkpt><trkpt lat="37.660481741922794" lon="12.532985138092878"><ele>2.4000000000000004</ele><time>2026-04-09T14:16:47.999Z</time></trkpt><trkpt lat="37.66059629363201" lon="12.533039902722866"><ele>2.2</ele><time>2026-04-09T14:16:49.999Z</time></trkpt><trkpt lat="37.66069585385222" lon="12.533093003550201"><ele>2.0</ele><time>2026-04-09T14:16:51.999Z</time></trkpt><trkpt lat="37.660810734665695" lon="12.53302473106855"><ele>2.0</ele><time>2026-04-09T14:16:53.999Z</time></trkpt><trkpt lat="37.66087763178167" lon="12.533023078823602"><ele>1.9999999999999998</ele><time>2026-04-09T14:16:54.999Z</time></trkpt><trkpt lat="37.6609411302573" lon="12.53305132889399"><ele>2.0</ele><time>2026-04-09T14:16:55.999Z</time></trkpt><trkpt lat="37.66100981870527" lon="12.533083705678276"><ele>2.0</ele><time>2026-04-09T14:16:56.999Z</time></trkpt><trkpt lat="37.66108667140517" lon="12.533109185783477"><ele>1.9999999999999998</ele><time>2026-04-09T14:16:57.999Z</time></trkpt><trkpt lat="37.66115291781985" lon="12.533123758981652"><ele>2.0</ele><time>2026-04-09T14:16:58.999Z</time></trkpt><trkpt lat="37.66122401809853" lon="12.533157624842673"><ele>2.0</ele><time>2026-04-09T14:16:59.999Z</time></trkpt><trkpt lat="37.66129572019446" lon="12.53320286526304"><ele>2.1666666666666665</ele><time>2026-04-09T14:17:00.999Z</time></trkpt><trkpt lat="37.66135377158075" lon="12.53325781371933"><ele>2.333333333333333</ele><time>2026-04-09T14:17:01.999Z</time></trkpt><trkpt lat="37.661399526865175" lon="12.533324220552036"><ele>2.5</ele><time>2026-04-09T14:17:02.999Z</time></trkpt><trkpt lat="37.66145318926607" lon="12.533409710319226"><ele>2.6666666666666665</ele><time>2026-04-09T14:17:04.999Z</time></trkpt><trkpt lat="37.661517192731125" lon="12.533457396364295"><ele>2.8333333333333335</ele><time>2026-04-09T14:17:06.999Z</time></trkpt><trkpt lat="37.66162999323826" lon="12.533492449288987"><ele>3.0</ele><time>2026-04-09T14:17:08.999Z</time></trkpt><trkpt lat="37.66175308746453" lon="12.53353358557114"><ele>2.9999999999999996</ele><time>2026-04-09T14:17:10.999Z</time></trkpt><trkpt lat="37.66182023999262" lon="12.533557623122924"><ele>3.0</ele><time>2026-04-09T14:17:11.999Z</time></trkpt><trkpt lat="37.66187831498748" lon="12.533591965247455"><ele>3.0</ele><time>2026-04-09T14:17:12.999Z</time></trkpt><trkpt lat="37.66194699585419" lon="12.533634373688137"><ele>3.0</ele><time>2026-04-09T14:17:13.999Z</time></trkpt><trkpt lat="37.6620244161262" lon="12.53366383562607"><ele>3.0</ele><time>2026-04-09T14:17:14.999Z</time></trkpt><trkpt lat="37.662102253174154" lon="12.533685590903543"><ele>2.9999999999999996</ele><time>2026-04-09T14:17:15.999Z</time></trkpt><trkpt lat="37.6621781615637" lon="12.533707552304648"><ele>3.0</ele><time>2026-04-09T14:17:16.999Z</time></trkpt><trkpt lat="37.66224635874068" lon="12.533702679531414"><ele>2.8333333333333335</ele><time>2026-04-09T14:17:17.999Z</time></trkpt><trkpt lat="37.66233206608281" lon="12.533670416109079"><ele>2.6666666666666665</ele><time>2026-04-09T14:17:19.999Z</time></trkpt><trkpt lat="37.66240019266555" lon="12.533616848065222"><ele>2.5</ele><time>2026-04-09T14:17:22Z</time></trkpt><trkpt lat="37.66246714455991" lon="12.533586706888709"><ele>2.333333333333333</ele><time>2026-04-09T14:17:24Z</time></trkpt><trkpt lat="37.66253224135676" lon="12.533550173106708"><ele>2.1666666666666665</ele><time>2026-04-09T14:17:27Z</time></trkpt><trkpt lat="37.66260248216766" lon="12.533507800660487"><ele>2.0</ele><time>2026-04-09T14:17:30Z</time></trkpt><trkpt lat="37.662671536930226" lon="12.533507086344486"><ele>1.9999999999999998</ele><time>2026-04-09T14:17:32Z</time></trkpt><trkpt lat="37.66277329287977" lon="12.533492823951443"><ele>2.0</ele><time>2026-04-09T14:17:34Z</time></trkpt><trkpt lat="37.66288747448154" lon="12.53350022603329"><ele>2.0</ele><time>2026-04-09T14:17:36Z</time></trkpt><trkpt lat="37.66295784373318" lon="12.53352499015775"><ele>2.0</ele><time>2026-04-09T14:17:37Z</time></trkpt><trkpt lat="37.66302584101946" lon="12.533535079646652"><ele>1.9999999999999998</ele><time>2026-04-09T14:17:38Z</time></trkpt><trkpt lat="37.66310009486566" lon="12.533544059761"><ele>2.0</ele><time>2026-04-09T14:17:39Z</time></trkpt><trkpt lat="37.66317024009811" lon="12.533551623607117"><ele>2.0</ele><time>2026-04-09T14:17:40Z</time></trkpt><trkpt lat="37.66324637866564" lon="12.533563762212347"><ele>1.9999999999999998</ele><time>2026-04-09T14:17:41Z</time></trkpt><trkpt lat="37.663318669353735" lon="12.533581427304096"><ele>2.0</ele><time>2026-04-09T14:17:42Z</time></trkpt><trkpt lat="37.66338135279139" lon="12.533598444146678"><ele>2.0</ele><time>2026-04-09T14:17:43Z</time></trkpt><trkpt lat="37.66344510039885" lon="12.533621678222104"><ele>1.9999999999999998</ele><time>2026-04-09T14:17:44Z</time></trkpt><trkpt lat="37.66350629048689" lon="12.533656359134726"><ele>2.0</ele><time>2026-04-09T14:17:45Z</time></trkpt><trkpt lat="37.6635658597113" lon="12.533699822171187"><ele>2.0</ele><time>2026-04-09T14:17:46Z</time></trkpt><trkpt lat="37.66362222294748" lon="12.533741583397342"><ele>2.0</ele><time>2026-04-09T14:17:47Z</time></trkpt><trkpt lat="37.663691259966726" lon="12.533872202285329"><ele>2.0</ele><time>2026-04-09T14:17:49Z</time></trkpt><trkpt lat="37.66373166737378" lon="12.533940822538357"><ele>2.0</ele><time>2026-04-09T14:17:50Z</time></trkpt><trkpt lat="37.66383859665641" lon="12.53402141897732"><ele>2.0</ele><time>2026-04-09T14:17:52Z</time></trkpt><trkpt lat="37.663892466884725" lon="12.534099226900404"><ele>2.0</ele><time>2026-04-09T14:17:54Z</time></trkpt><trkpt lat="37.66396857373286" lon="12.53418037338782"><ele>1.9999999999999998</ele><time>2026-04-09T14:17:57Z</time></trkpt><trkpt lat="37.66406906653024" lon="12.534197745912794"><ele>2.0</ele><time>2026-04-09T14:17:59Z</time></trkpt><trkpt lat="37.66417648323148" lon="12.534247031152372"><ele>2.0</ele><time>2026-04-09T14:18:01Z</time></trkpt><trkpt lat="37.66423916694351" lon="12.534275141898917"><ele>2.0</ele><time>2026-04-09T14:18:02Z</time></trkpt><trkpt lat="37.66429400280614" lon="12.534317057639477"><ele>1.9999999999999998</ele><time>2026-04-09T14:18:03Z</time></trkpt><trkpt lat="37.664347883758225" lon="12.534384959312007"><ele>2.0</ele><time>2026-04-09T14:18:04Z</time></trkpt><trkpt lat="37.66439531013098" lon="12.534443391102387"><ele>2.0</ele><time>2026-04-09T14:18:05Z</time></trkpt><trkpt lat="37.6644454860412" lon="12.534498380385463"><ele>1.9999999999999998</ele><time>2026-04-09T14:18:06Z</time></trkpt><trkpt lat="37.664510026410845" lon="12.534543934488434"><ele>2.0</ele><time>2026-04-09T14:18:07Z</time></trkpt><trkpt lat="37.66457459397609" lon="12.5345940781941"><ele>2.0</ele><time>2026-04-09T14:18:08Z</time></trkpt><trkpt lat="37.664635838691936" lon="12.534635672752842"><ele>1.9999999999999998</ele><time>2026-04-09T14:18:09Z</time></trkpt><trkpt lat="37.66469623958383" lon="12.534687485533514"><ele>2.0</ele><time>2026-04-09T14:18:10Z</time></trkpt><trkpt lat="37.66475167518652" lon="12.534741168320195"><ele>2.0</ele><time>2026-04-09T14:18:11Z</time></trkpt><trkpt lat="37.66483214869377" lon="12.534820236031866"><ele>2.142857142857143</ele><time>2026-04-09T14:18:13Z</time></trkpt><trkpt lat="37.6648895427433" lon="12.534881593847146"><ele>2.2857142857142856</ele><time>2026-04-09T14:18:15Z</time></trkpt><trkpt lat="37.66494891545679" lon="12.534941795242204"><ele>2.4285714285714284</ele><time>2026-04-09T14:18:17Z</time></trkpt><trkpt lat="37.66500256631402" lon="12.534999332008306"><ele>2.571428571428571</ele><time>2026-04-09T14:18:19Z</time></trkpt><trkpt lat="37.665061041149904" lon="12.535050912010288"><ele>2.7142857142857144</ele><time>2026-04-09T14:18:21Z</time></trkpt><trkpt lat="37.665138775941145" lon="12.5350775511228"><ele>2.8571428571428568</ele><time>2026-04-09T14:18:24Z</time></trkpt><trkpt lat="37.66519153893076" lon="12.535128989658556"><ele>3.0</ele><time>2026-04-09T14:18:26Z</time></trkpt><trkpt lat="37.66525801411799" lon="12.535213322213332"><ele>3.5999999999999996</ele><time>2026-04-09T14:18:29Z</time></trkpt><trkpt lat="37.665318151071986" lon="12.535261785076763"><ele>4.199999999999999</ele><time>2026-04-09T14:18:31Z</time></trkpt><trkpt lat="37.665383551814166" lon="12.535335257645235"><ele>4.8</ele><time>2026-04-09T14:18:33Z</time></trkpt><trkpt lat="37.66542003054949" lon="12.535426915296515"><ele>5.3999999999999995</ele><time>2026-04-09T14:18:35Z</time></trkpt><trkpt lat="37.66535770913335" lon="12.53554391281655"><ele>6.0</ele><time>2026-04-09T14:18:37Z</time></trkpt><trkpt lat="37.66529570092524" lon="12.535650415265183"><ele>6.0</ele><time>2026-04-09T14:18:38.999Z</time></trkpt><trkpt lat="37.66524843581175" lon="12.535764688997986"><ele>6.0</ele><time>2026-04-09T14:18:40.999Z</time></trkpt><trkpt lat="37.66519301309251" lon="12.535878415416379"><ele>6.0</ele><time>2026-04-09T14:18:42.999Z</time></trkpt><trkpt lat="37.66513575203014" lon="12.535985112349856"><ele>6.0</ele><time>2026-04-09T14:18:44.999Z</time></trkpt><trkpt lat="37.66508994887599" lon="12.536101119587967"><ele>6.0</ele><time>2026-04-09T14:18:46.999Z</time></trkpt><trkpt lat="37.66503214078519" lon="12.536204686353116"><ele>5.8</ele><time>2026-04-09T14:18:48.999Z</time></trkpt><trkpt lat="37.664972725053836" lon="12.53631440798458"><ele>5.6</ele><time>2026-04-09T14:18:50.999Z</time></trkpt><trkpt lat="37.66491588147874" lon="12.53642495786604"><ele>5.4</ele><time>2026-04-09T14:18:52.999Z</time></trkpt><trkpt lat="37.66486178499485" lon="12.536534853718152"><ele>5.2</ele><time>2026-04-09T14:18:54.999Z</time></trkpt><trkpt lat="37.664804779450186" lon="12.536648506438471"><ele>5.0</ele><time>2026-04-09T14:18:56.999Z</time></trkpt><trkpt lat="37.664735064857695" lon="12.536747065474463"><ele>5.0</ele><time>2026-04-09T14:18:58.999Z</time></trkpt><trkpt lat="37.66467060791555" lon="12.536844135811329"><ele>5.0</ele><time>2026-04-09T14:19:00.999Z</time></trkpt><trkpt lat="37.66463546827483" lon="12.536966632637265"><ele>5.0</ele><time>2026-04-09T14:19:02.999Z</time></trkpt><trkpt lat="37.66456551331147" lon="12.537058942146833"><ele>5.0</ele><time>2026-04-09T14:19:04.999Z</time></trkpt><trkpt lat="37.66452873944497" lon="12.537156116858641"><ele>5.0</ele><time>2026-04-09T14:19:06.999Z</time></trkpt><trkpt lat="37.66448575529846" lon="12.537235482697275"><ele>5.0</ele><time>2026-04-09T14:19:08.999Z</time></trkpt><trkpt lat="37.664453946544704" lon="12.537330853093767"><ele>5.0</ele><time>2026-04-09T14:19:45Z</time></trkpt><trkpt lat="37.66438758664308" lon="12.537432639060748"><ele>5.0</ele><time>2026-04-09T14:19:47Z</time></trkpt><trkpt lat="37.66431755019239" lon="12.537533146881874"><ele>5.0</ele><time>2026-04-09T14:19:49Z</time></trkpt><trkpt lat="37.66426033545806" lon="12.537654010021807"><ele>5.0</ele><time>2026-04-09T14:19:51Z</time></trkpt><trkpt lat="37.66420385754937" lon="12.537763936425991"><ele>5.0</ele><time>2026-04-09T14:19:53Z</time></trkpt><trkpt lat="37.66414862111172" lon="12.537875847308522"><ele>5.0</ele><time>2026-04-09T14:19:55Z</time></trkpt><trkpt lat="37.664091326249036" lon="12.537989101947158"><ele>5.0</ele><time>2026-04-09T14:19:57Z</time></trkpt><trkpt lat="37.66403366627615" lon="12.538099788525221"><ele>5.0</ele><time>2026-04-09T14:19:59Z</time></trkpt><trkpt lat="37.66397925842253" lon="12.538213292158696"><ele>5.0</ele><time>2026-04-09T14:20:01Z</time></trkpt><trkpt lat="37.66392086708479" lon="12.538320977820439"><ele>5.0</ele><time>2026-04-09T14:20:03Z</time></trkpt><trkpt lat="37.66384949105079" lon="12.538422614874088"><ele>5.0</ele><time>2026-04-09T14:20:05Z</time></trkpt><trkpt lat="37.66381255436242" lon="12.538544244436077"><ele>5.0</ele><time>2026-04-09T14:20:07Z</time></trkpt><trkpt lat="37.663754507479474" lon="12.538659728781996"><ele>5.0</ele><time>2026-04-09T14:20:09Z</time></trkpt><trkpt lat="37.66370357214296" lon="12.538757056392747"><ele>5.0</ele><time>2026-04-09T14:20:11Z</time></trkpt><trkpt lat="37.663643984061814" lon="12.538867958100845"><ele>4.6</ele><time>2026-04-09T14:20:13Z</time></trkpt><trkpt lat="37.66358627856405" lon="12.538982216615588"><ele>4.2</ele><time>2026-04-09T14:20:15Z</time></trkpt><trkpt lat="37.66354581571113" lon="12.539105841382302"><ele>3.8</ele><time>2026-04-09T14:20:17Z</time></trkpt><trkpt lat="37.66348106879642" lon="12.53921364665035"><ele>3.4</ele><time>2026-04-09T14:20:19Z</time></trkpt><trkpt lat="37.663434564293674" lon="12.539325675467428"><ele>3.0</ele><time>2026-04-09T14:20:21Z</time></trkpt><trkpt lat="37.66338429337697" lon="12.539441424682298"><ele>2.8</ele><time>2026-04-09T14:20:23Z</time></trkpt><trkpt lat="37.663330330610634" lon="12.539552249607686"><ele>2.5999999999999996</ele><time>2026-04-09T14:20:25Z</time></trkpt><trkpt lat="37.66327183154584" lon="12.539653510462356"><ele>2.4000000000000004</ele><time>2026-04-09T14:20:27Z</time></trkpt><trkpt lat="37.66320580281887" lon="12.539746364243262"><ele>2.2</ele><time>2026-04-09T14:20:29Z</time></trkpt><trkpt lat="37.663161587576326" lon="12.539869254938555"><ele>2.0</ele><time>2026-04-09T14:20:31Z</time></trkpt><trkpt lat="37.66311033440123" lon="12.539981923007348"><ele>2.0</ele><time>2026-04-09T14:20:33Z</time></trkpt><trkpt lat="37.66304291127752" lon="12.54008022360943"><ele>2.0</ele><time>2026-04-09T14:20:35Z</time></trkpt><trkpt lat="37.662986750133285" lon="12.540192930962291"><ele>2.0</ele><time>2026-04-09T14:20:37Z</time></trkpt><trkpt lat="37.662930719460924" lon="12.540300575299517"><ele>2.0</ele><time>2026-04-09T14:20:39Z</time></trkpt><trkpt lat="37.66287652008742" lon="12.540413690879923"><ele>2.0</ele><time>2026-04-09T14:20:40.999Z</time></trkpt><trkpt lat="37.66281624558718" lon="12.540522132077973"><ele>2.2</ele><time>2026-04-09T14:20:42.999Z</time></trkpt><trkpt lat="37.66276954150127" lon="12.540636483515637"><ele>2.4000000000000004</ele><time>2026-04-09T14:20:44.999Z</time></trkpt><trkpt lat="37.662720899784155" lon="12.540746415145037"><ele>2.5999999999999996</ele><time>2026-04-09T14:20:46.999Z</time></trkpt><trkpt lat="37.66267517234932" lon="12.540866718498522"><ele>2.8</ele><time>2026-04-09T14:20:48.999Z</time></trkpt><trkpt lat="37.662615342152414" lon="12.540970716506061"><ele>3.0</ele><time>2026-04-09T14:20:50.999Z</time></trkpt><trkpt lat="37.66255546877577" lon="12.541077019499015"><ele>3.0</ele><time>2026-04-09T14:20:52.999Z</time></trkpt><trkpt lat="37.66249622660061" lon="12.541181789389004"><ele>3.0</ele><time>2026-04-09T14:20:54.999Z</time></trkpt><trkpt lat="37.66243556536714" lon="12.541286963907185"><ele>3.0</ele><time>2026-04-09T14:20:56.999Z</time></trkpt><trkpt lat="37.662397023792636" lon="12.541400899128968"><ele>3.0</ele><time>2026-04-09T14:20:58.999Z</time></trkpt><trkpt lat="37.662329356198995" lon="12.541502044386569"><ele>3.0</ele><time>2026-04-09T14:21:00.999Z</time></trkpt><trkpt lat="37.662277471610636" lon="12.541618330393282"><ele>3.2</ele><time>2026-04-09T14:21:02.999Z</time></trkpt><trkpt lat="37.66221373303141" lon="12.541720483989492"><ele>3.4</ele><time>2026-04-09T14:21:04.999Z</time></trkpt><trkpt lat="37.662161611857194" lon="12.541839345703442"><ele>3.6000000000000005</ele><time>2026-04-09T14:21:06.999Z</time></trkpt><trkpt lat="37.662102147720645" lon="12.541945277273285"><ele>3.8000000000000003</ele><time>2026-04-09T14:21:08.999Z</time></trkpt><trkpt lat="37.66205013019013" lon="12.54205808743945"><ele>4.0</ele><time>2026-04-09T14:21:10.999Z</time></trkpt><trkpt lat="37.661999297269944" lon="12.542168696487746"><ele>4.0</ele><time>2026-04-09T14:21:12.999Z</time></trkpt><trkpt lat="37.661940382107346" lon="12.542277588866801"><ele>4.0</ele><time>2026-04-09T14:21:14.999Z</time></trkpt><trkpt lat="37.66188930497014" lon="12.542386227361169"><ele>4.0</ele><time>2026-04-09T14:21:16.999Z</time></trkpt><trkpt lat="37.66182154055525" lon="12.542486042671602"><ele>4.0</ele><time>2026-04-09T14:21:18.999Z</time></trkpt><trkpt lat="37.661782036433586" lon="12.542590688412819"><ele>4.0</ele><time>2026-04-09T14:21:20.999Z</time></trkpt><trkpt lat="37.66178570826004" lon="12.542727369869803"><ele>4.0</ele><time>2026-04-09T14:21:24.999Z</time></trkpt><trkpt lat="37.66178466840506" lon="12.542869047844787"><ele>4.0</ele><time>2026-04-09T14:21:26.999Z</time></trkpt><trkpt lat="37.661791704892494" lon="12.543001275849145"><ele>4.0</ele><time>2026-04-09T14:21:28.999Z</time></trkpt><trkpt lat="37.66182078963199" lon="12.54313339179035"><ele>4.0</ele><time>2026-04-09T14:21:30.999Z</time></trkpt><trkpt lat="37.66184353270602" lon="12.54320904396717"><ele>4.0</ele><time>2026-04-09T14:21:31.999Z</time></trkpt><trkpt lat="37.6618606423147" lon="12.543294731510688"><ele>3.9999999999999996</ele><time>2026-04-09T14:21:33Z</time></trkpt><trkpt lat="37.66187272488956" lon="12.543387160612571"><ele>4.0</ele><time>2026-04-09T14:21:34Z</time></trkpt><trkpt lat="37.661883421374945" lon="12.543483572996385"><ele>4.0</ele><time>2026-04-09T14:21:35Z</time></trkpt><trkpt lat="37.66189396806409" lon="12.543585243388886"><ele>4.0</ele><time>2026-04-09T14:21:36Z</time></trkpt><trkpt lat="37.661911535000065" lon="12.543690414983319"><ele>3.9999999999999996</ele><time>2026-04-09T14:21:37Z</time></trkpt><trkpt lat="37.66193478698715" lon="12.543793280523916"><ele>4.0</ele><time>2026-04-09T14:21:38Z</time></trkpt><trkpt lat="37.66195911667837" lon="12.543900063493028"><ele>4.6</ele><time>2026-04-09T14:21:39Z</time></trkpt><trkpt lat="37.66197712536055" lon="12.544011781808598"><ele>5.2</ele><time>2026-04-09T14:21:40Z</time></trkpt><trkpt lat="37.66198730899782" lon="12.544129041140486"><ele>5.799999999999999</ele><time>2026-04-09T14:21:41Z</time></trkpt><trkpt lat="37.66199816845337" lon="12.5442463211687"><ele>6.3999999999999995</ele><time>2026-04-09T14:21:42Z</time></trkpt><trkpt lat="37.662014446189296" lon="12.544364146741723"><ele>7.0</ele><time>2026-04-09T14:21:43Z</time></trkpt><trkpt lat="37.66204355699511" lon="12.54448540817687"><ele>7.0</ele><time>2026-04-09T14:21:44Z</time></trkpt><trkpt lat="37.66206449155693" lon="12.5446117451694"><ele>6.999999999999999</ele><time>2026-04-09T14:21:45Z</time></trkpt><trkpt lat="37.66207396795858" lon="12.544740315805665"><ele>6.999999999999999</ele><time>2026-04-09T14:21:46Z</time></trkpt><trkpt lat="37.66209351110096" lon="12.5448656340593"><ele>7.0</ele><time>2026-04-09T14:21:47Z</time></trkpt><trkpt lat="37.66211420087146" lon="12.544992859103495"><ele>7.0</ele><time>2026-04-09T14:21:48Z</time></trkpt><trkpt lat="37.6621337616952" lon="12.545121233562249"><ele>7.0</ele><time>2026-04-09T14:21:49Z</time></trkpt><trkpt lat="37.66214559731873" lon="12.545250850685125"><ele>6.999999999999999</ele><time>2026-04-09T14:21:50Z</time></trkpt><trkpt lat="37.662164756511615" lon="12.545383017426442"><ele>6.999999999999999</ele><time>2026-04-09T14:21:51Z</time></trkpt><trkpt lat="37.6621875853533" lon="12.545512703027667"><ele>7.0</ele><time>2026-04-09T14:21:52Z</time></trkpt><trkpt lat="37.66220131712624" lon="12.545647469738164"><ele>7.0</ele><time>2026-04-09T14:21:53Z</time></trkpt><trkpt lat="37.66221155044817" lon="12.545782280081761"><ele>7.0</ele><time>2026-04-09T14:21:54Z</time></trkpt><trkpt lat="37.66223352866198" lon="12.545916031960653"><ele>6.999999999999999</ele><time>2026-04-09T14:21:55Z</time></trkpt><trkpt lat="37.66225639250176" lon="12.546051215142269"><ele>6.999999999999999</ele><time>2026-04-09T14:21:56Z</time></trkpt><trkpt lat="37.66227428169494" lon="12.546188488636277"><ele>7.0</ele><time>2026-04-09T14:21:57Z</time></trkpt><trkpt lat="37.66228966969487" lon="12.546329854296392"><ele>7.0</ele><time>2026-04-09T14:21:58Z</time></trkpt><trkpt lat="37.66230947585666" lon="12.54646823835332"><ele>7.0</ele><time>2026-04-09T14:21:59Z</time></trkpt><trkpt lat="37.66233678238178" lon="12.546606363640477"><ele>6.999999999999999</ele><time>2026-04-09T14:22:00Z</time></trkpt><trkpt lat="37.662369967931006" lon="12.546740762735347"><ele>6.999999999999999</ele><time>2026-04-09T14:22:01Z</time></trkpt><trkpt lat="37.66241760045294" lon="12.546862620202582"><ele>7.0</ele><time>2026-04-09T14:22:02Z</time></trkpt><trkpt lat="37.662455096313515" lon="12.546997099741443"><ele>7.0</ele><time>2026-04-09T14:22:03Z</time></trkpt><trkpt lat="37.662491138469555" lon="12.547126851632562"><ele>6.8</ele><time>2026-04-09T14:22:04Z</time></trkpt><trkpt lat="37.66253051321016" lon="12.547259429455371"><ele>6.6</ele><time>2026-04-09T14:22:05Z</time></trkpt><trkpt lat="37.66257085103127" lon="12.547385739123168"><ele>6.3999999999999995</ele><time>2026-04-09T14:22:06Z</time></trkpt><trkpt lat="37.66260815284297" lon="12.547520156054738"><ele>6.199999999999999</ele><time>2026-04-09T14:22:07Z</time></trkpt><trkpt lat="37.66265026537024" lon="12.547647583578271"><ele>6.0</ele><time>2026-04-09T14:22:08Z</time></trkpt><trkpt lat="37.662695987839776" lon="12.547773425614976"><ele>6.199999999999999</ele><time>2026-04-09T14:22:09Z</time></trkpt><trkpt lat="37.66273339188593" lon="12.547900172710607"><ele>6.3999999999999995</ele><time>2026-04-09T14:22:10Z</time></trkpt><trkpt lat="37.66277129806098" lon="12.548028997962087"><ele>6.6</ele><time>2026-04-09T14:22:11Z</time></trkpt><trkpt lat="37.66281440747117" lon="12.548159343636993"><ele>6.8</ele><time>2026-04-09T14:22:12Z</time></trkpt><trkpt lat="37.66285306276906" lon="12.548294901759665"><ele>7.0</ele><time>2026-04-09T14:22:13Z</time></trkpt><trkpt lat="37.66287411987327" lon="12.548428512649531"><ele>7.0</ele><time>2026-04-09T14:22:14Z</time></trkpt><trkpt lat="37.662898193129784" lon="12.548564036382883"><ele>6.999999999999999</ele><time>2026-04-09T14:22:15Z</time></trkpt><trkpt lat="37.662921054881934" lon="12.548700493697439"><ele>6.999999999999999</ele><time>2026-04-09T14:22:16Z</time></trkpt><trkpt lat="37.66295119769867" lon="12.548833675178571"><ele>7.0</ele><time>2026-04-09T14:22:17Z</time></trkpt><trkpt lat="37.662964599308964" lon="12.548965843485663"><ele>7.0</ele><time>2026-04-09T14:22:18Z</time></trkpt><trkpt lat="37.66298039669924" lon="12.549080069376215"><ele>7.0</ele><time>2026-04-09T14:22:19Z</time></trkpt><trkpt lat="37.662992671420106" lon="12.549170895491223"><ele>7.0</ele><time>2026-04-09T14:22:20Z</time></trkpt><trkpt lat="37.66301166707206" lon="12.549286278038153"><ele>7.0</ele><time>2026-04-09T14:22:21Z</time></trkpt><trkpt lat="37.66302808257106" lon="12.549385988207888"><ele>7.0</ele><time>2026-04-09T14:22:23Z</time></trkpt><trkpt lat="37.66327949547676" lon="12.549256434547404"><ele>7.000000000000001</ele><time>2026-04-09T14:22:26Z</time></trkpt><trkpt lat="37.66335601031817" lon="12.549140960027046"><ele>7.0</ele><time>2026-04-09T14:22:28Z</time></trkpt><trkpt lat="37.663391520148" lon="12.549075002569799"><ele>7.0</ele><time>2026-04-09T14:22:29Z</time></trkpt><trkpt lat="37.663440469125" lon="12.549013460740838"><ele>7.0</ele><time>2026-04-09T14:22:30Z</time></trkpt><trkpt lat="37.663476342140335" lon="12.54894444067323"><ele>7.000000000000001</ele><time>2026-04-09T14:22:31Z</time></trkpt><trkpt lat="37.66351266052259" lon="12.548874680362932"><ele>7.0</ele><time>2026-04-09T14:22:32Z</time></trkpt><trkpt lat="37.66356313182196" lon="12.548787580451386"><ele>6.833333333333334</ele><time>2026-04-09T14:22:33Z</time></trkpt><trkpt lat="37.6636221092824" lon="12.548721658645544"><ele>6.666666666666667</ele><time>2026-04-09T14:22:34Z</time></trkpt><trkpt lat="37.663674435052954" lon="12.548646182609716"><ele>6.5</ele><time>2026-04-09T14:22:35Z</time></trkpt><trkpt lat="37.66372343265773" lon="12.548569368433787"><ele>6.333333333333334</ele><time>2026-04-09T14:22:36Z</time></trkpt><trkpt lat="37.66376187995516" lon="12.548475590182905"><ele>6.166666666666667</ele><time>2026-04-09T14:22:37Z</time></trkpt><trkpt lat="37.66382185138462" lon="12.548402377888722"><ele>6.0</ele><time>2026-04-09T14:22:38Z</time></trkpt><trkpt lat="37.66387343262564" lon="12.548318827041209"><ele>6.0</ele><time>2026-04-09T14:22:38.999Z</time></trkpt><trkpt lat="37.6639174623205" lon="12.54822847958101"><ele>6.0</ele><time>2026-04-09T14:22:39.999Z</time></trkpt><trkpt lat="37.663970434077584" lon="12.548150008829051"><ele>6.0</ele><time>2026-04-09T14:22:40.999Z</time></trkpt><trkpt lat="37.664015146919084" lon="12.548058665223301"><ele>6.0</ele><time>2026-04-09T14:22:41.999Z</time></trkpt><trkpt lat="37.66407496192408" lon="12.5479922485144"><ele>6.0</ele><time>2026-04-09T14:22:42.999Z</time></trkpt><trkpt lat="37.66414338265567" lon="12.547880270820947"><ele>6.0</ele><time>2026-04-09T14:22:44.999Z</time></trkpt><trkpt lat="37.664231756741096" lon="12.547943054025996"><ele>6.0</ele><time>2026-04-09T14:22:49.999Z</time></trkpt><trkpt lat="37.664165203643" lon="12.547891769248814"><ele>6.0</ele><time>2026-04-09T14:22:54.999Z</time></trkpt><trkpt lat="37.66421317439638" lon="12.547766048947217"><ele>6.0</ele><time>2026-04-09T14:22:57.999Z</time></trkpt><trkpt lat="37.6642224668882" lon="12.547684311761401"><ele>6.0</ele><time>2026-04-09T14:22:58.999Z</time></trkpt><trkpt lat="37.66429414565917" lon="12.547554943698213"><ele>6.0</ele><time>2026-04-09T14:23:00.999Z</time></trkpt><trkpt lat="37.6643347882333" lon="12.54748660551613"><ele>6.0</ele><time>2026-04-09T14:23:01.999Z</time></trkpt><trkpt lat="37.66437542038216" lon="12.547413605578978"><ele>6.0</ele><time>2026-04-09T14:23:02.999Z</time></trkpt><trkpt lat="37.6644244994875" lon="12.547344691318155"><ele>6.0</ele><time>2026-04-09T14:23:03.999Z</time></trkpt><trkpt lat="37.6644719279896" lon="12.547272099777931"><ele>6.0</ele><time>2026-04-09T14:23:04.999Z</time></trkpt><trkpt lat="37.66451368243956" lon="12.547189058268845"><ele>6.0</ele><time>2026-04-09T14:23:05.999Z</time></trkpt><trkpt lat="37.66455998664979" lon="12.547108675284605"><ele>6.0</ele><time>2026-04-09T14:23:06.999Z</time></trkpt><trkpt lat="37.66460819003859" lon="12.547031787235778"><ele>6.0</ele><time>2026-04-09T14:23:07.999Z</time></trkpt><trkpt lat="37.66464870348069" lon="12.546960330058042"><ele>6.0</ele><time>2026-04-09T14:23:08.999Z</time></trkpt><trkpt lat="37.66473225632244" lon="12.5469033413961"><ele>6.0</ele><time>2026-04-09T14:23:10.999Z</time></trkpt><trkpt lat="37.664805623335674" lon="12.547001670482352"><ele>6.0</ele><time>2026-04-09T14:23:12.999Z</time></trkpt><trkpt lat="37.664785607864275" lon="12.547149433683227"><ele>6.0</ele><time>2026-04-09T14:23:14.999Z</time></trkpt><trkpt lat="37.66483759318185" lon="12.547293002637756"><ele>6.0</ele><time>2026-04-09T14:23:16.999Z</time></trkpt><trkpt lat="37.66488155813973" lon="12.547368155873668"><ele>6.0</ele><time>2026-04-09T14:23:17.999Z</time></trkpt><trkpt lat="37.6649143716709" lon="12.547447887923822"><ele>6.0</ele><time>2026-04-09T14:23:18.999Z</time></trkpt><trkpt lat="37.66494398108832" lon="12.547541249220993"><ele>6.0</ele><time>2026-04-09T14:23:19.999Z</time></trkpt><trkpt lat="37.66498279448019" lon="12.547626858045941"><ele>6.0</ele><time>2026-04-09T14:23:20.999Z</time></trkpt><trkpt lat="37.665034532452374" lon="12.54771216424853"><ele>6.0</ele><time>2026-04-09T14:23:21.999Z</time></trkpt><trkpt lat="37.66508433276887" lon="12.54779696675541"><ele>6.0</ele><time>2026-04-09T14:23:22.999Z</time></trkpt><trkpt lat="37.665133503250644" lon="12.54788062806806"><ele>5.8</ele><time>2026-04-09T14:23:23.999Z</time></trkpt><trkpt lat="37.66519359433823" lon="12.54796824025068"><ele>5.6</ele><time>2026-04-09T14:23:24.999Z</time></trkpt><trkpt lat="37.66525428363516" lon="12.548069987254761"><ele>5.4</ele><time>2026-04-09T14:23:25.999Z</time></trkpt><trkpt lat="37.66529269175936" lon="12.54815916468267"><ele>5.2</ele><time>2026-04-09T14:23:26.999Z</time></trkpt><trkpt lat="37.66533238475651" lon="12.548260804975607"><ele>5.0</ele><time>2026-04-09T14:23:27.999Z</time></trkpt><trkpt lat="37.665370423063976" lon="12.548364614038356"><ele>5.0</ele><time>2026-04-09T14:23:28.999Z</time></trkpt><trkpt lat="37.66542936047669" lon="12.548456862972598"><ele>5.0</ele><time>2026-04-09T14:23:29.999Z</time></trkpt><trkpt lat="37.665479642554374" lon="12.548553594435909"><ele>5.0</ele><time>2026-04-09T14:23:30.999Z</time></trkpt><trkpt lat="37.66553256172411" lon="12.548647517166733"><ele>5.0</ele><time>2026-04-09T14:23:31.999Z</time></trkpt><trkpt lat="37.66558795833435" lon="12.548748742140324"><ele>5.0</ele><time>2026-04-09T14:23:32.999Z</time></trkpt><trkpt lat="37.66563470469737" lon="12.54885706021716"><ele>5.0</ele><time>2026-04-09T14:23:33.999Z</time></trkpt><trkpt lat="37.66569142984196" lon="12.548958795997361"><ele>5.0</ele><time>2026-04-09T14:23:34.999Z</time></trkpt><trkpt lat="37.665752743801214" lon="12.549054096983511"><ele>5.0</ele><time>2026-04-09T14:23:35.999Z</time></trkpt><trkpt lat="37.66580621749942" lon="12.549171228143123"><ele>5.0</ele><time>2026-04-09T14:23:36.999Z</time></trkpt><trkpt lat="37.665863909268836" lon="12.549276894637357"><ele>5.0</ele><time>2026-04-09T14:23:37.999Z</time></trkpt><trkpt lat="37.66591688522534" lon="12.549378470518102"><ele>5.0</ele><time>2026-04-09T14:23:39Z</time></trkpt><trkpt lat="37.665952567162364" lon="12.549465300511182"><ele>5.0</ele><time>2026-04-09T14:23:40Z</time></trkpt><trkpt lat="37.665982933094725" lon="12.549551203888699"><ele>5.0</ele><time>2026-04-09T14:23:42Z</time></trkpt><trkpt lat="37.665948746431226" lon="12.54962791846089"><ele>5.0</ele><time>2026-04-09T14:23:45Z</time></trkpt><trkpt lat="37.66588147660629" lon="12.549713885597887"><ele>5.0</ele><time>2026-04-09T14:23:47Z</time></trkpt><trkpt lat="37.66581768699451" lon="12.54983318834375"><ele>5.0</ele><time>2026-04-09T14:23:49Z</time></trkpt><trkpt lat="37.665799011421896" lon="12.549912022003907"><ele>5.0</ele><time>2026-04-09T14:23:50Z</time></trkpt><trkpt lat="37.665785619795344" lon="12.5500000527563"><ele>5.0</ele><time>2026-04-09T14:23:51Z</time></trkpt><trkpt lat="37.66577241327393" lon="12.550091416409645"><ele>5.0</ele><time>2026-04-09T14:23:52Z</time></trkpt><trkpt lat="37.665751512220304" lon="12.550184562672886"><ele>5.0</ele><time>2026-04-09T14:23:53Z</time></trkpt><trkpt lat="37.665718541261995" lon="12.550276367157798"><ele>5.0</ele><time>2026-04-09T14:23:54Z</time></trkpt><trkpt lat="37.665677337604684" lon="12.5503686256783"><ele>5.0</ele><time>2026-04-09T14:23:55Z</time></trkpt><trkpt lat="37.6656305751536" lon="12.550457927877629"><ele>5.0</ele><time>2026-04-09T14:23:56Z</time></trkpt><trkpt lat="37.6655810545049" lon="12.550550292291359"><ele>5.0</ele><time>2026-04-09T14:23:57Z</time></trkpt><trkpt lat="37.66552415855794" lon="12.550641633713154"><ele>5.0</ele><time>2026-04-09T14:23:58Z</time></trkpt><trkpt lat="37.66546679561107" lon="12.550733697810744"><ele>5.0</ele><time>2026-04-09T14:23:59Z</time></trkpt><trkpt lat="37.66541409301971" lon="12.550829590575228"><ele>5.0</ele><time>2026-04-09T14:24:00Z</time></trkpt><trkpt lat="37.66535997956566" lon="12.550927699962857"><ele>5.0</ele><time>2026-04-09T14:24:01Z</time></trkpt><trkpt lat="37.66530109483225" lon="12.55102208906374"><ele>5.0</ele><time>2026-04-09T14:24:02Z</time></trkpt><trkpt lat="37.6652417790381" lon="12.551117245640082"><ele>5.0</ele><time>2026-04-09T14:24:03Z</time></trkpt><trkpt lat="37.66518461960251" lon="12.55121865368786"><ele>5.0</ele><time>2026-04-09T14:24:04Z</time></trkpt><trkpt lat="37.665127515071504" lon="12.551320763304707"><ele>5.0</ele><time>2026-04-09T14:24:05Z</time></trkpt><trkpt lat="37.6650703799849" lon="12.551426262077443"><ele>5.0</ele><time>2026-04-09T14:24:06Z</time></trkpt><trkpt lat="37.66501391667202" lon="12.551529590190547"><ele>5.0</ele><time>2026-04-09T14:24:07Z</time></trkpt><trkpt lat="37.66495588670097" lon="12.551633780113017"><ele>5.0</ele><time>2026-04-09T14:24:08Z</time></trkpt><trkpt lat="37.66489611533901" lon="12.551740281115897"><ele>5.0</ele><time>2026-04-09T14:24:09Z</time></trkpt><trkpt lat="37.66483564354092" lon="12.55184695371738"><ele>5.0</ele><time>2026-04-09T14:24:10Z</time></trkpt><trkpt lat="37.66477158495586" lon="12.551959124804192"><ele>5.0</ele><time>2026-04-09T14:24:11Z</time></trkpt><trkpt lat="37.664707235811804" lon="12.552063882748417"><ele>5.0</ele><time>2026-04-09T14:24:12Z</time></trkpt><trkpt lat="37.66464333265075" lon="12.552173088732633"><ele>5.0</ele><time>2026-04-09T14:24:13Z</time></trkpt><trkpt lat="37.664570660242326" lon="12.552282242241068"><ele>5.0</ele><time>2026-04-09T14:24:14Z</time></trkpt><trkpt lat="37.66451891205227" lon="12.552408156099899"><ele>5.0</ele><time>2026-04-09T14:24:15Z</time></trkpt><trkpt lat="37.664443048581724" lon="12.552510990354246"><ele>5.2</ele><time>2026-04-09T14:24:16Z</time></trkpt><trkpt lat="37.664382187421424" lon="12.552622504327786"><ele>5.4</ele><time>2026-04-09T14:24:17Z</time></trkpt><trkpt lat="37.66432356822347" lon="12.552731064837348"><ele>5.6</ele><time>2026-04-09T14:24:18Z</time></trkpt><trkpt lat="37.66428529602906" lon="12.552837957563538"><ele>5.8</ele><time>2026-04-09T14:24:19Z</time></trkpt><trkpt lat="37.66422470272845" lon="12.552934590991647"><ele>6.0</ele><time>2026-04-09T14:24:21Z</time></trkpt><trkpt lat="37.66429908543761" lon="12.553063629679187"><ele>6.199999999999999</ele><time>2026-04-09T14:24:25Z</time></trkpt><trkpt lat="37.66438678162584" lon="12.553138986239816"><ele>6.3999999999999995</ele><time>2026-04-09T14:24:27Z</time></trkpt><trkpt lat="37.66450485876587" lon="12.553188882904623"><ele>6.6</ele><time>2026-04-09T14:24:29Z</time></trkpt><trkpt lat="37.66462324293279" lon="12.553267514373573"><ele>6.8</ele><time>2026-04-09T14:24:31Z</time></trkpt><trkpt lat="37.66468964359183" lon="12.55330338909525"><ele>7.0</ele><time>2026-04-09T14:24:32Z</time></trkpt><trkpt lat="37.66476049604395" lon="12.553337722346372"><ele>7.000000000000001</ele><time>2026-04-09T14:24:33Z</time></trkpt><trkpt lat="37.66482764298649" lon="12.553376831441495"><ele>7.0</ele><time>2026-04-09T14:24:34Z</time></trkpt><trkpt lat="37.66490193376546" lon="12.553417492603787"><ele>7.0</ele><time>2026-04-09T14:24:35Z</time></trkpt><trkpt lat="37.66498060932704" lon="12.553452852919861"><ele>7.0</ele><time>2026-04-09T14:24:36Z</time></trkpt><trkpt lat="37.66505654743564" lon="12.553493741103464"><ele>7.000000000000001</ele><time>2026-04-09T14:24:37Z</time></trkpt><trkpt lat="37.66513247682307" lon="12.553536772329457"><ele>7.0</ele><time>2026-04-09T14:24:38Z</time></trkpt><trkpt lat="37.665211406956374" lon="12.553582486561528"><ele>7.000000000000001</ele><time>2026-04-09T14:24:39Z</time></trkpt><trkpt lat="37.66528396632094" lon="12.553642789308482"><ele>7.0</ele><time>2026-04-09T14:24:40Z</time></trkpt><trkpt lat="37.66536426272943" lon="12.553684706170596"><ele>7.0</ele><time>2026-04-09T14:24:41Z</time></trkpt><trkpt lat="37.66544354509628" lon="12.553726840257337"><ele>7.0</ele><time>2026-04-09T14:24:42Z</time></trkpt><trkpt lat="37.665523093779015" lon="12.553768998786625"><ele>7.000000000000001</ele><time>2026-04-09T14:24:43Z</time></trkpt><trkpt lat="37.66560965995714" lon="12.553792615817661"><ele>7.0</ele><time>2026-04-09T14:24:44Z</time></trkpt><trkpt lat="37.665685298919726" lon="12.553844724556646"><ele>7.333333333333334</ele><time>2026-04-09T14:24:45Z</time></trkpt><trkpt lat="37.665754194193326" lon="12.55389942551063"><ele>7.666666666666667</ele><time>2026-04-09T14:24:46Z</time></trkpt><trkpt lat="37.66583577095646" lon="12.55395006451801"><ele>8.0</ele><time>2026-04-09T14:24:47Z</time></trkpt><trkpt lat="37.66591530922726" lon="12.553974548348117"><ele>8.333333333333334</ele><time>2026-04-09T14:24:48Z</time></trkpt><trkpt lat="37.66599401041248" lon="12.554008566490381"><ele>8.666666666666666</ele><time>2026-04-09T14:24:48.999Z</time></trkpt><trkpt lat="37.66606787679277" lon="12.554049413777214"><ele>9.0</ele><time>2026-04-09T14:24:49.999Z</time></trkpt><trkpt lat="37.66613915386274" lon="12.554093303976611"><ele>9.333333333333334</ele><time>2026-04-09T14:24:50.999Z</time></trkpt><trkpt lat="37.66621121269073" lon="12.554130072263344"><ele>9.666666666666666</ele><time>2026-04-09T14:24:51.999Z</time></trkpt><trkpt lat="37.66628102115937" lon="12.554169723061046"><ele>10.0</ele><time>2026-04-09T14:24:52.999Z</time></trkpt><trkpt lat="37.66635000661969" lon="12.554215931790331"><ele>10.333333333333332</ele><time>2026-04-09T14:24:53.999Z</time></trkpt><trkpt lat="37.666420996416065" lon="12.55425059617249"><ele>10.666666666666666</ele><time>2026-04-09T14:24:54.999Z</time></trkpt><trkpt lat="37.666493722495325" lon="12.554283887050321"><ele>11.0</ele><time>2026-04-09T14:24:55.999Z</time></trkpt><trkpt lat="37.66656655651455" lon="12.554315395261863"><ele>11.0</ele><time>2026-04-09T14:24:56.999Z</time></trkpt><trkpt lat="37.6666415274727" lon="12.554347726111361"><ele>11.0</ele><time>2026-04-09T14:24:57.999Z</time></trkpt><trkpt lat="37.66670989701107" lon="12.55438327456854"><ele>11.0</ele><time>2026-04-09T14:24:58.999Z</time></trkpt><trkpt lat="37.666769548822785" lon="12.554419001454889"><ele>11.0</ele><time>2026-04-09T14:24:59.999Z</time></trkpt><trkpt lat="37.666830239661785" lon="12.554451370231252"><ele>11.0</ele><time>2026-04-09T14:25:00.999Z</time></trkpt><trkpt lat="37.66692263451336" lon="12.554489053657615"><ele>11.0</ele><time>2026-04-09T14:25:02.999Z</time></trkpt><trkpt lat="37.66689703607556" lon="12.554586120711097"><ele>10.857142857142858</ele><time>2026-04-09T14:25:06.999Z</time></trkpt><trkpt lat="37.66687530237244" lon="12.554666515176601"><ele>10.714285714285714</ele><time>2026-04-09T14:25:09.999Z</time></trkpt><trkpt lat="37.666830028844274" lon="12.554739336510238"><ele>10.571428571428571</ele><time>2026-04-09T14:25:12.999Z</time></trkpt><trkpt lat="37.66679990090071" lon="12.554826901693913"><ele>10.428571428571429</ele><time>2026-04-09T14:25:15.999Z</time></trkpt><trkpt lat="37.666755807567654" lon="12.55489266842704"><ele>10.285714285714286</ele><time>2026-04-09T14:25:18.999Z</time></trkpt><trkpt lat="37.66673224353453" lon="12.554974500544846"><ele>10.142857142857142</ele><time>2026-04-09T14:25:21.999Z</time></trkpt><trkpt lat="37.666708811222094" lon="12.555050437844763"><ele>10.0</ele><time>2026-04-09T14:25:23.999Z</time></trkpt><trkpt lat="37.66666527851892" lon="12.555117014391756"><ele>10.0</ele><time>2026-04-09T14:25:25.999Z</time></trkpt><trkpt lat="37.66663279481353" lon="12.55518780007595"><ele>10.0</ele><time>2026-04-09T14:25:27.999Z</time></trkpt><trkpt lat="37.66660421376289" lon="12.555262991015391"><ele>10.0</ele><time>2026-04-09T14:25:29.999Z</time></trkpt><trkpt lat="37.66656131644932" lon="12.555326887755006"><ele>10.0</ele><time>2026-04-09T14:25:31.999Z</time></trkpt><trkpt lat="37.666540486235746" lon="12.55540447621798"><ele>10.0</ele><time>2026-04-09T14:25:33.999Z</time></trkpt><trkpt lat="37.66650586654207" lon="12.555474626518278"><ele>10.0</ele><time>2026-04-09T14:25:35.999Z</time></trkpt><trkpt lat="37.6664618800806" lon="12.555539910085557"><ele>10.0</ele><time>2026-04-09T14:25:37.999Z</time></trkpt><trkpt lat="37.66642865844945" lon="12.55561261196607"><ele>10.166666666666668</ele><time>2026-04-09T14:25:39.999Z</time></trkpt><trkpt lat="37.666408191880706" lon="12.555691780226423"><ele>10.333333333333334</ele><time>2026-04-09T14:25:41.999Z</time></trkpt><trkpt lat="37.666375479479896" lon="12.555760991950418"><ele>10.5</ele><time>2026-04-09T14:25:43.999Z</time></trkpt><trkpt lat="37.66632977617422" lon="12.555853077864493"><ele>10.666666666666666</ele><time>2026-04-09T14:25:47Z</time></trkpt><trkpt lat="37.66628349233036" lon="12.555949593822849"><ele>10.833333333333332</ele><time>2026-04-09T14:25:50Z</time></trkpt><trkpt lat="37.66623467715704" lon="12.5560477531469"><ele>11.0</ele><time>2026-04-09T14:25:53Z</time></trkpt><trkpt lat="37.66619354297369" lon="12.556144834373677"><ele>10.666666666666666</ele><time>2026-04-09T14:25:56Z</time></trkpt><trkpt lat="37.66616353707415" lon="12.55621564737341"><ele>10.333333333333332</ele><time>2026-04-09T14:25:58Z</time></trkpt><trkpt lat="37.66612165188161" lon="12.556312714062768"><ele>10.0</ele><time>2026-04-09T14:26:01Z</time></trkpt><trkpt lat="37.6660745552037" lon="12.5563918512112"><ele>9.666666666666666</ele><time>2026-04-09T14:26:04Z</time></trkpt><trkpt lat="37.666016225291386" lon="12.556317023029749"><ele>9.333333333333334</ele><time>2026-04-09T14:26:06Z</time></trkpt><trkpt lat="37.66593030191657" lon="12.556268461323397"><ele>9.0</ele><time>2026-04-09T14:26:09Z</time></trkpt><trkpt lat="37.66585069391398" lon="12.55622346887804"><ele>9.000000000000002</ele><time>2026-04-09T14:26:12Z</time></trkpt><trkpt lat="37.66578656766765" lon="12.556207265122145"><ele>9.0</ele><time>2026-04-09T14:26:14Z</time></trkpt><trkpt lat="37.66570559506706" lon="12.556198397282046"><ele>9.0</ele><time>2026-04-09T14:26:17Z</time></trkpt><trkpt lat="37.66566856062905" lon="12.556271296371888"><ele>9.0</ele><time>2026-04-09T14:26:19Z</time></trkpt><trkpt lat="37.665653776166316" lon="12.556351321495674"><ele>9.0</ele><time>2026-04-09T14:26:21Z</time></trkpt><trkpt lat="37.66558872187738" lon="12.556436032370716"><ele>9.000000000000002</ele><time>2026-04-09T14:26:24Z</time></trkpt><trkpt lat="37.66553753260598" lon="12.556482948697482"><ele>9.0</ele><time>2026-04-09T14:26:26Z</time></trkpt><trkpt lat="37.6654586958108" lon="12.556525768908534"><ele>9.000000000000002</ele><time>2026-04-09T14:26:29Z</time></trkpt><trkpt lat="37.665447151902605" lon="12.556440085503151"><ele>9.0</ele><time>2026-04-09T14:26:31Z</time></trkpt><trkpt lat="37.66537641642446" lon="12.556415550689747"><ele>9.0</ele><time>2026-04-09T14:26:33Z</time></trkpt><trkpt lat="37.66530555241189" lon="12.556393911484534"><ele>9.0</ele><time>2026-04-09T14:26:36Z</time></trkpt><trkpt lat="37.66537816707186" lon="12.556424126986837"><ele>9.0</ele><time>2026-04-09T14:26:40Z</time></trkpt><trkpt lat="37.665464626927985" lon="12.55646072317898"><ele>9.000000000000002</ele><time>2026-04-09T14:26:43Z</time></trkpt><trkpt lat="37.66548560009298" lon="12.556538048559107"><ele>9.0</ele><time>2026-04-09T14:26:46Z</time></trkpt><trkpt lat="37.66546991741205" lon="12.556661970899711"><ele>9.0</ele><time>2026-04-09T14:26:48Z</time></trkpt><trkpt lat="37.66544681334286" lon="12.55676148534859"><ele>9.0</ele><time>2026-04-09T14:26:50Z</time></trkpt><trkpt lat="37.665414130743194" lon="12.556856024304693"><ele>9.0</ele><time>2026-04-09T14:26:52Z</time></trkpt><trkpt lat="37.66536489605914" lon="12.556927032293558"><ele>9.0</ele><time>2026-04-09T14:26:54Z</time></trkpt><trkpt lat="37.665281384817284" lon="12.556933021740344"><ele>9.0</ele><time>2026-04-09T14:26:55.999Z</time></trkpt><trkpt lat="37.665210189948766" lon="12.556877017702403"><ele>9.0</ele><time>2026-04-09T14:26:57.999Z</time></trkpt><trkpt lat="37.665140339071705" lon="12.556839540389177"><ele>8.833333333333334</ele><time>2026-04-09T14:26:59.999Z</time></trkpt><trkpt lat="37.665078885272585" lon="12.5568147977366"><ele>8.666666666666666</ele><time>2026-04-09T14:27:01.999Z</time></trkpt><trkpt lat="37.66501032356251" lon="12.556778450884844"><ele>8.5</ele><time>2026-04-09T14:27:03.999Z</time></trkpt><trkpt lat="37.66493454789906" lon="12.556742448072946"><ele>8.333333333333332</ele><time>2026-04-09T14:27:05.999Z</time></trkpt><trkpt lat="37.66487728362432" lon="12.556702473636435"><ele>8.166666666666666</ele><time>2026-04-09T14:27:07.999Z</time></trkpt><trkpt lat="37.664956776290836" lon="12.556738150939747"><ele>8.0</ele><time>2026-04-09T14:27:16.999Z</time></trkpt><trkpt lat="37.66484261667264" lon="12.55667566054212"><ele>8.0</ele><time>2026-04-09T14:27:30.999Z</time></trkpt><trkpt lat="37.66476834154539" lon="12.556642094894825"><ele>8.0</ele><time>2026-04-09T14:27:32.999Z</time></trkpt><trkpt lat="37.664694454724675" lon="12.556598603357763"><ele>8.0</ele><time>2026-04-09T14:27:34.999Z</time></trkpt><trkpt lat="37.66463586860436" lon="12.556566521184891"><ele>8.0</ele><time>2026-04-09T14:27:36.999Z</time></trkpt><trkpt lat="37.66457663272905" lon="12.556539402266534"><ele>8.0</ele><time>2026-04-09T14:27:38.999Z</time></trkpt><trkpt lat="37.66451768778345" lon="12.556505710014536"><ele>8.0</ele><time>2026-04-09T14:27:40.999Z</time></trkpt></trkseg></trk></gpx>